Darstellungsparameter: Aktuell verwendete Einstellungen:
Skalierung der Graphiken ... ?
xyx+y,   Skalierungsfaktor:      Skalierung: Modus: x, Faktor: 1
Darstellungszeitraum ... ?
Vom - - bis: - -   Zeitraum: 07.07.2014 - 06.01.2015
Min/Max/Avg-Anzeige ... ?
Zeige MMA aktuell
Zeige MMA Monat
Zeige MMA alles
Zeige --A aktuell
Zeige --A Monat
Zeige --A alles
Keine MMA-Anzeige
MMA:
Keine MMA-Graphiken
MMA-Basis: 07.07.2014 - 06.01.2015
Quicknavigation für Darstellung... ?
Tage:      1T, 2T, 3T, 5T -1T -2T -3T -5T +1T +2T +3T +5T
Wochen: 1W, 2W, 3W -1W -2W -3W +1W +2W +3W
Monate: 1M, 3M, 6M -1M -3M -6M +1M +3M +6M
Jahre:    1J, 3J, 5J, 10J -1J -3J -5J -10J +1J +3J +5J +10J
Nutze für die Darstellung ... ?
Originaldaten oder Mittelwerte auf ...
Stundenbasis Tagesbasis Wochenbasis
Monatsbasis Jahresbasis      Datenbasis: Original-Daten
Darstellen als:
Statistik (Auto) Statistik J:M      Darstellung:
Zur Graphik,    zurück zur Übersicht aller Sensoren.
 
Tabellarische Datenbersicht: ?
 
Sensor: Nr:Datum:Temp:Abs-Feuchte:Windchill:Wind:
Aussen-T/F 1 07-07-2014 01:10:00 17.7 C 14.03 g/m*3 17.7 C 1.6 km/h
2 07-07-2014 01:15:00 17.7 C 14.03 g/m*3 17.7 C 1.6 km/h
3 07-07-2014 01:20:00 17.8 C 14.12 g/m*3 17.8 C 4.8 km/h
4 07-07-2014 01:25:00 17.8 C 14.12 g/m*3 17.8 C 1.6 km/h
5 07-07-2014 01:30:00 17.9 C 14.05 g/m*3 17.9 C 3.2 km/h
6 07-07-2014 01:35:00 17.9 C 14.05 g/m*3 17.9 C 1.6 km/h
7 07-07-2014 01:40:00 17.9 C 14.05 g/m*3 17.9 C 0 km/h
8 07-07-2014 01:45:00 17.9 C 14.05 g/m*3 17.9 C 0 km/h
9 07-07-2014 02:25:00 17.4 C 13.63 g/m*3 17.4 C 11.3 km/h
10 07-07-2014 02:30:00 17.3 C 13.41 g/m*3 17.3 C 8.1 km/h
11 07-07-2014 02:35:00 17.3 C 13.41 g/m*3 17.3 C 8.1 km/h
12 07-07-2014 02:40:00 17.2 C 13.33 g/m*3 17.2 C 9.7 km/h
13 07-07-2014 02:45:00 17.2 C 13.33 g/m*3 17.2 C 8.1 km/h
14 07-07-2014 02:50:00 17.2 C 13.33 g/m*3 17.2 C 4.8 km/h
15 07-07-2014 02:55:00 17.1 C 13.25 g/m*3 17.1 C 8.1 km/h
16 07-07-2014 03:00:00 17 C 13.02 g/m*3 17 C 11.3 km/h
17 07-07-2014 03:05:00 16.9 C 12.94 g/m*3 16.9 C 6.4 km/h
18 07-07-2014 03:10:00 16.8 C 12.72 g/m*3 16.8 C 14.5 km/h
19 07-07-2014 03:15:00 16.8 C 12.72 g/m*3 16.8 C 6.4 km/h
20 07-07-2014 03:20:00 16.7 C 12.65 g/m*3 16.7 C 4.8 km/h
21 07-07-2014 03:25:00 16.7 C 12.79 g/m*3 16.7 C 3.2 km/h
22 07-07-2014 03:30:00 16.6 C 12.86 g/m*3 16.6 C 3.2 km/h
23 07-07-2014 03:35:00 16.4 C 12.56 g/m*3 16.4 C 0 km/h
24 07-07-2014 03:40:00 16.3 C 12.49 g/m*3 16.3 C 3.2 km/h
25 07-07-2014 03:45:00 16.2 C 12.41 g/m*3 16.2 C 4.8 km/h
Sensor: Nr:Datum:Temp:Abs-Feuchte:Windchill:Wind:
Aussen-T/F 26 07-07-2014 03:50:00 16.2 C 12.55 g/m*3 16.2 C 0 km/h
27 07-07-2014 03:55:00 16.1 C 12.47 g/m*3 16.1 C 0 km/h
28 07-07-2014 04:00:00 16 C 12.53 g/m*3 16 C 1.6 km/h
29 07-07-2014 04:05:00 15.9 C 12.32 g/m*3 15.9 C 1.6 km/h
30 07-07-2014 04:10:00 15.8 C 12.38 g/m*3 15.8 C 1.6 km/h
31 07-07-2014 04:15:00 15.8 C 12.38 g/m*3 15.8 C 3.2 km/h
32 07-07-2014 04:20:00 15.7 C 12.31 g/m*3 15.7 C 0 km/h
33 07-07-2014 04:25:00 15.7 C 12.31 g/m*3 15.7 C 1.6 km/h
34 07-07-2014 04:30:00 15.6 C 12.23 g/m*3 15.6 C 1.6 km/h
35 07-07-2014 04:35:00 15.6 C 12.23 g/m*3 15.6 C 1.6 km/h
36 07-07-2014 04:40:00 15.4 C 11.96 g/m*3 15.4 C 1.6 km/h
37 07-07-2014 04:45:00 15.4 C 12.09 g/m*3 15.4 C 1.6 km/h
38 07-07-2014 04:50:00 15.3 C 12.01 g/m*3 15.3 C 0 km/h
39 07-07-2014 04:55:00 15.2 C 11.94 g/m*3 15.2 C 0 km/h
40 07-07-2014 05:00:00 15.2 C 11.94 g/m*3 15.2 C 1.6 km/h
41 07-07-2014 05:05:00 15.2 C 12.07 g/m*3 15.2 C 0 km/h
42 07-07-2014 05:10:00 15.1 C 12 g/m*3 15.1 C 0 km/h
43 07-07-2014 05:15:00 14.9 C 11.85 g/m*3 14.9 C 0 km/h
44 07-07-2014 05:20:00 14.8 C 11.78 g/m*3 14.8 C 0 km/h
45 07-07-2014 05:25:00 14.6 C 11.64 g/m*3 14.6 C 1.6 km/h
46 07-07-2014 05:30:00 14.5 C 11.57 g/m*3 14.5 C 0 km/h
47 07-07-2014 05:35:00 14.4 C 11.62 g/m*3 14.4 C 0 km/h
48 07-07-2014 05:40:00 14.3 C 11.55 g/m*3 14.3 C 0 km/h
49 07-07-2014 05:45:00 14.1 C 11.41 g/m*3 14.1 C 0 km/h
50 07-07-2014 05:50:00 14 C 11.34 g/m*3 14 C 0 km/h
Sensor: Nr:Datum:Temp:Abs-Feuchte:Windchill:Wind:
Aussen-T/F 51 07-07-2014 05:55:00 13.9 C 11.27 g/m*3 13.9 C 0 km/h
52 07-07-2014 06:00:00 13.9 C 11.27 g/m*3 13.9 C 0 km/h
53 07-07-2014 06:05:00 13.9 C 11.39 g/m*3 13.9 C 0 km/h
54 07-07-2014 06:10:00 14 C 11.46 g/m*3 14 C 0 km/h
55 07-07-2014 06:15:00 14.1 C 11.53 g/m*3 14.1 C 0 km/h
56 07-07-2014 06:20:00 14.2 C 11.6 g/m*3 14.2 C 0 km/h
57 07-07-2014 06:25:00 14.3 C 11.67 g/m*3 14.3 C 0 km/h
58 07-07-2014 06:30:00 14.4 C 11.74 g/m*3 14.4 C 0 km/h
59 07-07-2014 06:35:00 14.4 C 11.62 g/m*3 14.4 C 0 km/h
60 07-07-2014 06:40:00 14.6 C 11.76 g/m*3 14.6 C 0 km/h
61 07-07-2014 06:45:00 14.7 C 11.83 g/m*3 14.7 C 1.6 km/h
62 07-07-2014 06:50:00 14.9 C 11.98 g/m*3 14.9 C 0 km/h
63 07-07-2014 06:55:00 15 C 12.05 g/m*3 15 C 0 km/h
64 07-07-2014 07:00:00 15.1 C 12 g/m*3 15.1 C 0 km/h
65 07-07-2014 07:05:00 15.1 C 11.74 g/m*3 15.1 C 0 km/h
66 07-07-2014 07:10:00 15.2 C 11.68 g/m*3 15.2 C 0 km/h
67 07-07-2014 07:15:00 15.3 C 11.88 g/m*3 15.3 C 0 km/h
68 07-07-2014 07:20:00 15.3 C 11.75 g/m*3 15.3 C 0 km/h
69 07-07-2014 07:25:00 15.4 C 11.82 g/m*3 15.4 C 0 km/h
70 07-07-2014 07:30:00 15.4 C 11.82 g/m*3 15.4 C 0 km/h
71 07-07-2014 07:35:00 15.5 C 11.76 g/m*3 15.5 C 0 km/h
72 07-07-2014 07:40:00 15.6 C 11.97 g/m*3 15.6 C 0 km/h
73 07-07-2014 07:45:00 15.6 C 11.84 g/m*3 15.6 C 0 km/h
74 07-07-2014 07:50:00 15.5 C 11.63 g/m*3 15.5 C 0 km/h
75 07-07-2014 07:55:00 15.5 C 11.76 g/m*3 15.5 C 0 km/h
Sensor: Nr:Datum:Temp:Abs-Feuchte:Windchill:Wind:
Aussen-T/F 76 07-07-2014 08:00:00 15.6 C 11.84 g/m*3 15.6 C 0 km/h
77 07-07-2014 08:05:00 15.6 C 11.7 g/m*3 15.6 C 0 km/h
78 07-07-2014 08:10:00 15.7 C 11.77 g/m*3 15.7 C 1.6 km/h
79 07-07-2014 08:15:00 15.7 C 11.64 g/m*3 15.7 C 0 km/h
80 07-07-2014 08:20:00 15.7 C 11.64 g/m*3 15.7 C 0 km/h
81 07-07-2014 08:25:00 15.8 C 11.58 g/m*3 15.8 C 1.6 km/h
82 07-07-2014 08:30:00 15.8 C 11.71 g/m*3 15.8 C 0 km/h
83 07-07-2014 08:35:00 15.9 C 11.65 g/m*3 15.9 C 0 km/h
84 07-07-2014 08:40:00 16 C 11.85 g/m*3 16 C 0 km/h
85 07-07-2014 08:45:00 16.1 C 11.79 g/m*3 16.1 C 0 km/h
86 07-07-2014 08:50:00 16.2 C 11.86 g/m*3 16.2 C 0 km/h
87 07-07-2014 08:55:00 16.3 C 12.07 g/m*3 16.3 C 0 km/h
88 07-07-2014 09:00:00 16.4 C 11.17 g/m*3 16.4 C 3.2 km/h
89 07-07-2014 09:05:00 16.6 C 10.74 g/m*3 16.6 C 3.2 km/h
90 07-07-2014 09:10:00 16.7 C 10.37 g/m*3 16.7 C 6.4 km/h
91 07-07-2014 09:15:00 16.8 C 10.29 g/m*3 16.8 C 4.8 km/h
92 07-07-2014 09:20:00 16.8 C 10.15 g/m*3 16.8 C 4.8 km/h
93 07-07-2014 09:25:00 16.9 C 10.07 g/m*3 16.9 C 8.1 km/h
94 07-07-2014 09:30:00 16.9 C 9.92 g/m*3 16.9 C 6.4 km/h
95 07-07-2014 09:35:00 16.9 C 9.92 g/m*3 16.9 C 4.8 km/h
96 07-07-2014 09:40:00 16.9 C 9.78 g/m*3 16.9 C 3.2 km/h
97 07-07-2014 09:45:00 16.9 C 9.64 g/m*3 16.9 C 8.1 km/h
98 07-07-2014 09:50:00 16.8 C 9.29 g/m*3 16.8 C 4.8 km/h
99 07-07-2014 09:55:00 16.8 C 9.29 g/m*3 16.8 C 6.4 km/h
100 07-07-2014 10:00:00 16.8 C 9.58 g/m*3 16.8 C 6.4 km/h
Sensor: Nr:Datum:Temp:Abs-Feuchte:Windchill:Wind:
Aussen-T/F 101 07-07-2014 10:05:00 16.9 C 9.78 g/m*3 16.9 C 3.2 km/h
102 07-07-2014 10:10:00 17.3 C 10.02 g/m*3 17.3 C 3.2 km/h
103 07-07-2014 10:15:00 17.6 C 9.9 g/m*3 17.6 C 4.8 km/h
104 07-07-2014 10:20:00 17.8 C 9.71 g/m*3 17.8 C 6.4 km/h
105 07-07-2014 10:25:00 18.2 C 9.95 g/m*3 18.2 C 4.8 km/h
106 07-07-2014 10:30:00 18.4 C 10.22 g/m*3 18.4 C 4.8 km/h
107 07-07-2014 10:35:00 18.6 C 10.5 g/m*3 18.6 C 8.1 km/h
108 07-07-2014 10:40:00 18.8 C 10.47 g/m*3 18.8 C 3.2 km/h
109 07-07-2014 10:45:00 18.8 C 10.31 g/m*3 18.8 C 8.1 km/h
110 07-07-2014 10:50:00 18.8 C 10.63 g/m*3 18.8 C 3.2 km/h
111 07-07-2014 10:55:00 19.1 C 9.84 g/m*3 19.1 C 8.1 km/h
112 07-07-2014 11:00:00 19.3 C 9.62 g/m*3 19.3 C 6.4 km/h
113 07-07-2014 11:05:00 19.4 C 9.68 g/m*3 19.4 C 8.1 km/h
114 07-07-2014 11:10:00 19.4 C 9.51 g/m*3 19.4 C 4.8 km/h
115 07-07-2014 11:15:00 19.4 C 9.68 g/m*3 19.4 C 4.8 km/h
116 07-07-2014 11:20:00 19.3 C 9.45 g/m*3 19.3 C 4.8 km/h
117 07-07-2014 11:25:00 19.3 C 9.45 g/m*3 19.3 C 3.2 km/h
118 07-07-2014 11:30:00 19.4 C 9.34 g/m*3 19.4 C 8.1 km/h
119 07-07-2014 11:35:00 19.4 C 9.34 g/m*3 19.4 C 3.2 km/h
120 07-07-2014 11:40:00 19.4 C 9.51 g/m*3 19.4 C 6.4 km/h
121 07-07-2014 11:45:00 19.7 C 9.17 g/m*3 19.7 C 6.4 km/h
122 07-07-2014 11:50:00 19.9 C 9.11 g/m*3 19.9 C 8.1 km/h
123 07-07-2014 11:55:00 20.1 C 9.56 g/m*3 20.1 C 4.8 km/h
124 07-07-2014 12:00:00 20.3 C 9.32 g/m*3 20.3 C 4.8 km/h
125 07-07-2014 12:05:00 20.6 C 9.31 g/m*3 20.6 C 6.4 km/h
Sensor: Nr:Datum:Temp:Abs-Feuchte:Windchill:Wind:
Aussen-T/F 126 07-07-2014 12:10:00 20.6 C 9.66 g/m*3 20.6 C 4.8 km/h
127 07-07-2014 12:15:00 20.5 C 9.25 g/m*3 20.5 C 4.8 km/h
128 07-07-2014 12:20:00 20.7 C 9.9 g/m*3 20.7 C 6.4 km/h
129 07-07-2014 12:25:00 20.9 C 8.92 g/m*3 20.9 C 3.2 km/h
130 07-07-2014 12:30:00 21.2 C 9.64 g/m*3 21.2 C 9.7 km/h
131 07-07-2014 12:35:00 21.4 C 9.19 g/m*3 21.4 C 8.1 km/h
132 07-07-2014 12:40:00 21.7 C 10.11 g/m*3 21.7 C 6.4 km/h
133 07-07-2014 12:45:00 21.9 C 9.84 g/m*3 21.9 C 9.7 km/h
134 07-07-2014 12:50:00 21.8 C 9.21 g/m*3 21.8 C 4.8 km/h
135 07-07-2014 12:55:00 21.7 C 9.73 g/m*3 21.7 C 9.7 km/h
136 07-07-2014 13:00:00 21.8 C 9.59 g/m*3 21.8 C 6.4 km/h
137 07-07-2014 13:05:00 21.8 C 9.78 g/m*3 21.8 C 6.4 km/h
138 07-07-2014 13:10:00 21.8 C 9.4 g/m*3 21.8 C 4.8 km/h
139 07-07-2014 13:15:00 21.7 C 9.92 g/m*3 21.7 C 6.4 km/h
140 07-07-2014 13:20:00 21.8 C 9.78 g/m*3 21.8 C 8.1 km/h
141 07-07-2014 13:25:00 21.8 C 9.21 g/m*3 21.8 C 6.4 km/h
142 07-07-2014 13:30:00 21.7 C 9.73 g/m*3 21.7 C 4.8 km/h
143 07-07-2014 13:35:00 21.8 C 10.55 g/m*3 21.8 C 4.8 km/h
144 07-07-2014 13:40:00 21.8 C 9.4 g/m*3 21.8 C 6.4 km/h
145 07-07-2014 13:45:00 21.7 C 9.92 g/m*3 21.7 C 3.2 km/h
146 07-07-2014 13:50:00 21.8 C 9.4 g/m*3 21.8 C 4.8 km/h
147 07-07-2014 13:55:00 21.9 C 9.65 g/m*3 21.9 C 3.2 km/h
148 07-07-2014 14:00:00 22.2 C 9.82 g/m*3 22.2 C 6.4 km/h
149 07-07-2014 14:05:00 22.4 C 9.73 g/m*3 22.4 C 6.4 km/h
150 07-07-2014 14:10:00 22.7 C 9.9 g/m*3 22.7 C 6.4 km/h
Sensor: Nr:Datum:Temp:Abs-Feuchte:Windchill:Wind:
Aussen-T/F 151 07-07-2014 14:15:00 22.7 C 10.1 g/m*3 22.7 C 6.4 km/h
152 07-07-2014 14:20:00 22.9 C 10.01 g/m*3 22.9 C 4.8 km/h
153 07-07-2014 14:25:00 22.9 C 8.79 g/m*3 22.9 C 3.2 km/h
154 07-07-2014 14:30:00 23.1 C 9.92 g/m*3 23.1 C 9.7 km/h
155 07-07-2014 14:35:00 23.3 C 9.2 g/m*3 23.3 C 9.7 km/h
156 07-07-2014 14:40:00 23.4 C 9.25 g/m*3 23.4 C 8.1 km/h
157 07-07-2014 14:45:00 23.5 C 9.31 g/m*3 23.5 C 9.7 km/h
158 07-07-2014 14:50:00 23.4 C 9.25 g/m*3 23.4 C 6.4 km/h
159 07-07-2014 14:55:00 23.3 C 9.41 g/m*3 23.3 C 8.1 km/h
160 07-07-2014 15:00:00 23.4 C 9.25 g/m*3 23.4 C 4.8 km/h
161 07-07-2014 15:05:00 23.4 C 8.62 g/m*3 23.4 C 11.3 km/h
162 07-07-2014 15:10:00 23.3 C 9.2 g/m*3 23.3 C 6.4 km/h
163 07-07-2014 15:15:00 23.6 C 9.78 g/m*3 23.6 C 4.8 km/h
164 07-07-2014 15:20:00 23.9 C 9.3 g/m*3 23.9 C 6.4 km/h
165 07-07-2014 15:25:00 24.1 C 8.53 g/m*3 24.1 C 3.2 km/h
166 07-07-2014 15:30:00 24.2 C 9.24 g/m*3 24.2 C 9.7 km/h
167 07-07-2014 15:35:00 24.3 C 8.63 g/m*3 24.3 C 6.4 km/h
168 07-07-2014 15:40:00 24.4 C 8.68 g/m*3 24.4 C 9.7 km/h
169 07-07-2014 15:45:00 24.2 C 9.24 g/m*3 24.2 C 9.7 km/h
170 07-07-2014 15:50:00 24.2 C 8.58 g/m*3 24.2 C 8.1 km/h
171 07-07-2014 15:55:00 24.3 C 9.29 g/m*3 24.3 C 9.7 km/h
172 07-07-2014 16:00:00 24.3 C 8.85 g/m*3 24.3 C 8.1 km/h
173 07-07-2014 16:05:00 24.2 C 9.02 g/m*3 24.2 C 11.3 km/h
174 07-07-2014 16:10:00 24 C 9.14 g/m*3 24 C 11.3 km/h
175 07-07-2014 16:15:00 23.8 C 8.39 g/m*3 23.8 C 9.7 km/h
Sensor: Nr:Datum:Temp:Abs-Feuchte:Windchill:Wind:
Aussen-T/F 176 07-07-2014 16:20:00 23.8 C 8.39 g/m*3 23.8 C 4.8 km/h
177 07-07-2014 16:25:00 24.1 C 8.53 g/m*3 24.1 C 9.7 km/h
178 07-07-2014 16:30:00 24.4 C 8.46 g/m*3 24.4 C 8.1 km/h
179 07-07-2014 16:35:00 24.3 C 7.97 g/m*3 24.3 C 6.4 km/h
180 07-07-2014 16:40:00 24.4 C 8.9 g/m*3 24.4 C 6.4 km/h
181 07-07-2014 16:45:00 24.5 C 9.18 g/m*3 24.5 C 9.7 km/h
182 07-07-2014 16:50:00 24.6 C 8.78 g/m*3 24.6 C 9.7 km/h
183 07-07-2014 16:55:00 24.5 C 8.5 g/m*3 24.5 C 14.5 km/h
184 07-07-2014 17:00:00 24.3 C 8.63 g/m*3 24.3 C 8.1 km/h
185 07-07-2014 17:05:00 24.4 C 8.9 g/m*3 24.4 C 8.1 km/h
186 07-07-2014 17:10:00 24.6 C 9.68 g/m*3 24.6 C 9.7 km/h
187 07-07-2014 17:15:00 25.1 C 8.8 g/m*3 25.1 C 9.7 km/h
188 07-07-2014 17:20:00 25.1 C 9.03 g/m*3 25.1 C 14.5 km/h
189 07-07-2014 17:25:00 25.4 C 8.95 g/m*3 25.4 C 11.3 km/h
190 07-07-2014 17:30:00 25.6 C 8.81 g/m*3 25.6 C 11.3 km/h
191 07-07-2014 17:35:00 25.9 C 9.68 g/m*3 25.9 C 11.3 km/h
192 07-07-2014 17:40:00 25.9 C 9.2 g/m*3 25.9 C 9.7 km/h
193 07-07-2014 17:45:00 26 C 9.49 g/m*3 26 C 12.9 km/h
194 07-07-2014 17:50:00 26.2 C 9.35 g/m*3 26.2 C 11.3 km/h
195 07-07-2014 17:55:00 26.1 C 9.55 g/m*3 26.1 C 4.8 km/h
196 07-07-2014 18:00:00 25.9 C 9.93 g/m*3 25.9 C 6.4 km/h
197 07-07-2014 18:05:00 26.1 C 9.06 g/m*3 26.1 C 9.7 km/h
198 07-07-2014 18:10:00 26 C 9.74 g/m*3 26 C 8.1 km/h
199 07-07-2014 18:15:00 25.9 C 9.44 g/m*3 25.9 C 11.3 km/h
200 07-07-2014 18:20:00 26.3 C 9.41 g/m*3 26.3 C 6.4 km/h
Sensor: Nr:Datum:Temp:Abs-Feuchte:Windchill:Wind:
Aussen-T/F 201 07-07-2014 18:25:00 26.4 C 9.21 g/m*3 26.4 C 9.7 km/h
202 07-07-2014 18:30:00 26.1 C 9.3 g/m*3 26.1 C 9.7 km/h
203 07-07-2014 18:35:00 26.1 C 9.3 g/m*3 26.1 C 11.3 km/h
204 07-07-2014 18:40:00 26.2 C 9.11 g/m*3 26.2 C 4.8 km/h
205 07-07-2014 18:45:00 26.1 C 9.06 g/m*3 26.1 C 12.9 km/h
206 07-07-2014 18:50:00 25.8 C 9.15 g/m*3 25.8 C 6.4 km/h
207 07-07-2014 18:55:00 25.7 C 9.34 g/m*3 25.7 C 4.8 km/h
208 07-07-2014 19:00:00 25.6 C 9.52 g/m*3 25.6 C 6.4 km/h
209 07-07-2014 19:05:00 25.7 C 9.58 g/m*3 25.7 C 12.9 km/h
210 07-07-2014 19:10:00 25.7 C 9.34 g/m*3 25.7 C 9.7 km/h
211 07-07-2014 19:15:00 25.7 C 9.58 g/m*3 25.7 C 8.1 km/h
212 07-07-2014 19:20:00 25.7 C 9.1 g/m*3 25.7 C 12.9 km/h
213 07-07-2014 19:25:00 25.2 C 9.08 g/m*3 25.2 C 9.7 km/h
214 07-07-2014 19:30:00 24.9 C 8.93 g/m*3 24.9 C 8.1 km/h
215 07-07-2014 19:35:00 24.7 C 9.51 g/m*3 24.7 C 9.7 km/h
216 07-07-2014 19:40:00 24.4 C 9.57 g/m*3 24.4 C 6.4 km/h
217 07-07-2014 19:45:00 24.2 C 9.9 g/m*3 24.2 C 3.2 km/h
218 07-07-2014 19:50:00 24.1 C 9.41 g/m*3 24.1 C 3.2 km/h
219 07-07-2014 19:55:00 23.9 C 9.74 g/m*3 23.9 C 6.4 km/h
220 07-07-2014 20:00:00 23.9 C 9.95 g/m*3 23.9 C 11.3 km/h
221 07-07-2014 20:05:00 23.9 C 10.17 g/m*3 23.9 C 6.4 km/h
222 07-07-2014 20:10:00 23.8 C 10.33 g/m*3 23.8 C 6.4 km/h
223 07-07-2014 20:15:00 23.7 C 10.05 g/m*3 23.7 C 11.3 km/h
224 07-07-2014 20:20:00 23.7 C 10.05 g/m*3 23.7 C 8.1 km/h
225 07-07-2014 20:25:00 23.5 C 9.73 g/m*3 23.5 C 8.1 km/h
Sensor: Nr:Datum:Temp:Abs-Feuchte:Windchill:Wind:
Aussen-T/F 226 07-07-2014 20:30:00 23.3 C 9.83 g/m*3 23.3 C 4.8 km/h
227 07-07-2014 20:35:00 22.9 C 9.81 g/m*3 22.9 C 6.4 km/h
228 07-07-2014 20:40:00 22.8 C 9.75 g/m*3 22.8 C 4.8 km/h
229 07-07-2014 20:45:00 22.6 C 9.84 g/m*3 22.6 C 4.8 km/h
230 07-07-2014 20:50:00 22.4 C 9.73 g/m*3 22.4 C 1.6 km/h
231 07-07-2014 20:55:00 22.3 C 10.07 g/m*3 22.3 C 1.6 km/h
232 07-07-2014 21:00:00 22.2 C 10.21 g/m*3 22.2 C 0 km/h
233 07-07-2014 21:05:00 21.9 C 11 g/m*3 21.9 C 0 km/h
234 07-07-2014 21:10:00 21.7 C 10.87 g/m*3 21.7 C 0 km/h
235 07-07-2014 21:15:00 21.3 C 10.62 g/m*3 21.3 C 1.6 km/h
236 07-07-2014 21:20:00 21.1 C 11.06 g/m*3 21.1 C 0 km/h
237 07-07-2014 21:25:00 20.9 C 11.11 g/m*3 20.9 C 0 km/h
238 07-07-2014 21:30:00 20.7 C 10.98 g/m*3 20.7 C 0 km/h
239 07-07-2014 21:35:00 20.6 C 10.92 g/m*3 20.6 C 1.6 km/h
240 07-07-2014 21:40:00 20.4 C 10.79 g/m*3 20.4 C 0 km/h
241 07-07-2014 21:45:00 20.4 C 11.14 g/m*3 20.4 C 0 km/h
242 07-07-2014 21:50:00 20.3 C 11.08 g/m*3 20.3 C 0 km/h
243 07-07-2014 21:55:00 20.1 C 10.78 g/m*3 20.1 C 1.6 km/h
244 07-07-2014 22:00:00 19.9 C 10.82 g/m*3 19.9 C 1.6 km/h
245 07-07-2014 22:05:00 19.8 C 10.76 g/m*3 19.8 C 0 km/h
246 07-07-2014 22:10:00 19.7 C 10.87 g/m*3 19.7 C 1.6 km/h
247 07-07-2014 22:15:00 19.5 C 10.74 g/m*3 19.5 C 0 km/h
248 07-07-2014 22:20:00 19.4 C 11.01 g/m*3 19.4 C 0 km/h
249 07-07-2014 22:25:00 19.3 C 11.11 g/m*3 19.3 C 0 km/h
250 07-07-2014 22:30:00 19.2 C 11.05 g/m*3 19.2 C 0 km/h
Sensor: Nr:Datum:Temp:Abs-Feuchte:Windchill:Wind:
Aussen-T/F 251 07-07-2014 22:35:00 19.1 C 10.98 g/m*3 19.1 C 0 km/h
252 07-07-2014 22:40:00 19 C 10.92 g/m*3 19 C 0 km/h
253 07-07-2014 22:45:00 19 C 11.41 g/m*3 19 C 0 km/h
254 07-07-2014 22:50:00 19 C 11.24 g/m*3 19 C 0 km/h
255 07-07-2014 22:55:00 19 C 11.41 g/m*3 19 C 0 km/h
256 07-07-2014 23:00:00 19 C 11.41 g/m*3 19 C 0 km/h
257 07-07-2014 23:05:00 19 C 11.08 g/m*3 19 C 3.2 km/h
258 07-07-2014 23:10:00 19.2 C 10.72 g/m*3 19.2 C 8.1 km/h
259 07-07-2014 23:15:00 19.4 C 10.84 g/m*3 19.4 C 0 km/h
260 07-07-2014 23:20:00 19.6 C 11.14 g/m*3 19.6 C 3.2 km/h
261 07-07-2014 23:25:00 19.5 C 11.24 g/m*3 19.5 C 0 km/h
262 07-07-2014 23:30:00 19.4 C 11.01 g/m*3 19.4 C 4.8 km/h
263 07-07-2014 23:35:00 19.4 C 11.18 g/m*3 19.4 C 0 km/h
264 07-07-2014 23:40:00 19.3 C 11.11 g/m*3 19.3 C 0 km/h
265 07-07-2014 23:45:00 19.2 C 11.05 g/m*3 19.2 C 1.6 km/h
266 07-07-2014 23:50:00 19.2 C 11.21 g/m*3 19.2 C 0 km/h
267 07-07-2014 23:55:00 19.2 C 11.05 g/m*3 19.2 C 0 km/h
268 08-07-2014 00:00:00 19.1 C 11.15 g/m*3 19.1 C 0 km/h
269 08-07-2014 00:05:00 19.1 C 11.15 g/m*3 19.1 C 0 km/h
270 08-07-2014 00:10:00 19 C 11.41 g/m*3 19 C 0 km/h
271 08-07-2014 00:15:00 18.9 C 11.02 g/m*3 18.9 C 3.2 km/h
272 08-07-2014 00:20:00 19 C 10.92 g/m*3 19 C 3.2 km/h
273 08-07-2014 00:25:00 19.1 C 10.82 g/m*3 19.1 C 0 km/h
274 08-07-2014 00:30:00 19 C 10.92 g/m*3 19 C 0 km/h
275 08-07-2014 00:35:00 18.8 C 10.95 g/m*3 18.8 C 0 km/h
Sensor: Nr:Datum:Temp:Abs-Feuchte:Windchill:Wind:
Aussen-T/F 276 08-07-2014 00:40:00 18.6 C 10.82 g/m*3 18.6 C 0 km/h
277 08-07-2014 00:45:00 18.4 C 10.85 g/m*3 18.4 C 0 km/h
278 08-07-2014 00:50:00 18.3 C 11.26 g/m*3 18.3 C 1.6 km/h
279 08-07-2014 00:55:00 18.3 C 11.1 g/m*3 18.3 C 0 km/h
280 08-07-2014 01:00:00 18.2 C 11.19 g/m*3 18.2 C 0 km/h
281 08-07-2014 01:05:00 18.2 C 11.19 g/m*3 18.2 C 0 km/h
282 08-07-2014 01:10:00 18.1 C 11.28 g/m*3 18.1 C 0 km/h
283 08-07-2014 01:15:00 18.1 C 11.28 g/m*3 18.1 C 1.6 km/h
284 08-07-2014 01:20:00 18.1 C 11.28 g/m*3 18.1 C 0 km/h
285 08-07-2014 01:25:00 18.1 C 11.28 g/m*3 18.1 C 0 km/h
286 08-07-2014 01:30:00 18.1 C 11.12 g/m*3 18.1 C 0 km/h
287 08-07-2014 01:35:00 18.2 C 10.72 g/m*3 18.2 C 8.1 km/h
288 08-07-2014 01:40:00 18.4 C 11.01 g/m*3 18.4 C 0 km/h
289 08-07-2014 01:45:00 18.5 C 11.08 g/m*3 18.5 C 1.6 km/h
290 08-07-2014 01:50:00 18.6 C 11.14 g/m*3 18.6 C 1.6 km/h
291 08-07-2014 01:55:00 18.5 C 11.23 g/m*3 18.5 C 0 km/h
292 08-07-2014 02:00:00 18.3 C 11.26 g/m*3 18.3 C 0 km/h
293 08-07-2014 02:05:00 18.2 C 11.19 g/m*3 18.2 C 0 km/h
294 08-07-2014 02:10:00 18.1 C 11.12 g/m*3 18.1 C 0 km/h
295 08-07-2014 02:15:00 18.1 C 11.28 g/m*3 18.1 C 0 km/h
296 08-07-2014 02:20:00 18 C 11.52 g/m*3 18 C 0 km/h
297 08-07-2014 02:25:00 17.8 C 11.38 g/m*3 17.8 C 0 km/h
298 08-07-2014 02:30:00 17.8 C 11.54 g/m*3 17.8 C 0 km/h
299 08-07-2014 02:35:00 17.7 C 11.47 g/m*3 17.7 C 0 km/h
300 08-07-2014 02:40:00 17.7 C 11.62 g/m*3 17.7 C 0 km/h
Sensor: Nr:Datum:Temp:Abs-Feuchte:Windchill:Wind:
Aussen-T/F 301 08-07-2014 02:45:00 17.7 C 11.62 g/m*3 17.7 C 0 km/h
302 08-07-2014 02:50:00 17.6 C 11.4 g/m*3 17.6 C 0 km/h
303 08-07-2014 02:55:00 17.6 C 11.55 g/m*3 17.6 C 0 km/h
304 08-07-2014 03:00:00 17.6 C 11.55 g/m*3 17.6 C 0 km/h
305 08-07-2014 03:05:00 17.5 C 11.78 g/m*3 17.5 C 0 km/h
306 08-07-2014 03:10:00 17.3 C 11.79 g/m*3 17.3 C 0 km/h
307 08-07-2014 03:15:00 17.2 C 12.01 g/m*3 17.2 C 0 km/h
308 08-07-2014 03:20:00 17 C 12.15 g/m*3 17 C 1.6 km/h
309 08-07-2014 03:25:00 16.8 C 12.44 g/m*3 16.8 C 1.6 km/h
310 08-07-2014 03:30:00 16.7 C 12.36 g/m*3 16.7 C 1.6 km/h
311 08-07-2014 03:35:00 16.7 C 12.36 g/m*3 16.7 C 1.6 km/h
312 08-07-2014 04:30:00 15.3 C 13.06 g/m*3 15.3 C 8.1 km/h
313 08-07-2014 04:35:00 15.2 C 12.2 g/m*3 15.2 C 0 km/h
314 08-07-2014 04:40:00 15.2 C 12.2 g/m*3 15.2 C 4.8 km/h
315 08-07-2014 04:45:00 15.1 C 12.13 g/m*3 15.1 C 4.8 km/h
316 08-07-2014 04:50:00 15 C 12.05 g/m*3 15 C 8.1 km/h
317 08-07-2014 04:55:00 15 C 12.05 g/m*3 15 C 3.2 km/h
318 08-07-2014 05:00:00 15 C 12.05 g/m*3 15 C 4.8 km/h
319 08-07-2014 05:05:00 15 C 12.05 g/m*3 15 C 4.8 km/h
320 08-07-2014 05:10:00 15 C 12.05 g/m*3 15 C 3.2 km/h
321 08-07-2014 07:15:00 14.8 C 12.16 g/m*3 14.8 C 3.2 km/h
322 08-07-2014 07:20:00 14.8 C 12.16 g/m*3 14.8 C 3.2 km/h
323 08-07-2014 07:35:00 14.8 C 12.67 g/m*3 14.8 C 1.6 km/h
324 08-07-2014 07:40:00 14.8 C 12.16 g/m*3 14.8 C 4.8 km/h
325 08-07-2014 07:45:00 14.8 C 12.03 g/m*3 14.8 C 1.6 km/h
Sensor: Nr:Datum:Temp:Abs-Feuchte:Windchill:Wind:
Aussen-T/F 326 08-07-2014 07:50:00 14.8 C 12.16 g/m*3 14.8 C 0 km/h
327 08-07-2014 07:55:00 14.9 C 12.24 g/m*3 14.9 C 0 km/h
328 08-07-2014 08:00:00 14.9 C 12.11 g/m*3 14.9 C 8.1 km/h
329 08-07-2014 08:05:00 14.9 C 12.11 g/m*3 14.9 C 3.2 km/h
330 08-07-2014 08:10:00 14.9 C 12.11 g/m*3 14.9 C 6.4 km/h
331 08-07-2014 08:15:00 14.9 C 12.11 g/m*3 14.9 C 3.2 km/h
332 08-07-2014 08:20:00 15 C 12.18 g/m*3 15 C 3.2 km/h
333 08-07-2014 08:25:00 15.1 C 12.39 g/m*3 15.1 C 0 km/h
334 08-07-2014 08:30:00 15.1 C 12.39 g/m*3 15.1 C 6.4 km/h
335 08-07-2014 08:35:00 15.1 C 12.26 g/m*3 15.1 C 3.2 km/h
336 08-07-2014 08:40:00 15.1 C 12.39 g/m*3 15.1 C 3.2 km/h
337 08-07-2014 08:45:00 15.1 C 12.26 g/m*3 15.1 C 8.1 km/h
338 08-07-2014 08:50:00 15.2 C 12.46 g/m*3 15.2 C 1.6 km/h
339 08-07-2014 08:55:00 15.2 C 12.33 g/m*3 15.2 C 1.6 km/h
340 08-07-2014 09:00:00 15.2 C 12.46 g/m*3 15.2 C 3.2 km/h
341 08-07-2014 09:05:00 15.2 C 12.33 g/m*3 15.2 C 0 km/h
342 08-07-2014 09:10:00 15.3 C 12.41 g/m*3 15.3 C 3.2 km/h
343 08-07-2014 09:15:00 15.3 C 12.41 g/m*3 15.3 C 3.2 km/h
344 08-07-2014 09:20:00 15.3 C 12.41 g/m*3 15.3 C 1.6 km/h
345 08-07-2014 09:25:00 15.3 C 12.41 g/m*3 15.3 C 4.8 km/h
346 08-07-2014 09:30:00 15.4 C 12.48 g/m*3 15.4 C 3.2 km/h
347 08-07-2014 09:35:00 15.4 C 12.61 g/m*3 15.4 C 4.8 km/h
348 08-07-2014 09:40:00 15.4 C 12.48 g/m*3 15.4 C 4.8 km/h
349 08-07-2014 09:45:00 15.5 C 12.56 g/m*3 15.5 C 1.6 km/h
350 08-07-2014 09:50:00 15.5 C 12.56 g/m*3 15.5 C 3.2 km/h
Sensor: Nr:Datum:Temp:Abs-Feuchte:Windchill:Wind:
Aussen-T/F 351 08-07-2014 09:55:00 15.4 C 12.48 g/m*3 15.4 C 6.4 km/h
352 08-07-2014 10:00:00 15.4 C 12.48 g/m*3 15.4 C 9.7 km/h
353 08-07-2014 10:05:00 15.4 C 12.48 g/m*3 15.4 C 4.8 km/h
354 08-07-2014 10:10:00 15.4 C 12.48 g/m*3 15.4 C 8.1 km/h
355 08-07-2014 10:15:00 15.4 C 12.35 g/m*3 15.4 C 11.3 km/h
356 08-07-2014 10:20:00 15.5 C 12.43 g/m*3 15.5 C 8.1 km/h
357 08-07-2014 10:25:00 15.5 C 12.56 g/m*3 15.5 C 9.7 km/h
358 08-07-2014 10:30:00 15.5 C 12.43 g/m*3 15.5 C 8.1 km/h
359 08-07-2014 10:35:00 15.6 C 12.5 g/m*3 15.6 C 3.2 km/h
360 08-07-2014 10:40:00 15.6 C 12.63 g/m*3 15.6 C 3.2 km/h
361 08-07-2014 10:45:00 15.6 C 12.5 g/m*3 15.6 C 9.7 km/h
362 08-07-2014 10:50:00 15.6 C 12.5 g/m*3 15.6 C 3.2 km/h
363 08-07-2014 10:55:00 15.6 C 12.5 g/m*3 15.6 C 3.2 km/h
364 08-07-2014 11:00:00 15.6 C 12.63 g/m*3 15.6 C 0 km/h
365 08-07-2014 11:05:00 15.6 C 12.63 g/m*3 15.6 C 0 km/h
366 08-07-2014 11:10:00 15.6 C 12.63 g/m*3 15.6 C 3.2 km/h
367 08-07-2014 11:15:00 15.5 C 12.56 g/m*3 15.5 C 0 km/h
368 08-07-2014 11:20:00 15.4 C 12.48 g/m*3 15.4 C 9.7 km/h
369 08-07-2014 11:25:00 15.5 C 12.56 g/m*3 15.5 C 1.6 km/h
370 08-07-2014 11:30:00 15.4 C 12.48 g/m*3 15.4 C 4.8 km/h
371 08-07-2014 11:35:00 15.4 C 12.48 g/m*3 15.4 C 1.6 km/h
372 08-07-2014 11:40:00 15.4 C 12.48 g/m*3 15.4 C 3.2 km/h
373 08-07-2014 11:45:00 15.5 C 12.56 g/m*3 15.5 C 6.4 km/h
374 08-07-2014 11:50:00 15.5 C 12.56 g/m*3 15.5 C 4.8 km/h
375 08-07-2014 11:55:00 15.5 C 12.56 g/m*3 15.5 C 6.4 km/h
Sensor: Nr:Datum:Temp:Abs-Feuchte:Windchill:Wind:
Aussen-T/F 376 08-07-2014 12:00:00 15.5 C 12.56 g/m*3 15.5 C 0 km/h
377 08-07-2014 12:05:00 15.4 C 12.48 g/m*3 15.4 C 0 km/h
378 08-07-2014 12:10:00 15.4 C 12.48 g/m*3 15.4 C 0 km/h
379 08-07-2014 12:15:00 15.5 C 12.56 g/m*3 15.5 C 1.6 km/h
380 08-07-2014 12:20:00 15.5 C 12.56 g/m*3 15.5 C 3.2 km/h
381 08-07-2014 12:25:00 15.6 C 12.63 g/m*3 15.6 C 0 km/h
382 08-07-2014 12:30:00 15.6 C 12.63 g/m*3 15.6 C 0 km/h
383 08-07-2014 12:35:00 15.7 C 12.71 g/m*3 15.7 C 0 km/h
384 08-07-2014 12:40:00 15.6 C 12.63 g/m*3 15.6 C 3.2 km/h
385 08-07-2014 12:45:00 15.7 C 12.71 g/m*3 15.7 C 3.2 km/h
386 08-07-2014 12:50:00 15.7 C 12.84 g/m*3 15.7 C 1.6 km/h
387 08-07-2014 12:55:00 15.7 C 12.71 g/m*3 15.7 C 6.4 km/h
388 08-07-2014 13:00:00 15.7 C 12.71 g/m*3 15.7 C 3.2 km/h
389 08-07-2014 13:05:00 15.7 C 12.71 g/m*3 15.7 C 3.2 km/h
390 08-07-2014 13:10:00 15.7 C 12.71 g/m*3 15.7 C 4.8 km/h
391 08-07-2014 13:15:00 15.6 C 12.63 g/m*3 15.6 C 1.6 km/h
392 08-07-2014 13:20:00 15.7 C 12.71 g/m*3 15.7 C 0 km/h
393 08-07-2014 13:25:00 15.7 C 12.71 g/m*3 15.7 C 6.4 km/h
394 08-07-2014 13:30:00 15.7 C 12.71 g/m*3 15.7 C 4.8 km/h
395 08-07-2014 13:35:00 15.7 C 12.71 g/m*3 15.7 C 3.2 km/h
396 08-07-2014 13:40:00 15.7 C 12.71 g/m*3 15.7 C 0 km/h
397 08-07-2014 13:45:00 15.8 C 12.79 g/m*3 15.8 C 6.4 km/h
398 08-07-2014 13:50:00 15.8 C 12.79 g/m*3 15.8 C 1.6 km/h
399 08-07-2014 13:55:00 15.8 C 12.79 g/m*3 15.8 C 0 km/h
400 08-07-2014 14:00:00 15.8 C 12.79 g/m*3 15.8 C 4.8 km/h
Sensor: Nr:Datum:Temp:Abs-Feuchte:Windchill:Wind:
Aussen-T/F 401 08-07-2014 14:05:00 15.8 C 12.79 g/m*3 15.8 C 3.2 km/h
402 08-07-2014 14:10:00 15.8 C 12.79 g/m*3 15.8 C 3.2 km/h
403 08-07-2014 14:15:00 15.9 C 12.87 g/m*3 15.9 C 1.6 km/h
404 08-07-2014 14:20:00 15.8 C 12.65 g/m*3 15.8 C 6.4 km/h
405 08-07-2014 14:25:00 15.9 C 12.73 g/m*3 15.9 C 4.8 km/h
406 08-07-2014 14:30:00 15.9 C 12.73 g/m*3 15.9 C 6.4 km/h
407 08-07-2014 14:35:00 15.9 C 12.73 g/m*3 15.9 C 1.6 km/h
408 08-07-2014 14:40:00 15.9 C 12.59 g/m*3 15.9 C 3.2 km/h
409 08-07-2014 14:45:00 15.8 C 12.52 g/m*3 15.8 C 1.6 km/h
410 08-07-2014 14:50:00 15.8 C 12.52 g/m*3 15.8 C 3.2 km/h
411 08-07-2014 14:55:00 15.8 C 12.52 g/m*3 15.8 C 3.2 km/h
412 08-07-2014 15:00:00 15.8 C 12.52 g/m*3 15.8 C 3.2 km/h
413 08-07-2014 15:05:00 15.8 C 12.65 g/m*3 15.8 C 3.2 km/h
414 08-07-2014 15:10:00 15.8 C 12.52 g/m*3 15.8 C 3.2 km/h
415 08-07-2014 15:15:00 15.8 C 12.65 g/m*3 15.8 C 4.8 km/h
416 08-07-2014 15:20:00 15.8 C 12.65 g/m*3 15.8 C 3.2 km/h
417 08-07-2014 15:25:00 15.7 C 12.44 g/m*3 15.7 C 3.2 km/h
418 08-07-2014 15:30:00 15.8 C 12.52 g/m*3 15.8 C 4.8 km/h
419 08-07-2014 15:35:00 15.8 C 12.52 g/m*3 15.8 C 1.6 km/h
420 08-07-2014 15:40:00 15.8 C 12.52 g/m*3 15.8 C 1.6 km/h
421 08-07-2014 15:45:00 15.7 C 12.44 g/m*3 15.7 C 6.4 km/h
422 08-07-2014 15:50:00 15.7 C 12.44 g/m*3 15.7 C 6.4 km/h
423 08-07-2014 15:55:00 15.7 C 12.31 g/m*3 15.7 C 8.1 km/h
424 08-07-2014 16:00:00 15.8 C 12.52 g/m*3 15.8 C 3.2 km/h
425 08-07-2014 16:05:00 15.7 C 12.44 g/m*3 15.7 C 4.8 km/h
Sensor: Nr:Datum:Temp:Abs-Feuchte:Windchill:Wind:
Aussen-T/F 426 08-07-2014 16:10:00 15.7 C 12.44 g/m*3 15.7 C 4.8 km/h
427 08-07-2014 16:15:00 15.7 C 12.44 g/m*3 15.7 C 4.8 km/h
428 08-07-2014 16:20:00 15.7 C 12.44 g/m*3 15.7 C 3.2 km/h
429 08-07-2014 16:25:00 15.7 C 12.44 g/m*3 15.7 C 3.2 km/h
430 08-07-2014 16:30:00 15.7 C 12.44 g/m*3 15.7 C 3.2 km/h
431 08-07-2014 16:35:00 15.7 C 12.44 g/m*3 15.7 C 9.7 km/h
432 08-07-2014 16:40:00 15.7 C 12.44 g/m*3 15.7 C 1.6 km/h
433 08-07-2014 16:45:00 15.7 C 12.44 g/m*3 15.7 C 6.4 km/h
434 08-07-2014 16:50:00 15.7 C 12.44 g/m*3 15.7 C 3.2 km/h
435 08-07-2014 17:30:00 15.8 C 12.25 g/m*3 15.8 C 12.9 km/h
436 08-07-2014 17:35:00 15.8 C 12.25 g/m*3 15.8 C 14.5 km/h
437 08-07-2014 17:40:00 15.8 C 12.11 g/m*3 15.8 C 14.5 km/h
438 08-07-2014 17:45:00 15.8 C 12.11 g/m*3 15.8 C 16.1 km/h
439 08-07-2014 17:50:00 15.7 C 12.04 g/m*3 15.7 C 14.5 km/h
440 08-07-2014 17:55:00 15.7 C 12.04 g/m*3 15.7 C 16.1 km/h
441 08-07-2014 18:00:00 15.7 C 12.04 g/m*3 15.7 C 11.3 km/h
442 08-07-2014 18:05:00 15.7 C 12.04 g/m*3 15.7 C 12.9 km/h
443 08-07-2014 18:10:00 15.7 C 12.04 g/m*3 15.7 C 9.7 km/h
444 08-07-2014 18:15:00 15.6 C 11.97 g/m*3 15.6 C 6.4 km/h
445 08-07-2014 18:20:00 15.6 C 11.97 g/m*3 15.6 C 9.7 km/h
446 08-07-2014 18:25:00 15.6 C 11.84 g/m*3 15.6 C 9.7 km/h
447 08-07-2014 18:30:00 15.6 C 11.84 g/m*3 15.6 C 14.5 km/h
448 08-07-2014 18:35:00 15.4 C 11.69 g/m*3 15.4 C 16.1 km/h
449 08-07-2014 18:40:00 15.4 C 11.69 g/m*3 15.4 C 12.9 km/h
450 08-07-2014 18:45:00 15.3 C 11.75 g/m*3 15.3 C 12.9 km/h
Sensor: Nr:Datum:Temp:Abs-Feuchte:Windchill:Wind:
Aussen-T/F 451 08-07-2014 18:50:00 15.3 C 11.62 g/m*3 15.3 C 25.7 km/h
452 08-07-2014 18:55:00 15.2 C 11.55 g/m*3 15.2 C 25.7 km/h
453 08-07-2014 19:00:00 15.2 C 11.55 g/m*3 15.2 C 14.5 km/h
454 08-07-2014 19:05:00 15.2 C 11.55 g/m*3 15.2 C 9.7 km/h
455 08-07-2014 19:10:00 15.2 C 11.55 g/m*3 15.2 C 20.9 km/h
456 08-07-2014 19:15:00 15.2 C 11.55 g/m*3 15.2 C 16.1 km/h
457 08-07-2014 19:20:00 15.1 C 11.61 g/m*3 15.1 C 11.3 km/h
458 08-07-2014 19:25:00 15.1 C 11.61 g/m*3 15.1 C 12.9 km/h
459 08-07-2014 19:30:00 15 C 11.54 g/m*3 15 C 12.9 km/h
460 08-07-2014 19:35:00 15 C 11.54 g/m*3 15 C 14.5 km/h
461 08-07-2014 19:40:00 14.9 C 11.47 g/m*3 14.9 C 11.3 km/h
462 08-07-2014 19:45:00 14.9 C 11.47 g/m*3 14.9 C 16.1 km/h
463 08-07-2014 19:50:00 14.9 C 11.47 g/m*3 14.9 C 9.7 km/h
464 08-07-2014 19:55:00 14.9 C 11.47 g/m*3 14.9 C 9.7 km/h
465 08-07-2014 20:00:00 14.9 C 11.47 g/m*3 14.9 C 11.3 km/h
466 08-07-2014 20:05:00 14.9 C 11.47 g/m*3 14.9 C 12.9 km/h
467 08-07-2014 20:10:00 14.8 C 11.4 g/m*3 14.8 C 11.3 km/h
468 08-07-2014 20:15:00 14.8 C 11.4 g/m*3 14.8 C 17.7 km/h
469 08-07-2014 20:20:00 14.7 C 11.33 g/m*3 14.7 C 16.1 km/h
470 08-07-2014 20:25:00 14.6 C 11.26 g/m*3 14.6 C 17.7 km/h
471 08-07-2014 20:30:00 14.5 C 11.32 g/m*3 14.5 C 16.1 km/h
472 08-07-2014 20:35:00 14.4 C 11.25 g/m*3 14.4 C 9.7 km/h
473 08-07-2014 20:40:00 14.2 C 11.11 g/m*3 14.2 C 11.3 km/h
474 08-07-2014 20:45:00 14.1 C 11.04 g/m*3 14.1 C 8.1 km/h
475 08-07-2014 20:50:00 14 C 10.98 g/m*3 14 C 14.5 km/h
Sensor: Nr:Datum:Temp:Abs-Feuchte:Windchill:Wind:
Aussen-T/F 476 08-07-2014 20:55:00 13.9 C 10.91 g/m*3 13.9 C 16.1 km/h
477 08-07-2014 21:00:00 13.9 C 10.91 g/m*3 13.9 C 17.7 km/h
478 08-07-2014 21:05:00 13.8 C 10.84 g/m*3 13.8 C 11.3 km/h
479 08-07-2014 21:10:00 13.8 C 10.96 g/m*3 13.8 C 12.9 km/h
480 08-07-2014 21:15:00 13.7 C 10.78 g/m*3 13.7 C 12.9 km/h
481 08-07-2014 21:20:00 13.7 C 10.89 g/m*3 13.7 C 12.9 km/h
482 08-07-2014 21:25:00 13.7 C 10.89 g/m*3 13.7 C 9.7 km/h
483 08-07-2014 21:30:00 13.6 C 10.83 g/m*3 13.6 C 12.9 km/h
484 08-07-2014 21:35:00 13.6 C 10.83 g/m*3 13.6 C 9.7 km/h
485 08-07-2014 21:40:00 13.5 C 10.76 g/m*3 13.5 C 12.9 km/h
486 08-07-2014 21:45:00 13.5 C 10.76 g/m*3 13.5 C 11.3 km/h
487 08-07-2014 21:50:00 13.4 C 10.69 g/m*3 13.4 C 0 km/h
488 08-07-2014 21:55:00 13.4 C 10.81 g/m*3 13.4 C 4.8 km/h
489 08-07-2014 22:00:00 13.4 C 10.93 g/m*3 13.4 C 0 km/h
490 08-07-2014 22:05:00 13.3 C 10.86 g/m*3 13.3 C 1.6 km/h
491 08-07-2014 22:10:00 13.3 C 10.86 g/m*3 13.3 C 4.8 km/h
492 08-07-2014 22:15:00 13.3 C 10.86 g/m*3 13.3 C 4.8 km/h
493 08-07-2014 22:20:00 13.3 C 10.86 g/m*3 13.3 C 4.8 km/h
494 08-07-2014 22:25:00 13.3 C 10.86 g/m*3 13.3 C 6.4 km/h
495 08-07-2014 22:30:00 13.3 C 10.86 g/m*3 13.3 C 8.1 km/h
496 08-07-2014 22:35:00 13.3 C 10.86 g/m*3 13.3 C 3.2 km/h
497 08-07-2014 22:40:00 13.3 C 10.86 g/m*3 13.3 C 4.8 km/h
498 08-07-2014 22:45:00 13.3 C 10.86 g/m*3 13.3 C 12.9 km/h
499 08-07-2014 22:50:00 13.3 C 10.86 g/m*3 13.3 C 3.2 km/h
500 08-07-2014 22:55:00 13.3 C 10.86 g/m*3 13.3 C 4.8 km/h
Sensor: Nr:Datum:Temp:Abs-Feuchte:Windchill:Wind:
Aussen-T/F 501 08-07-2014 23:00:00 13.3 C 10.86 g/m*3 13.3 C 4.8 km/h
502 08-07-2014 23:05:00 13.3 C 10.86 g/m*3 13.3 C 6.4 km/h
503 08-07-2014 23:10:00 13.2 C 10.91 g/m*3 13.2 C 1.6 km/h
504 08-07-2014 23:15:00 13.2 C 10.91 g/m*3 13.2 C 6.4 km/h
505 08-07-2014 23:20:00 13.2 C 10.91 g/m*3 13.2 C 6.4 km/h
506 08-07-2014 23:25:00 13.1 C 10.84 g/m*3 13.1 C 4.8 km/h
507 08-07-2014 23:30:00 13.1 C 10.84 g/m*3 13.1 C 3.2 km/h
508 08-07-2014 23:35:00 13.1 C 10.84 g/m*3 13.1 C 1.6 km/h
509 08-07-2014 23:40:00 13.1 C 10.84 g/m*3 13.1 C 6.4 km/h
510 08-07-2014 23:45:00 13.1 C 10.84 g/m*3 13.1 C 4.8 km/h
511 08-07-2014 23:50:00 13.1 C 10.84 g/m*3 13.1 C 6.4 km/h
512 08-07-2014 23:55:00 13.1 C 10.84 g/m*3 13.1 C 3.2 km/h
513 09-07-2014 00:00:00 13.1 C 10.84 g/m*3 13.1 C 1.6 km/h
514 09-07-2014 00:05:00 13.1 C 10.84 g/m*3 13.1 C 4.8 km/h
515 09-07-2014 00:10:00 13 C 10.66 g/m*3 13 C 9.7 km/h
516 09-07-2014 00:15:00 13 C 10.66 g/m*3 13 C 6.4 km/h
517 09-07-2014 00:20:00 13 C 10.66 g/m*3 13 C 14.5 km/h
518 09-07-2014 00:25:00 13 C 10.66 g/m*3 13 C 14.5 km/h
519 09-07-2014 00:30:00 13 C 10.66 g/m*3 13 C 12.9 km/h
520 09-07-2014 00:35:00 12.9 C 10.59 g/m*3 12.9 C 4.8 km/h
521 09-07-2014 00:40:00 12.9 C 10.59 g/m*3 12.9 C 4.8 km/h
522 09-07-2014 00:45:00 12.9 C 10.59 g/m*3 12.9 C 1.6 km/h
523 09-07-2014 00:50:00 12.9 C 10.71 g/m*3 12.9 C 1.6 km/h
524 09-07-2014 00:55:00 12.9 C 10.71 g/m*3 12.9 C 8.1 km/h
525 09-07-2014 01:00:00 12.8 C 10.53 g/m*3 12.8 C 12.9 km/h
Sensor: Nr:Datum:Temp:Abs-Feuchte:Windchill:Wind:
Aussen-T/F 526 09-07-2014 01:05:00 12.8 C 10.53 g/m*3 12.8 C 9.7 km/h
527 09-07-2014 01:10:00 12.8 C 10.53 g/m*3 12.8 C 3.2 km/h
528 09-07-2014 01:15:00 12.8 C 10.53 g/m*3 12.8 C 1.6 km/h
529 09-07-2014 01:20:00 12.7 C 10.46 g/m*3 12.7 C 3.2 km/h
530 09-07-2014 01:25:00 12.7 C 10.46 g/m*3 12.7 C 4.8 km/h
531 09-07-2014 01:30:00 12.6 C 10.4 g/m*3 12.6 C 4.8 km/h
532 09-07-2014 01:35:00 12.6 C 10.4 g/m*3 12.6 C 9.7 km/h
533 09-07-2014 01:40:00 12.6 C 10.4 g/m*3 12.6 C 11.3 km/h
534 09-07-2014 01:45:00 12.5 C 10.33 g/m*3 12.5 C 4.8 km/h
535 09-07-2014 01:50:00 12.4 C 10.27 g/m*3 12.4 C 3.2 km/h
536 09-07-2014 01:55:00 12.4 C 10.16 g/m*3 12.4 C 8.1 km/h
537 09-07-2014 02:00:00 12.4 C 10.27 g/m*3 12.4 C 3.2 km/h
538 09-07-2014 02:05:00 12.3 C 10.21 g/m*3 12.3 C 8.1 km/h
539 09-07-2014 02:10:00 12.3 C 10.21 g/m*3 12.3 C 3.2 km/h
540 09-07-2014 02:15:00 12.3 C 10.21 g/m*3 12.3 C 8.1 km/h
541 09-07-2014 02:20:00 12.3 C 10.21 g/m*3 12.3 C 4.8 km/h
542 09-07-2014 02:25:00 12.2 C 10.14 g/m*3 12.2 C 3.2 km/h
543 09-07-2014 02:30:00 12.1 C 10.08 g/m*3 12.1 C 11.3 km/h
544 09-07-2014 02:35:00 12.1 C 10.08 g/m*3 12.1 C 8.1 km/h
545 09-07-2014 02:40:00 12.1 C 10.08 g/m*3 12.1 C 3.2 km/h
546 09-07-2014 02:45:00 12 C 10.02 g/m*3 12 C 4.8 km/h
547 09-07-2014 02:50:00 11.9 C 9.96 g/m*3 11.9 C 8.1 km/h
548 09-07-2014 02:55:00 11.9 C 9.96 g/m*3 11.9 C 8.1 km/h
549 09-07-2014 03:00:00 11.9 C 9.85 g/m*3 11.9 C 3.2 km/h
550 09-07-2014 03:05:00 11.8 C 9.89 g/m*3 11.8 C 3.2 km/h
Sensor: Nr:Datum:Temp:Abs-Feuchte:Windchill:Wind:
Aussen-T/F 551 09-07-2014 03:10:00 11.8 C 9.89 g/m*3 11.8 C 1.6 km/h
552 09-07-2014 03:15:00 11.8 C 9.89 g/m*3 11.8 C 6.4 km/h
553 09-07-2014 03:20:00 11.7 C 9.83 g/m*3 11.7 C 3.2 km/h
554 09-07-2014 03:25:00 11.7 C 9.83 g/m*3 11.7 C 9.7 km/h
555 09-07-2014 03:30:00 11.7 C 9.83 g/m*3 11.7 C 1.6 km/h
556 09-07-2014 03:35:00 11.7 C 9.83 g/m*3 11.7 C 1.6 km/h
557 09-07-2014 03:40:00 11.7 C 9.83 g/m*3 11.7 C 6.4 km/h
558 09-07-2014 03:45:00 11.7 C 9.94 g/m*3 11.7 C 3.2 km/h
559 09-07-2014 03:50:00 11.7 C 9.94 g/m*3 11.7 C 3.2 km/h
560 09-07-2014 03:55:00 11.7 C 9.94 g/m*3 11.7 C 1.6 km/h
561 09-07-2014 04:00:00 11.7 C 9.94 g/m*3 11.7 C 1.6 km/h
562 09-07-2014 04:05:00 11.7 C 9.94 g/m*3 11.7 C 6.4 km/h
563 09-07-2014 04:10:00 11.7 C 9.94 g/m*3 11.7 C 9.7 km/h
564 09-07-2014 04:15:00 11.7 C 9.94 g/m*3 11.7 C 4.8 km/h
565 09-07-2014 04:20:00 11.7 C 9.94 g/m*3 11.7 C 1.6 km/h
566 09-07-2014 04:25:00 11.7 C 9.94 g/m*3 11.7 C 8.1 km/h
567 09-07-2014 04:30:00 11.7 C 9.94 g/m*3 11.7 C 3.2 km/h
568 09-07-2014 04:35:00 11.7 C 9.94 g/m*3 11.7 C 4.8 km/h
569 09-07-2014 04:40:00 11.7 C 9.94 g/m*3 11.7 C 3.2 km/h
570 09-07-2014 04:45:00 11.7 C 9.94 g/m*3 11.7 C 9.7 km/h
571 09-07-2014 04:50:00 11.8 C 10 g/m*3 11.8 C 4.8 km/h
572 09-07-2014 04:55:00 11.8 C 10 g/m*3 11.8 C 3.2 km/h
573 09-07-2014 05:00:00 11.8 C 10 g/m*3 11.8 C 1.6 km/h
574 09-07-2014 05:05:00 11.8 C 10 g/m*3 11.8 C 6.4 km/h
575 09-07-2014 05:10:00 11.8 C 10 g/m*3 11.8 C 4.8 km/h
Sensor: Nr:Datum:Temp:Abs-Feuchte:Windchill:Wind:
Aussen-T/F 576 09-07-2014 05:15:00 11.8 C 10 g/m*3 11.8 C 3.2 km/h
577 09-07-2014 05:20:00 11.9 C 10.06 g/m*3 11.9 C 4.8 km/h
578 09-07-2014 05:25:00 11.9 C 10.06 g/m*3 11.9 C 4.8 km/h
579 09-07-2014 05:30:00 11.9 C 10.06 g/m*3 11.9 C 3.2 km/h
580 09-07-2014 05:35:00 11.9 C 10.06 g/m*3 11.9 C 1.6 km/h
581 09-07-2014 05:40:00 11.9 C 10.06 g/m*3 11.9 C 3.2 km/h
582 09-07-2014 05:45:00 11.9 C 10.06 g/m*3 11.9 C 3.2 km/h
583 09-07-2014 05:50:00 11.9 C 10.06 g/m*3 11.9 C 1.6 km/h
584 09-07-2014 05:55:00 11.9 C 10.06 g/m*3 11.9 C 1.6 km/h
585 09-07-2014 06:00:00 12 C 10.12 g/m*3 12 C 1.6 km/h
586 09-07-2014 06:05:00 12 C 10.12 g/m*3 12 C 8.1 km/h
587 09-07-2014 06:10:00 12 C 10.12 g/m*3 12 C 4.8 km/h
588 09-07-2014 06:15:00 12 C 10.12 g/m*3 12 C 8.1 km/h
589 09-07-2014 06:20:00 11.9 C 10.06 g/m*3 11.9 C 6.4 km/h
590 09-07-2014 06:25:00 11.9 C 10.06 g/m*3 11.9 C 6.4 km/h
591 09-07-2014 06:30:00 12 C 10.12 g/m*3 12 C 4.8 km/h
592 09-07-2014 06:35:00 11.9 C 10.06 g/m*3 11.9 C 4.8 km/h
593 09-07-2014 06:40:00 11.9 C 10.06 g/m*3 11.9 C 6.4 km/h
594 09-07-2014 06:45:00 11.9 C 10.06 g/m*3 11.9 C 11.3 km/h
595 09-07-2014 06:50:00 11.9 C 9.96 g/m*3 11.9 C 6.4 km/h
596 09-07-2014 06:55:00 11.9 C 9.96 g/m*3 11.9 C 6.4 km/h
597 09-07-2014 07:00:00 11.9 C 9.96 g/m*3 11.9 C 11.3 km/h
598 09-07-2014 07:05:00 11.9 C 9.96 g/m*3 11.9 C 3.2 km/h
599 09-07-2014 07:10:00 11.9 C 9.96 g/m*3 11.9 C 4.8 km/h
600 09-07-2014 07:15:00 11.8 C 9.89 g/m*3 11.8 C 4.8 km/h
Sensor: Nr:Datum:Temp:Abs-Feuchte:Windchill:Wind:
Aussen-T/F 601 09-07-2014 07:20:00 11.8 C 9.89 g/m*3 11.8 C 4.8 km/h
602 09-07-2014 07:25:00 11.8 C 9.89 g/m*3 11.8 C 4.8 km/h
603 09-07-2014 07:30:00 11.8 C 10 g/m*3 11.8 C 6.4 km/h
604 09-07-2014 07:35:00 11.8 C 10 g/m*3 11.8 C 1.6 km/h
605 09-07-2014 07:40:00 11.8 C 10 g/m*3 11.8 C 1.6 km/h
606 09-07-2014 07:45:00 11.8 C 10 g/m*3 11.8 C 9.7 km/h
607 09-07-2014 07:50:00 11.8 C 10 g/m*3 11.8 C 3.2 km/h
608 09-07-2014 07:55:00 11.8 C 10 g/m*3 11.8 C 3.2 km/h
609 09-07-2014 08:00:00 11.7 C 9.94 g/m*3 11.7 C 3.2 km/h
610 09-07-2014 08:05:00 11.8 C 10 g/m*3 11.8 C 3.2 km/h
611 09-07-2014 08:10:00 11.8 C 10 g/m*3 11.8 C 1.6 km/h
612 09-07-2014 08:15:00 11.8 C 10 g/m*3 11.8 C 3.2 km/h
613 09-07-2014 08:20:00 11.8 C 10 g/m*3 11.8 C 4.8 km/h
614 09-07-2014 08:25:00 11.8 C 10 g/m*3 11.8 C 8.1 km/h
615 09-07-2014 08:30:00 11.8 C 10.1 g/m*3 11.8 C 3.2 km/h
616 09-07-2014 08:35:00 11.9 C 10.17 g/m*3 11.9 C 3.2 km/h
617 09-07-2014 08:40:00 11.9 C 10.17 g/m*3 11.9 C 1.6 km/h
618 09-07-2014 08:45:00 11.9 C 10.17 g/m*3 11.9 C 3.2 km/h
619 09-07-2014 08:50:00 11.9 C 10.17 g/m*3 11.9 C 12.9 km/h
620 09-07-2014 08:55:00 11.9 C 10.17 g/m*3 11.9 C 4.8 km/h
621 09-07-2014 09:00:00 12 C 10.23 g/m*3 12 C 8.1 km/h
622 09-07-2014 09:05:00 12 C 10.23 g/m*3 12 C 3.2 km/h
623 09-07-2014 09:10:00 12 C 10.23 g/m*3 12 C 6.4 km/h
624 09-07-2014 09:15:00 12.1 C 10.19 g/m*3 12.1 C 4.8 km/h
625 09-07-2014 09:20:00 12.1 C 10.29 g/m*3 12.1 C 6.4 km/h
Sensor: Nr:Datum:Temp:Abs-Feuchte:Windchill:Wind:
Aussen-T/F 626 09-07-2014 09:25:00 12.1 C 10.19 g/m*3 12.1 C 6.4 km/h
627 09-07-2014 09:30:00 12.2 C 10.25 g/m*3 12.2 C 6.4 km/h
628 09-07-2014 09:35:00 12.2 C 10.25 g/m*3 12.2 C 6.4 km/h
629 09-07-2014 09:40:00 12.2 C 10.25 g/m*3 12.2 C 3.2 km/h
630 09-07-2014 09:45:00 12.2 C 10.25 g/m*3 12.2 C 1.6 km/h
631 09-07-2014 09:50:00 12.2 C 10.25 g/m*3 12.2 C 4.8 km/h
632 09-07-2014 09:55:00 12.2 C 10.25 g/m*3 12.2 C 1.6 km/h
633 09-07-2014 10:00:00 12.3 C 10.32 g/m*3 12.3 C 0 km/h
634 09-07-2014 10:05:00 12.3 C 10.32 g/m*3 12.3 C 6.4 km/h
635 09-07-2014 10:10:00 12.3 C 10.32 g/m*3 12.3 C 4.8 km/h
636 09-07-2014 10:15:00 12.3 C 10.32 g/m*3 12.3 C 1.6 km/h
637 09-07-2014 10:20:00 12.3 C 10.32 g/m*3 12.3 C 1.6 km/h
638 09-07-2014 10:25:00 12.3 C 10.42 g/m*3 12.3 C 1.6 km/h
639 09-07-2014 10:30:00 12.3 C 10.42 g/m*3 12.3 C 1.6 km/h
640 09-07-2014 10:35:00 12.3 C 10.42 g/m*3 12.3 C 1.6 km/h
641 09-07-2014 10:40:00 12.4 C 10.49 g/m*3 12.4 C 4.8 km/h
642 09-07-2014 10:45:00 12.4 C 10.49 g/m*3 12.4 C 0 km/h
643 09-07-2014 10:50:00 12.4 C 10.49 g/m*3 12.4 C 3.2 km/h
644 09-07-2014 10:55:00 12.4 C 10.49 g/m*3 12.4 C 8.1 km/h
645 09-07-2014 11:00:00 12.5 C 10.55 g/m*3 12.5 C 4.8 km/h
646 09-07-2014 11:05:00 12.6 C 10.62 g/m*3 12.6 C 3.2 km/h
647 09-07-2014 11:10:00 12.6 C 10.62 g/m*3 12.6 C 1.6 km/h
648 09-07-2014 11:15:00 12.6 C 10.62 g/m*3 12.6 C 6.4 km/h
649 09-07-2014 11:20:00 12.6 C 10.62 g/m*3 12.6 C 3.2 km/h
650 09-07-2014 11:25:00 12.6 C 10.62 g/m*3 12.6 C 4.8 km/h
Sensor: Nr:Datum:Temp:Abs-Feuchte:Windchill:Wind:
Aussen-T/F 651 09-07-2014 11:30:00 12.6 C 10.62 g/m*3 12.6 C 6.4 km/h
652 09-07-2014 11:35:00 12.7 C 10.69 g/m*3 12.7 C 14.5 km/h
653 09-07-2014 11:40:00 12.7 C 10.69 g/m*3 12.7 C 8.1 km/h
654 09-07-2014 11:45:00 12.8 C 10.75 g/m*3 12.8 C 3.2 km/h
655 09-07-2014 11:50:00 12.8 C 10.75 g/m*3 12.8 C 9.7 km/h
656 09-07-2014 11:55:00 12.9 C 10.71 g/m*3 12.9 C 11.3 km/h
657 09-07-2014 12:00:00 12.9 C 10.71 g/m*3 12.9 C 8.1 km/h
658 09-07-2014 12:05:00 12.9 C 10.71 g/m*3 12.9 C 6.4 km/h
659 09-07-2014 12:10:00 13 C 10.77 g/m*3 13 C 11.3 km/h
660 09-07-2014 12:15:00 13.1 C 10.84 g/m*3 13.1 C 4.8 km/h
661 09-07-2014 12:20:00 13.1 C 10.84 g/m*3 13.1 C 9.7 km/h
662 09-07-2014 12:25:00 13.2 C 10.91 g/m*3 13.2 C 9.7 km/h
663 09-07-2014 12:30:00 13.2 C 10.91 g/m*3 13.2 C 6.4 km/h
664 09-07-2014 12:35:00 13.2 C 10.91 g/m*3 13.2 C 8.1 km/h
665 09-07-2014 12:40:00 13.2 C 10.91 g/m*3 13.2 C 9.7 km/h
666 09-07-2014 12:45:00 13.2 C 10.91 g/m*3 13.2 C 3.2 km/h
667 09-07-2014 12:50:00 13.2 C 10.91 g/m*3 13.2 C 8.1 km/h
668 09-07-2014 12:55:00 13.3 C 10.98 g/m*3 13.3 C 1.6 km/h
669 09-07-2014 13:00:00 13.3 C 10.98 g/m*3 13.3 C 4.8 km/h
670 09-07-2014 13:05:00 13.3 C 10.98 g/m*3 13.3 C 8.1 km/h
671 09-07-2014 13:10:00 13.3 C 10.98 g/m*3 13.3 C 8.1 km/h
672 09-07-2014 13:15:00 13.3 C 10.98 g/m*3 13.3 C 12.9 km/h
673 09-07-2014 13:20:00 13.3 C 10.98 g/m*3 13.3 C 6.4 km/h
674 09-07-2014 13:25:00 13.3 C 10.86 g/m*3 13.3 C 3.2 km/h
675 09-07-2014 13:30:00 13.4 C 11.04 g/m*3 13.4 C 6.4 km/h
Sensor: Nr:Datum:Temp:Abs-Feuchte:Windchill:Wind:
Aussen-T/F 676 09-07-2014 13:35:00 13.4 C 11.04 g/m*3 13.4 C 8.1 km/h
677 09-07-2014 13:40:00 13.4 C 11.04 g/m*3 13.4 C 3.2 km/h
678 09-07-2014 13:45:00 13.4 C 11.04 g/m*3 13.4 C 11.3 km/h
679 09-07-2014 13:50:00 13.4 C 11.04 g/m*3 13.4 C 8.1 km/h
680 09-07-2014 13:55:00 13.5 C 11.11 g/m*3 13.5 C 3.2 km/h
681 09-07-2014 14:00:00 13.6 C 11.18 g/m*3 13.6 C 4.8 km/h
682 09-07-2014 14:05:00 13.6 C 11.18 g/m*3 13.6 C 3.2 km/h
683 09-07-2014 14:10:00 13.7 C 11.25 g/m*3 13.7 C 4.8 km/h
684 09-07-2014 14:15:00 13.7 C 11.25 g/m*3 13.7 C 6.4 km/h
685 09-07-2014 14:20:00 13.7 C 11.25 g/m*3 13.7 C 4.8 km/h
686 09-07-2014 14:25:00 13.7 C 11.25 g/m*3 13.7 C 6.4 km/h
687 09-07-2014 14:30:00 13.8 C 11.2 g/m*3 13.8 C 6.4 km/h
688 09-07-2014 14:35:00 13.9 C 11.27 g/m*3 13.9 C 9.7 km/h
689 09-07-2014 14:40:00 13.9 C 11.27 g/m*3 13.9 C 4.8 km/h
690 09-07-2014 14:45:00 13.9 C 11.27 g/m*3 13.9 C 11.3 km/h
691 09-07-2014 14:50:00 13.9 C 11.27 g/m*3 13.9 C 12.9 km/h
692 09-07-2014 14:55:00 13.9 C 11.27 g/m*3 13.9 C 12.9 km/h
693 09-07-2014 15:00:00 13.9 C 11.27 g/m*3 13.9 C 8.1 km/h
694 09-07-2014 15:05:00 13.9 C 11.27 g/m*3 13.9 C 9.7 km/h
695 09-07-2014 15:10:00 13.9 C 11.39 g/m*3 13.9 C 4.8 km/h
696 09-07-2014 15:15:00 13.9 C 11.39 g/m*3 13.9 C 14.5 km/h
697 09-07-2014 15:20:00 14 C 11.46 g/m*3 14 C 9.7 km/h
698 09-07-2014 15:25:00 14 C 11.34 g/m*3 14 C 11.3 km/h
699 09-07-2014 15:30:00 14 C 11.46 g/m*3 14 C 6.4 km/h
700 09-07-2014 15:35:00 14 C 11.46 g/m*3 14 C 4.8 km/h
Sensor: Nr:Datum:Temp:Abs-Feuchte:Windchill:Wind:
Aussen-T/F 701 09-07-2014 15:40:00 14.1 C 11.53 g/m*3 14.1 C 3.2 km/h
702 09-07-2014 15:45:00 14.1 C 11.53 g/m*3 14.1 C 8.1 km/h
703 09-07-2014 15:50:00 14 C 11.46 g/m*3 14 C 9.7 km/h
704 09-07-2014 15:55:00 14 C 11.46 g/m*3 14 C 8.1 km/h
705 09-07-2014 16:00:00 14 C 11.46 g/m*3 14 C 8.1 km/h
706 09-07-2014 16:05:00 14 C 11.46 g/m*3 14 C 11.3 km/h
707 09-07-2014 16:10:00 14 C 11.46 g/m*3 14 C 9.7 km/h
708 09-07-2014 16:15:00 14 C 11.46 g/m*3 14 C 9.7 km/h
709 09-07-2014 16:20:00 14 C 11.46 g/m*3 14 C 6.4 km/h
710 09-07-2014 16:25:00 14 C 11.46 g/m*3 14 C 8.1 km/h
711 09-07-2014 16:30:00 14.1 C 11.53 g/m*3 14.1 C 6.4 km/h
712 09-07-2014 16:35:00 14.1 C 11.53 g/m*3 14.1 C 11.3 km/h
713 09-07-2014 16:40:00 14.1 C 11.53 g/m*3 14.1 C 11.3 km/h
714 09-07-2014 16:45:00 14 C 11.46 g/m*3 14 C 9.7 km/h
715 09-07-2014 16:50:00 13.9 C 11.39 g/m*3 13.9 C 6.4 km/h
716 09-07-2014 16:55:00 13.9 C 11.39 g/m*3 13.9 C 4.8 km/h
717 09-07-2014 17:00:00 14 C 11.46 g/m*3 14 C 9.7 km/h
718 09-07-2014 17:05:00 13.9 C 11.39 g/m*3 13.9 C 8.1 km/h
719 09-07-2014 17:10:00 13.9 C 11.39 g/m*3 13.9 C 4.8 km/h
720 09-07-2014 17:15:00 13.9 C 11.39 g/m*3 13.9 C 8.1 km/h
721 09-07-2014 17:20:00 13.9 C 11.39 g/m*3 13.9 C 3.2 km/h
722 09-07-2014 17:25:00 13.9 C 11.39 g/m*3 13.9 C 3.2 km/h
723 09-07-2014 17:30:00 13.9 C 11.39 g/m*3 13.9 C 4.8 km/h
724 09-07-2014 17:35:00 13.9 C 11.39 g/m*3 13.9 C 6.4 km/h
725 09-07-2014 17:40:00 14 C 11.46 g/m*3 14 C 9.7 km/h
Sensor: Nr:Datum:Temp:Abs-Feuchte:Windchill:Wind:
Aussen-T/F 726 09-07-2014 17:45:00 14 C 11.46 g/m*3 14 C 6.4 km/h
727 09-07-2014 17:50:00 14 C 11.46 g/m*3 14 C 4.8 km/h
728 09-07-2014 17:55:00 14.1 C 11.53 g/m*3 14.1 C 9.7 km/h
729 09-07-2014 18:00:00 14.1 C 11.53 g/m*3 14.1 C 6.4 km/h
730 09-07-2014 18:05:00 14 C 11.46 g/m*3 14 C 4.8 km/h
731 09-07-2014 18:10:00 14.1 C 11.53 g/m*3 14.1 C 3.2 km/h
732 09-07-2014 18:15:00 14 C 11.46 g/m*3 14 C 8.1 km/h
733 09-07-2014 18:20:00 14 C 11.46 g/m*3 14 C 3.2 km/h
734 09-07-2014 18:25:00 14 C 11.46 g/m*3 14 C 1.6 km/h
735 09-07-2014 18:30:00 13.9 C 11.39 g/m*3 13.9 C 6.4 km/h
736 09-07-2014 18:35:00 13.9 C 11.39 g/m*3 13.9 C 1.6 km/h
737 09-07-2014 18:40:00 13.9 C 11.39 g/m*3 13.9 C 3.2 km/h
738 09-07-2014 18:45:00 13.9 C 11.39 g/m*3 13.9 C 1.6 km/h
739 09-07-2014 18:50:00 13.9 C 11.39 g/m*3 13.9 C 1.6 km/h
740 09-07-2014 18:55:00 13.9 C 11.39 g/m*3 13.9 C 0 km/h
741 09-07-2014 19:00:00 13.9 C 11.39 g/m*3 13.9 C 1.6 km/h
742 09-07-2014 19:05:00 13.9 C 11.39 g/m*3 13.9 C 1.6 km/h
743 09-07-2014 19:10:00 13.9 C 11.39 g/m*3 13.9 C 0 km/h
744 09-07-2014 19:15:00 13.9 C 11.39 g/m*3 13.9 C 3.2 km/h
745 09-07-2014 19:20:00 13.9 C 11.39 g/m*3 13.9 C 1.6 km/h
746 09-07-2014 19:25:00 13.9 C 11.39 g/m*3 13.9 C 6.4 km/h
747 09-07-2014 19:30:00 13.9 C 11.39 g/m*3 13.9 C 3.2 km/h
748 09-07-2014 19:35:00 13.9 C 11.51 g/m*3 13.9 C 4.8 km/h
749 09-07-2014 19:40:00 13.9 C 11.51 g/m*3 13.9 C 3.2 km/h
750 09-07-2014 19:45:00 13.9 C 11.51 g/m*3 13.9 C 3.2 km/h
Sensor: Nr:Datum:Temp:Abs-Feuchte:Windchill:Wind:
Aussen-T/F 751 09-07-2014 19:50:00 13.9 C 11.51 g/m*3 13.9 C 0 km/h
752 09-07-2014 19:55:00 13.9 C 11.51 g/m*3 13.9 C 6.4 km/h
753 09-07-2014 20:00:00 14 C 11.58 g/m*3 14 C 4.8 km/h
754 09-07-2014 20:05:00 14 C 11.58 g/m*3 14 C 0 km/h
755 09-07-2014 20:10:00 14 C 11.58 g/m*3 14 C 3.2 km/h
756 09-07-2014 20:15:00 14 C 11.58 g/m*3 14 C 0 km/h
757 09-07-2014 20:20:00 14 C 11.58 g/m*3 14 C 1.6 km/h
758 09-07-2014 20:25:00 14 C 11.58 g/m*3 14 C 0 km/h
759 09-07-2014 20:30:00 14 C 11.58 g/m*3 14 C 0 km/h
760 09-07-2014 20:35:00 14 C 11.58 g/m*3 14 C 0 km/h
761 09-07-2014 20:40:00 14 C 11.58 g/m*3 14 C 0 km/h
762 09-07-2014 20:45:00 13.9 C 11.51 g/m*3 13.9 C 0 km/h
763 09-07-2014 20:50:00 13.9 C 11.51 g/m*3 13.9 C 0 km/h
764 09-07-2014 20:55:00 13.9 C 11.51 g/m*3 13.9 C 1.6 km/h
765 09-07-2014 21:00:00 13.9 C 11.51 g/m*3 13.9 C 0 km/h
766 09-07-2014 21:05:00 13.9 C 11.51 g/m*3 13.9 C 1.6 km/h
767 09-07-2014 21:10:00 13.9 C 11.51 g/m*3 13.9 C 0 km/h
768 09-07-2014 21:15:00 13.9 C 11.51 g/m*3 13.9 C 0 km/h
769 09-07-2014 21:20:00 13.9 C 11.51 g/m*3 13.9 C 0 km/h
770 09-07-2014 21:25:00 13.9 C 11.51 g/m*3 13.9 C 0 km/h
771 09-07-2014 21:30:00 13.9 C 11.51 g/m*3 13.9 C 0 km/h
772 09-07-2014 21:35:00 13.9 C 11.51 g/m*3 13.9 C 3.2 km/h
773 09-07-2014 21:40:00 13.9 C 11.63 g/m*3 13.9 C 0 km/h
774 09-07-2014 21:45:00 13.9 C 11.63 g/m*3 13.9 C 0 km/h
775 09-07-2014 21:50:00 13.9 C 11.63 g/m*3 13.9 C 0 km/h
Sensor: Nr:Datum:Temp:Abs-Feuchte:Windchill:Wind:
Aussen-T/F 776 09-07-2014 21:55:00 13.9 C 11.63 g/m*3 13.9 C 0 km/h
777 09-07-2014 22:00:00 13.8 C 11.56 g/m*3 13.8 C 0 km/h
778 09-07-2014 22:05:00 13.8 C 11.56 g/m*3 13.8 C 0 km/h
779 09-07-2014 22:10:00 13.8 C 11.56 g/m*3 13.8 C 0 km/h
780 09-07-2014 22:15:00 13.8 C 11.56 g/m*3 13.8 C 0 km/h
781 09-07-2014 22:20:00 13.8 C 11.56 g/m*3 13.8 C 0 km/h
782 09-07-2014 22:25:00 13.8 C 11.56 g/m*3 13.8 C 0 km/h
783 09-07-2014 22:30:00 13.8 C 11.56 g/m*3 13.8 C 0 km/h
784 09-07-2014 22:35:00 13.8 C 11.56 g/m*3 13.8 C 0 km/h
785 09-07-2014 22:40:00 13.8 C 11.56 g/m*3 13.8 C 0 km/h
786 09-07-2014 22:45:00 13.8 C 11.56 g/m*3 13.8 C 0 km/h
787 09-07-2014 22:50:00 13.8 C 11.56 g/m*3 13.8 C 0 km/h
788 09-07-2014 22:55:00 13.8 C 11.56 g/m*3 13.8 C 0 km/h
789 09-07-2014 23:00:00 13.8 C 11.56 g/m*3 13.8 C 0 km/h
790 09-07-2014 23:05:00 13.8 C 11.56 g/m*3 13.8 C 0 km/h
791 09-07-2014 23:10:00 13.8 C 11.56 g/m*3 13.8 C 0 km/h
792 09-07-2014 23:15:00 13.8 C 11.56 g/m*3 13.8 C 0 km/h
793 09-07-2014 23:20:00 13.7 C 11.49 g/m*3 13.7 C 0 km/h
794 09-07-2014 23:25:00 13.7 C 11.49 g/m*3 13.7 C 0 km/h
795 09-07-2014 23:30:00 13.7 C 11.49 g/m*3 13.7 C 0 km/h
796 09-07-2014 23:35:00 13.7 C 11.49 g/m*3 13.7 C 0 km/h
797 09-07-2014 23:40:00 13.7 C 11.49 g/m*3 13.7 C 0 km/h
798 09-07-2014 23:45:00 13.7 C 11.49 g/m*3 13.7 C 0 km/h
799 09-07-2014 23:50:00 13.7 C 11.49 g/m*3 13.7 C 0 km/h
800 09-07-2014 23:55:00 13.7 C 11.49 g/m*3 13.7 C 0 km/h
Sensor: Nr:Datum:Temp:Abs-Feuchte:Windchill:Wind:
Aussen-T/F 801 10-07-2014 00:00:00 13.7 C 11.49 g/m*3 13.7 C 0 km/h
802 10-07-2014 00:05:00 13.7 C 11.49 g/m*3 13.7 C 0 km/h
803 10-07-2014 00:10:00 13.7 C 11.49 g/m*3 13.7 C 0 km/h
804 10-07-2014 00:15:00 13.7 C 11.49 g/m*3 13.7 C 0 km/h
805 10-07-2014 00:20:00 13.7 C 11.49 g/m*3 13.7 C 0 km/h
806 10-07-2014 00:25:00 13.7 C 11.49 g/m*3 13.7 C 0 km/h
807 10-07-2014 00:30:00 13.7 C 11.49 g/m*3 13.7 C 0 km/h
808 10-07-2014 00:35:00 13.8 C 11.56 g/m*3 13.8 C 0 km/h
809 10-07-2014 00:40:00 13.8 C 11.56 g/m*3 13.8 C 0 km/h
810 10-07-2014 00:45:00 13.7 C 11.49 g/m*3 13.7 C 0 km/h
811 10-07-2014 00:50:00 13.7 C 11.49 g/m*3 13.7 C 0 km/h
812 10-07-2014 00:55:00 13.7 C 11.49 g/m*3 13.7 C 0 km/h
813 10-07-2014 01:00:00 13.7 C 11.49 g/m*3 13.7 C 0 km/h
814 10-07-2014 01:05:00 13.7 C 11.6 g/m*3 13.7 C 0 km/h
815 10-07-2014 01:10:00 13.7 C 11.6 g/m*3 13.7 C 0 km/h
816 10-07-2014 01:15:00 13.7 C 11.6 g/m*3 13.7 C 0 km/h
817 10-07-2014 01:20:00 13.7 C 11.6 g/m*3 13.7 C 0 km/h
818 10-07-2014 01:25:00 13.7 C 11.6 g/m*3 13.7 C 0 km/h
819 10-07-2014 01:30:00 13.7 C 11.6 g/m*3 13.7 C 0 km/h
820 10-07-2014 01:35:00 13.7 C 11.6 g/m*3 13.7 C 0 km/h
821 10-07-2014 01:40:00 13.7 C 11.6 g/m*3 13.7 C 0 km/h
822 10-07-2014 01:45:00 13.7 C 11.6 g/m*3 13.7 C 0 km/h
823 10-07-2014 01:50:00 13.7 C 11.6 g/m*3 13.7 C 0 km/h
824 10-07-2014 01:55:00 13.7 C 11.6 g/m*3 13.7 C 0 km/h
825 10-07-2014 02:00:00 13.7 C 11.6 g/m*3 13.7 C 0 km/h
Sensor: Nr:Datum:Temp:Abs-Feuchte:Windchill:Wind:
Aussen-T/F 826 10-07-2014 02:05:00 13.7 C 11.6 g/m*3 13.7 C 0 km/h
827 10-07-2014 02:10:00 13.7 C 11.6 g/m*3 13.7 C 0 km/h
828 10-07-2014 02:15:00 13.7 C 11.6 g/m*3 13.7 C 0 km/h
829 10-07-2014 02:20:00 13.7 C 11.6 g/m*3 13.7 C 0 km/h
830 10-07-2014 02:25:00 13.7 C 11.6 g/m*3 13.7 C 0 km/h
831 10-07-2014 02:30:00 13.7 C 11.6 g/m*3 13.7 C 0 km/h
832 10-07-2014 02:35:00 13.7 C 11.6 g/m*3 13.7 C 0 km/h
833 10-07-2014 02:40:00 13.7 C 11.6 g/m*3 13.7 C 0 km/h
834 10-07-2014 02:45:00 13.7 C 11.6 g/m*3 13.7 C 0 km/h
835 10-07-2014 02:50:00 13.7 C 11.6 g/m*3 13.7 C 0 km/h
836 10-07-2014 02:55:00 13.8 C 11.68 g/m*3 13.8 C 0 km/h
837 10-07-2014 03:00:00 13.8 C 11.68 g/m*3 13.8 C 0 km/h
838 10-07-2014 03:05:00 13.8 C 11.68 g/m*3 13.8 C 0 km/h
839 10-07-2014 03:10:00 13.8 C 11.68 g/m*3 13.8 C 0 km/h
840 10-07-2014 03:15:00 13.8 C 11.68 g/m*3 13.8 C 0 km/h
841 10-07-2014 03:20:00 13.8 C 11.68 g/m*3 13.8 C 0 km/h
842 10-07-2014 03:25:00 13.8 C 11.68 g/m*3 13.8 C 0 km/h
843 10-07-2014 03:30:00 13.8 C 11.68 g/m*3 13.8 C 0 km/h
844 10-07-2014 03:35:00 13.8 C 11.68 g/m*3 13.8 C 0 km/h
845 10-07-2014 03:40:00 13.8 C 11.68 g/m*3 13.8 C 0 km/h
846 10-07-2014 03:45:00 13.8 C 11.68 g/m*3 13.8 C 0 km/h
847 10-07-2014 03:50:00 13.8 C 11.68 g/m*3 13.8 C 0 km/h
848 10-07-2014 03:55:00 13.8 C 11.68 g/m*3 13.8 C 0 km/h
849 10-07-2014 04:00:00 13.8 C 11.68 g/m*3 13.8 C 0 km/h
850 10-07-2014 04:05:00 13.8 C 11.68 g/m*3 13.8 C 0 km/h
Sensor: Nr:Datum:Temp:Abs-Feuchte:Windchill:Wind:
Aussen-T/F 851 10-07-2014 04:10:00 13.8 C 11.68 g/m*3 13.8 C 0 km/h
852 10-07-2014 04:15:00 13.8 C 11.68 g/m*3 13.8 C 0 km/h
853 10-07-2014 04:20:00 13.8 C 11.68 g/m*3 13.8 C 0 km/h
854 10-07-2014 04:25:00 13.8 C 11.68 g/m*3 13.8 C 0 km/h
855 10-07-2014 04:30:00 13.8 C 11.68 g/m*3 13.8 C 0 km/h
856 10-07-2014 04:35:00 13.8 C 11.68 g/m*3 13.8 C 0 km/h
857 10-07-2014 04:40:00 13.8 C 11.68 g/m*3 13.8 C 0 km/h
858 10-07-2014 04:45:00 13.8 C 11.68 g/m*3 13.8 C 0 km/h
859 10-07-2014 04:50:00 13.8 C 11.68 g/m*3 13.8 C 0 km/h
860 10-07-2014 04:55:00 13.8 C 11.68 g/m*3 13.8 C 0 km/h
861 10-07-2014 05:00:00 13.8 C 11.68 g/m*3 13.8 C 0 km/h
862 10-07-2014 05:05:00 13.8 C 11.68 g/m*3 13.8 C 0 km/h
863 10-07-2014 05:10:00 13.7 C 11.6 g/m*3 13.7 C 0 km/h
864 10-07-2014 05:15:00 13.7 C 11.6 g/m*3 13.7 C 1.6 km/h
865 10-07-2014 05:20:00 13.7 C 11.6 g/m*3 13.7 C 0 km/h
866 10-07-2014 05:25:00 13.6 C 11.53 g/m*3 13.6 C 0 km/h
867 10-07-2014 05:30:00 13.6 C 11.53 g/m*3 13.6 C 0 km/h
868 10-07-2014 05:35:00 13.6 C 11.53 g/m*3 13.6 C 0 km/h
869 10-07-2014 05:40:00 13.7 C 11.6 g/m*3 13.7 C 0 km/h
870 10-07-2014 05:45:00 13.7 C 11.6 g/m*3 13.7 C 0 km/h
871 10-07-2014 05:50:00 13.7 C 11.6 g/m*3 13.7 C 0 km/h
872 10-07-2014 05:55:00 13.7 C 11.6 g/m*3 13.7 C 0 km/h
873 10-07-2014 06:00:00 13.7 C 11.6 g/m*3 13.7 C 0 km/h
874 10-07-2014 06:05:00 13.6 C 11.53 g/m*3 13.6 C 0 km/h
875 10-07-2014 06:10:00 13.7 C 11.6 g/m*3 13.7 C 0 km/h
Sensor: Nr:Datum:Temp:Abs-Feuchte:Windchill:Wind:
Aussen-T/F 876 10-07-2014 06:15:00 13.7 C 11.6 g/m*3 13.7 C 0 km/h
877 10-07-2014 06:20:00 13.7 C 11.6 g/m*3 13.7 C 0 km/h
878 10-07-2014 06:25:00 13.7 C 11.6 g/m*3 13.7 C 0 km/h
879 10-07-2014 06:30:00 13.8 C 11.68 g/m*3 13.8 C 0 km/h
880 10-07-2014 06:35:00 13.8 C 11.68 g/m*3 13.8 C 0 km/h
881 10-07-2014 06:40:00 13.8 C 11.68 g/m*3 13.8 C 0 km/h
882 10-07-2014 06:45:00 13.8 C 11.68 g/m*3 13.8 C 0 km/h
883 10-07-2014 06:50:00 13.9 C 11.75 g/m*3 13.9 C 0 km/h
884 10-07-2014 06:55:00 13.9 C 11.75 g/m*3 13.9 C 0 km/h
885 10-07-2014 07:00:00 14 C 11.82 g/m*3 14 C 0 km/h
886 10-07-2014 07:05:00 14.1 C 11.89 g/m*3 14.1 C 0 km/h
887 10-07-2014 07:10:00 14.1 C 11.89 g/m*3 14.1 C 0 km/h
888 10-07-2014 07:15:00 14.2 C 11.97 g/m*3 14.2 C 0 km/h
889 10-07-2014 07:20:00 14.2 C 11.97 g/m*3 14.2 C 0 km/h
890 10-07-2014 07:25:00 14.3 C 12.04 g/m*3 14.3 C 0 km/h
891 10-07-2014 07:30:00 14.3 C 12.04 g/m*3 14.3 C 0 km/h
892 10-07-2014 07:35:00 14.3 C 12.04 g/m*3 14.3 C 0 km/h
893 10-07-2014 07:40:00 14.3 C 12.04 g/m*3 14.3 C 0 km/h
894 10-07-2014 07:45:00 14.4 C 12.11 g/m*3 14.4 C 0 km/h
895 10-07-2014 07:50:00 14.4 C 12.11 g/m*3 14.4 C 0 km/h
896 10-07-2014 07:55:00 14.3 C 12.04 g/m*3 14.3 C 0 km/h
897 10-07-2014 08:00:00 14.3 C 12.04 g/m*3 14.3 C 0 km/h
898 10-07-2014 08:05:00 14.4 C 12.11 g/m*3 14.4 C 0 km/h
899 10-07-2014 08:10:00 14.5 C 12.19 g/m*3 14.5 C 0 km/h
900 10-07-2014 08:15:00 14.4 C 12.11 g/m*3 14.4 C 0 km/h
Sensor: Nr:Datum:Temp:Abs-Feuchte:Windchill:Wind:
Aussen-T/F 901 10-07-2014 08:20:00 14.4 C 12.11 g/m*3 14.4 C 0 km/h
902 10-07-2014 11:30:00 17.8 C 13.05 g/m*3 17.8 C 6.4 km/h
903 10-07-2014 11:35:00 17.8 C 13.05 g/m*3 17.8 C 0 km/h
904 10-07-2014 11:40:00 17.8 C 13.2 g/m*3 17.8 C 8.1 km/h
905 10-07-2014 11:45:00 17.8 C 13.05 g/m*3 17.8 C 4.8 km/h
906 10-07-2014 11:50:00 17.9 C 13.28 g/m*3 17.9 C 4.8 km/h
907 10-07-2014 11:55:00 18.1 C 13.44 g/m*3 18.1 C 6.4 km/h
908 10-07-2014 12:00:00 18.2 C 13.52 g/m*3 18.2 C 6.4 km/h
909 10-07-2014 12:05:00 18.4 C 13.37 g/m*3 18.4 C 4.8 km/h
910 10-07-2014 12:10:00 18.4 C 13.37 g/m*3 18.4 C 8.1 km/h
911 10-07-2014 12:15:00 18.4 C 13.37 g/m*3 18.4 C 6.4 km/h
912 10-07-2014 12:20:00 18.4 C 13.37 g/m*3 18.4 C 4.8 km/h
913 10-07-2014 12:25:00 18.5 C 13.45 g/m*3 18.5 C 1.6 km/h
914 10-07-2014 12:30:00 18.5 C 13.61 g/m*3 18.5 C 0 km/h
915 10-07-2014 12:35:00 18.5 C 13.61 g/m*3 18.5 C 0 km/h
916 10-07-2014 12:40:00 18.4 C 14 g/m*3 18.4 C 0 km/h
917 10-07-2014 12:45:00 18.4 C 13.84 g/m*3 18.4 C 3.2 km/h
918 10-07-2014 12:50:00 18.7 C 13.93 g/m*3 18.7 C 3.2 km/h
919 10-07-2014 12:55:00 19.1 C 14.1 g/m*3 19.1 C 8.1 km/h
920 10-07-2014 13:00:00 19.3 C 13.93 g/m*3 19.3 C 4.8 km/h
921 10-07-2014 13:05:00 19.5 C 13.76 g/m*3 19.5 C 6.4 km/h
922 10-07-2014 13:10:00 19.7 C 14.26 g/m*3 19.7 C 8.1 km/h
923 10-07-2014 13:15:00 19.9 C 14.26 g/m*3 19.9 C 8.1 km/h
924 10-07-2014 13:20:00 20.1 C 14.08 g/m*3 20.1 C 9.7 km/h
925 10-07-2014 13:25:00 20.2 C 14.34 g/m*3 20.2 C 4.8 km/h
Sensor: Nr:Datum:Temp:Abs-Feuchte:Windchill:Wind:
Aussen-T/F 926 10-07-2014 13:30:00 20.2 C 14.34 g/m*3 20.2 C 6.4 km/h
927 10-07-2014 13:35:00 20.3 C 14.25 g/m*3 20.3 C 4.8 km/h
928 10-07-2014 13:40:00 20.3 C 14.25 g/m*3 20.3 C 6.4 km/h
929 10-07-2014 13:45:00 20.3 C 14.42 g/m*3 20.3 C 4.8 km/h
930 10-07-2014 13:50:00 20.4 C 14.51 g/m*3 20.4 C 3.2 km/h
931 10-07-2014 13:55:00 20.6 C 14.5 g/m*3 20.6 C 4.8 km/h
932 10-07-2014 14:00:00 20.7 C 14.4 g/m*3 20.7 C 6.4 km/h
933 10-07-2014 14:05:00 20.8 C 14.3 g/m*3 20.8 C 4.8 km/h
934 10-07-2014 14:10:00 20.8 C 14.3 g/m*3 20.8 C 3.2 km/h
935 10-07-2014 14:35:00 22.6 C 14.87 g/m*3 22.6 C 4.8 km/h
936 10-07-2014 14:40:00 22.8 C 15.65 g/m*3 22.8 C 4.8 km/h
937 10-07-2014 14:45:00 22.9 C 14.71 g/m*3 22.9 C 3.2 km/h
938 10-07-2014 14:50:00 22.8 C 14.63 g/m*3 22.8 C 8.1 km/h
939 10-07-2014 14:55:00 22.8 C 14.83 g/m*3 22.8 C 6.4 km/h
940 10-07-2014 15:00:00 22.8 C 15.24 g/m*3 22.8 C 6.4 km/h
941 10-07-2014 15:05:00 23.2 C 15.38 g/m*3 23.2 C 4.8 km/h
942 10-07-2014 15:10:00 23.5 C 15.44 g/m*3 23.5 C 8.1 km/h
943 10-07-2014 15:15:00 23.6 C 14.89 g/m*3 23.6 C 6.4 km/h
944 10-07-2014 15:20:00 23.8 C 15.7 g/m*3 23.8 C 6.4 km/h
945 10-07-2014 15:25:00 23.8 C 15.49 g/m*3 23.8 C 8.1 km/h
946 10-07-2014 15:30:00 23.8 C 15.49 g/m*3 23.8 C 6.4 km/h
947 10-07-2014 15:35:00 23.8 C 15.49 g/m*3 23.8 C 8.1 km/h
948 10-07-2014 15:40:00 23.9 C 15.58 g/m*3 23.9 C 6.4 km/h
949 10-07-2014 15:45:00 23.8 C 15.27 g/m*3 23.8 C 4.8 km/h
950 10-07-2014 15:50:00 23.7 C 15.19 g/m*3 23.7 C 11.3 km/h
Sensor: Nr:Datum:Temp:Abs-Feuchte:Windchill:Wind:
Aussen-T/F 951 10-07-2014 15:55:00 23.8 C 15.49 g/m*3 23.8 C 4.8 km/h
952 10-07-2014 16:00:00 24 C 15.45 g/m*3 24 C 8.1 km/h
953 10-07-2014 16:05:00 23.9 C 14.93 g/m*3 23.9 C 6.4 km/h
954 10-07-2014 16:10:00 23.8 C 15.27 g/m*3 23.8 C 8.1 km/h
955 10-07-2014 16:15:00 23.7 C 15.83 g/m*3 23.7 C 3.2 km/h
956 10-07-2014 16:20:00 23.7 C 16.47 g/m*3 23.7 C 4.8 km/h
957 10-07-2014 16:25:00 23.5 C 15.44 g/m*3 23.5 C 8.1 km/h
958 10-07-2014 16:30:00 23.6 C 15.31 g/m*3 23.6 C 9.7 km/h
959 10-07-2014 16:35:00 23.7 C 15.83 g/m*3 23.7 C 8.1 km/h
960 10-07-2014 16:40:00 23.9 C 15.58 g/m*3 23.9 C 3.2 km/h
961 10-07-2014 16:45:00 23.4 C 16.4 g/m*3 23.4 C 0 km/h
962 10-07-2014 16:50:00 22.8 C 15.24 g/m*3 22.8 C 8.1 km/h
963 10-07-2014 16:55:00 22.9 C 15.53 g/m*3 22.9 C 6.4 km/h
964 10-07-2014 17:00:00 23 C 15.83 g/m*3 23 C 4.8 km/h
965 10-07-2014 17:05:00 23.3 C 15.26 g/m*3 23.3 C 14.5 km/h
966 10-07-2014 17:10:00 23.8 C 15.92 g/m*3 23.8 C 3.2 km/h
967 10-07-2014 17:15:00 24.3 C 15.93 g/m*3 24.3 C 6.4 km/h
968 10-07-2014 17:20:00 24.8 C 15.93 g/m*3 24.8 C 4.8 km/h
969 10-07-2014 17:25:00 24.9 C 15.79 g/m*3 24.9 C 11.3 km/h
970 10-07-2014 17:30:00 24.8 C 15.25 g/m*3 24.8 C 9.7 km/h
971 10-07-2014 17:35:00 24.4 C 16.25 g/m*3 24.4 C 9.7 km/h
972 10-07-2014 17:40:00 23.7 C 16.9 g/m*3 23.7 C 3.2 km/h
973 10-07-2014 17:45:00 22.7 C 16.57 g/m*3 22.7 C 0 km/h
974 10-07-2014 17:50:00 22.1 C 16.79 g/m*3 22.1 C 1.6 km/h
975 10-07-2014 17:55:00 21.6 C 16.69 g/m*3 21.6 C 1.6 km/h
Sensor: Nr:Datum:Temp:Abs-Feuchte:Windchill:Wind:
Aussen-T/F 976 10-07-2014 18:00:00 21.2 C 16.49 g/m*3 21.2 C 1.6 km/h
977 10-07-2014 18:05:00 21.1 C 16.95 g/m*3 21.1 C 1.6 km/h
978 10-07-2014 18:10:00 20.9 C 16.76 g/m*3 20.9 C 1.6 km/h
979 10-07-2014 18:15:00 20.8 C 16.66 g/m*3 20.8 C 0 km/h
980 10-07-2014 18:20:00 21.1 C 17.14 g/m*3 21.1 C 1.6 km/h
981 10-07-2014 18:25:00 21.1 C 16.95 g/m*3 21.1 C 1.6 km/h
982 10-07-2014 18:30:00 20.9 C 16.76 g/m*3 20.9 C 3.2 km/h
983 10-07-2014 18:35:00 20.8 C 16.84 g/m*3 20.8 C 1.6 km/h
984 10-07-2014 18:40:00 20.9 C 16.57 g/m*3 20.9 C 8.1 km/h
985 10-07-2014 18:45:00 21.4 C 15.75 g/m*3 21.4 C 11.3 km/h
986 10-07-2014 18:50:00 21.8 C 16.69 g/m*3 21.8 C 1.6 km/h
987 10-07-2014 18:55:00 21.8 C 16.88 g/m*3 21.8 C 1.6 km/h
988 10-07-2014 19:00:00 21.8 C 16.88 g/m*3 21.8 C 0 km/h
989 10-07-2014 19:05:00 20.6 C 16.47 g/m*3 20.6 C 3.2 km/h
990 10-07-2014 19:10:00 20.6 C 16.64 g/m*3 20.6 C 3.2 km/h
991 10-07-2014 19:15:00 21 C 17.4 g/m*3 21 C 1.6 km/h
992 10-07-2014 19:20:00 21.1 C 17.32 g/m*3 21.1 C 3.2 km/h
993 10-07-2014 19:25:00 21.3 C 17.71 g/m*3 21.3 C 3.2 km/h
994 10-07-2014 19:30:00 21.3 C 17.71 g/m*3 21.3 C 8.1 km/h
995 10-07-2014 19:40:00 21.7 C 19.08 g/m*3 21.7 C 1.6 km/h
996 10-07-2014 19:45:00 21.7 C 19.08 g/m*3 21.7 C 4.8 km/h
997 10-07-2014 19:50:00 21.8 C 19.19 g/m*3 21.8 C 1.6 km/h
998 10-07-2014 19:55:00 21.8 C 19.19 g/m*3 21.8 C 1.6 km/h
999 10-07-2014 20:30:00 21.7 C 16.79 g/m*3 21.7 C 12.9 km/h
1000 10-07-2014 20:35:00 22.1 C 16.98 g/m*3 22.1 C 3.2 km/h
Sensor: Nr:Datum:Temp:Abs-Feuchte:Windchill:Wind:
Aussen-T/F 1001 10-07-2014 20:40:00 22.1 C 16.59 g/m*3 22.1 C 4.8 km/h
1002 10-07-2014 20:45:00 21.9 C 16.79 g/m*3 21.9 C 1.6 km/h
1003 10-07-2014 20:50:00 21.4 C 16.69 g/m*3 21.4 C 1.6 km/h
1004 10-07-2014 20:55:00 21.1 C 16.58 g/m*3 21.1 C 0 km/h
1005 10-07-2014 21:00:00 20.7 C 16.38 g/m*3 20.7 C 1.6 km/h
1006 10-07-2014 21:05:00 20.4 C 16.28 g/m*3 20.4 C 1.6 km/h
1007 10-07-2014 21:10:00 20.3 C 16.36 g/m*3 20.3 C 0 km/h
1008 10-07-2014 21:15:00 20.2 C 16.26 g/m*3 20.2 C 0 km/h
1009 10-07-2014 21:20:00 20.2 C 15.91 g/m*3 20.2 C 9.7 km/h
1010 10-07-2014 21:25:00 20.6 C 13.6 g/m*3 20.6 C 14.5 km/h
1011 10-07-2014 21:30:00 20.7 C 13.14 g/m*3 20.7 C 14.5 km/h
1012 10-07-2014 21:35:00 20.3 C 13.19 g/m*3 20.3 C 14.5 km/h
1013 10-07-2014 21:40:00 19.6 C 13.67 g/m*3 19.6 C 12.9 km/h
1014 10-07-2014 21:45:00 18.4 C 13.05 g/m*3 18.4 C 8.1 km/h
1015 10-07-2014 21:50:00 17.7 C 13.13 g/m*3 17.7 C 8.1 km/h
1016 10-07-2014 21:55:00 17.3 C 13.26 g/m*3 17.3 C 4.8 km/h
1017 10-07-2014 22:00:00 17.2 C 13.47 g/m*3 17.2 C 0 km/h
1018 10-07-2014 22:05:00 17 C 13.31 g/m*3 17 C 0 km/h
1019 10-07-2014 22:10:00 16.9 C 13.38 g/m*3 16.9 C 6.4 km/h
1020 10-07-2014 22:15:00 16.8 C 13.3 g/m*3 16.8 C 4.8 km/h
1021 10-07-2014 22:20:00 16.7 C 13.36 g/m*3 16.7 C 1.6 km/h
1022 10-07-2014 22:25:00 16.6 C 13.28 g/m*3 16.6 C 3.2 km/h
1023 10-07-2014 22:30:00 16.6 C 13.28 g/m*3 16.6 C 3.2 km/h
1024 10-07-2014 22:35:00 16.5 C 13.2 g/m*3 16.5 C 6.4 km/h
1025 10-07-2014 22:40:00 16.6 C 13.42 g/m*3 16.6 C 6.4 km/h
Sensor: Nr:Datum:Temp:Abs-Feuchte:Windchill:Wind:
Aussen-T/F 1026 10-07-2014 22:45:00 16.5 C 13.34 g/m*3 16.5 C 6.4 km/h
1027 10-07-2014 22:50:00 16.4 C 13.26 g/m*3 16.4 C 0 km/h
1028 10-07-2014 22:55:00 16.4 C 13.26 g/m*3 16.4 C 0 km/h
1029 10-07-2014 23:00:00 16.4 C 13.26 g/m*3 16.4 C 1.6 km/h
1030 10-07-2014 23:05:00 16.3 C 13.18 g/m*3 16.3 C 0 km/h
1031 10-07-2014 23:10:00 16.3 C 13.18 g/m*3 16.3 C 0 km/h
1032 10-07-2014 23:15:00 16.3 C 13.32 g/m*3 16.3 C 1.6 km/h
1033 10-07-2014 23:20:00 16.2 C 13.24 g/m*3 16.2 C 1.6 km/h
1034 10-07-2014 23:25:00 16.3 C 13.32 g/m*3 16.3 C 8.1 km/h
1035 10-07-2014 23:30:00 16.3 C 13.32 g/m*3 16.3 C 8.1 km/h
1036 10-07-2014 23:35:00 16.3 C 13.32 g/m*3 16.3 C 3.2 km/h
1037 10-07-2014 23:40:00 16.3 C 13.32 g/m*3 16.3 C 4.8 km/h
1038 10-07-2014 23:45:00 16.3 C 13.18 g/m*3 16.3 C 4.8 km/h
1039 10-07-2014 23:50:00 16.3 C 13.18 g/m*3 16.3 C 6.4 km/h
1040 10-07-2014 23:55:00 16.3 C 13.18 g/m*3 16.3 C 4.8 km/h
1041 11-07-2014 00:00:00 16.2 C 13.1 g/m*3 16.2 C 6.4 km/h
1042 11-07-2014 00:05:00 16.1 C 13.02 g/m*3 16.1 C 1.6 km/h
1043 11-07-2014 00:10:00 16.1 C 13.02 g/m*3 16.1 C 1.6 km/h
1044 11-07-2014 00:15:00 16 C 12.94 g/m*3 16 C 1.6 km/h
1045 11-07-2014 00:20:00 15.9 C 12.87 g/m*3 15.9 C 1.6 km/h
1046 11-07-2014 00:25:00 15.9 C 13 g/m*3 15.9 C 0 km/h
1047 11-07-2014 00:30:00 15.8 C 12.92 g/m*3 15.8 C 0 km/h
1048 11-07-2014 00:35:00 15.8 C 12.92 g/m*3 15.8 C 0 km/h
1049 11-07-2014 00:40:00 15.8 C 12.92 g/m*3 15.8 C 0 km/h
1050 11-07-2014 00:45:00 15.7 C 12.84 g/m*3 15.7 C 0 km/h
Sensor: Nr:Datum:Temp:Abs-Feuchte:Windchill:Wind:
Aussen-T/F 1051 11-07-2014 00:50:00 15.7 C 12.84 g/m*3 15.7 C 0 km/h
1052 11-07-2014 00:55:00 15.7 C 12.84 g/m*3 15.7 C 0 km/h
1053 11-07-2014 01:00:00 15.6 C 12.77 g/m*3 15.6 C 0 km/h
1054 11-07-2014 01:05:00 15.6 C 12.77 g/m*3 15.6 C 0 km/h
1055 11-07-2014 01:10:00 15.5 C 12.69 g/m*3 15.5 C 0 km/h
1056 11-07-2014 01:15:00 15.4 C 12.61 g/m*3 15.4 C 0 km/h
1057 11-07-2014 01:20:00 15.4 C 12.61 g/m*3 15.4 C 0 km/h
1058 11-07-2014 01:25:00 15.3 C 12.54 g/m*3 15.3 C 0 km/h
1059 11-07-2014 01:30:00 15.2 C 12.46 g/m*3 15.2 C 0 km/h
1060 11-07-2014 01:35:00 15.1 C 12.39 g/m*3 15.1 C 0 km/h
1061 11-07-2014 01:40:00 15 C 12.31 g/m*3 15 C 0 km/h
1062 11-07-2014 01:45:00 14.9 C 12.24 g/m*3 14.9 C 0 km/h
1063 11-07-2014 01:50:00 14.9 C 12.36 g/m*3 14.9 C 0 km/h
1064 11-07-2014 01:55:00 14.9 C 12.36 g/m*3 14.9 C 0 km/h
1065 11-07-2014 02:00:00 14.9 C 12.36 g/m*3 14.9 C 0 km/h
1066 11-07-2014 02:05:00 14.9 C 12.36 g/m*3 14.9 C 0 km/h
1067 11-07-2014 02:10:00 14.8 C 12.29 g/m*3 14.8 C 0 km/h
1068 11-07-2014 02:15:00 14.8 C 12.29 g/m*3 14.8 C 0 km/h
1069 11-07-2014 02:20:00 14.8 C 12.29 g/m*3 14.8 C 0 km/h
1070 11-07-2014 02:25:00 14.8 C 12.29 g/m*3 14.8 C 0 km/h
1071 11-07-2014 02:30:00 14.7 C 12.21 g/m*3 14.7 C 0 km/h
1072 11-07-2014 02:35:00 14.7 C 12.21 g/m*3 14.7 C 0 km/h
1073 11-07-2014 02:40:00 14.7 C 12.21 g/m*3 14.7 C 0 km/h
1074 11-07-2014 02:45:00 14.7 C 12.21 g/m*3 14.7 C 0 km/h
1075 11-07-2014 02:50:00 14.6 C 12.14 g/m*3 14.6 C 0 km/h
Sensor: Nr:Datum:Temp:Abs-Feuchte:Windchill:Wind:
Aussen-T/F 1076 11-07-2014 02:55:00 14.6 C 12.14 g/m*3 14.6 C 0 km/h
1077 11-07-2014 03:00:00 14.5 C 12.06 g/m*3 14.5 C 0 km/h
1078 11-07-2014 03:05:00 14.4 C 11.99 g/m*3 14.4 C 0 km/h
1079 11-07-2014 03:10:00 14.4 C 11.99 g/m*3 14.4 C 0 km/h
1080 11-07-2014 03:15:00 14.4 C 11.99 g/m*3 14.4 C 0 km/h
1081 11-07-2014 03:20:00 14.4 C 11.99 g/m*3 14.4 C 0 km/h
1082 11-07-2014 03:25:00 14.4 C 11.99 g/m*3 14.4 C 0 km/h
1083 11-07-2014 03:30:00 14.4 C 11.99 g/m*3 14.4 C 0 km/h
1084 11-07-2014 03:35:00 14.4 C 11.99 g/m*3 14.4 C 0 km/h
1085 11-07-2014 03:40:00 14.3 C 11.92 g/m*3 14.3 C 0 km/h
1086 11-07-2014 03:45:00 14.3 C 11.92 g/m*3 14.3 C 0 km/h
1087 11-07-2014 03:50:00 14.2 C 11.84 g/m*3 14.2 C 0 km/h
1088 11-07-2014 03:55:00 14.2 C 11.84 g/m*3 14.2 C 0 km/h
1089 11-07-2014 04:00:00 14.2 C 11.84 g/m*3 14.2 C 0 km/h
1090 11-07-2014 04:05:00 14.2 C 11.84 g/m*3 14.2 C 0 km/h
1091 11-07-2014 04:10:00 14.2 C 11.84 g/m*3 14.2 C 0 km/h
1092 11-07-2014 04:15:00 14.2 C 11.84 g/m*3 14.2 C 0 km/h
1093 11-07-2014 04:20:00 14.2 C 11.84 g/m*3 14.2 C 0 km/h
1094 11-07-2014 04:25:00 14.2 C 11.84 g/m*3 14.2 C 0 km/h
1095 11-07-2014 04:30:00 14.2 C 11.84 g/m*3 14.2 C 0 km/h
1096 11-07-2014 04:35:00 14.1 C 11.77 g/m*3 14.1 C 0 km/h
1097 11-07-2014 04:40:00 14.1 C 11.77 g/m*3 14.1 C 0 km/h
1098 11-07-2014 04:45:00 14.1 C 11.77 g/m*3 14.1 C 0 km/h
1099 11-07-2014 04:50:00 14.1 C 11.77 g/m*3 14.1 C 0 km/h
1100 11-07-2014 04:55:00 14.1 C 11.77 g/m*3 14.1 C 0 km/h
Sensor: Nr:Datum:Temp:Abs-Feuchte:Windchill:Wind:
Aussen-T/F 1101 11-07-2014 05:00:00 14.2 C 11.97 g/m*3 14.2 C 0 km/h
1102 11-07-2014 05:05:00 14.3 C 12.04 g/m*3 14.3 C 0 km/h
1103 11-07-2014 05:10:00 14.3 C 12.04 g/m*3 14.3 C 0 km/h
1104 11-07-2014 05:15:00 14.3 C 12.04 g/m*3 14.3 C 0 km/h
1105 11-07-2014 05:20:00 14.3 C 12.04 g/m*3 14.3 C 0 km/h
1106 11-07-2014 05:25:00 14.3 C 12.04 g/m*3 14.3 C 0 km/h
1107 11-07-2014 05:30:00 14.3 C 12.04 g/m*3 14.3 C 0 km/h
1108 11-07-2014 05:35:00 14.4 C 12.11 g/m*3 14.4 C 0 km/h
1109 11-07-2014 05:40:00 14.4 C 12.11 g/m*3 14.4 C 0 km/h
1110 11-07-2014 05:45:00 14.6 C 12.26 g/m*3 14.6 C 0 km/h
1111 11-07-2014 05:50:00 14.7 C 12.34 g/m*3 14.7 C 0 km/h
1112 11-07-2014 05:55:00 14.9 C 12.49 g/m*3 14.9 C 0 km/h
1113 11-07-2014 06:00:00 15.1 C 12.64 g/m*3 15.1 C 0 km/h
1114 11-07-2014 06:05:00 15.2 C 12.72 g/m*3 15.2 C 0 km/h
1115 11-07-2014 06:10:00 15.3 C 12.8 g/m*3 15.3 C 0 km/h
1116 11-07-2014 06:15:00 15.2 C 12.72 g/m*3 15.2 C 1.6 km/h
1117 11-07-2014 06:20:00 15.3 C 12.8 g/m*3 15.3 C 0 km/h
1118 11-07-2014 06:25:00 15.3 C 12.8 g/m*3 15.3 C 0 km/h
1119 11-07-2014 06:30:00 15.3 C 12.8 g/m*3 15.3 C 0 km/h
1120 11-07-2014 06:35:00 15.3 C 12.8 g/m*3 15.3 C 0 km/h
1121 11-07-2014 06:40:00 15.3 C 12.8 g/m*3 15.3 C 0 km/h
1122 11-07-2014 06:45:00 15.3 C 12.8 g/m*3 15.3 C 0 km/h
1123 11-07-2014 06:50:00 15.4 C 12.88 g/m*3 15.4 C 0 km/h
1124 11-07-2014 06:55:00 15.4 C 12.88 g/m*3 15.4 C 0 km/h
1125 11-07-2014 07:00:00 15.4 C 12.88 g/m*3 15.4 C 0 km/h
Sensor: Nr:Datum:Temp:Abs-Feuchte:Windchill:Wind:
Aussen-T/F 1126 11-07-2014 07:05:00 15.4 C 12.88 g/m*3 15.4 C 1.6 km/h
1127 11-07-2014 07:10:00 15.4 C 12.88 g/m*3 15.4 C 0 km/h
1128 11-07-2014 07:15:00 15.3 C 12.8 g/m*3 15.3 C 3.2 km/h
1129 11-07-2014 07:20:00 15.3 C 12.8 g/m*3 15.3 C 0 km/h
1130 11-07-2014 07:25:00 15.4 C 12.88 g/m*3 15.4 C 0 km/h
1131 11-07-2014 07:30:00 15.6 C 13.03 g/m*3 15.6 C 0 km/h
1132 11-07-2014 07:35:00 15.7 C 13.11 g/m*3 15.7 C 1.6 km/h
1133 11-07-2014 07:40:00 15.7 C 13.11 g/m*3 15.7 C 0 km/h
1134 11-07-2014 07:45:00 15.7 C 13.11 g/m*3 15.7 C 0 km/h
1135 11-07-2014 07:50:00 15.8 C 13.19 g/m*3 15.8 C 0 km/h
1136 11-07-2014 07:55:00 15.8 C 13.19 g/m*3 15.8 C 0 km/h
1137 11-07-2014 08:00:00 16 C 13.35 g/m*3 16 C 1.6 km/h
1138 11-07-2014 08:05:00 16.1 C 13.43 g/m*3 16.1 C 0 km/h
1139 11-07-2014 08:10:00 16.2 C 13.51 g/m*3 16.2 C 1.6 km/h
1140 11-07-2014 08:15:00 16.3 C 13.6 g/m*3 16.3 C 1.6 km/h
1141 11-07-2014 08:20:00 16.3 C 13.6 g/m*3 16.3 C 0 km/h
1142 11-07-2014 08:25:00 16.4 C 13.68 g/m*3 16.4 C 0 km/h
1143 11-07-2014 08:30:00 16.4 C 13.68 g/m*3 16.4 C 0 km/h
1144 11-07-2014 08:35:00 16.5 C 13.76 g/m*3 16.5 C 0 km/h
1145 11-07-2014 08:40:00 16.6 C 13.84 g/m*3 16.6 C 0 km/h
1146 11-07-2014 08:45:00 16.6 C 13.84 g/m*3 16.6 C 3.2 km/h
1147 11-07-2014 08:50:00 16.7 C 13.93 g/m*3 16.7 C 0 km/h
1148 11-07-2014 08:55:00 16.7 C 13.93 g/m*3 16.7 C 0 km/h
1149 11-07-2014 09:00:00 16.8 C 14.01 g/m*3 16.8 C 0 km/h
1150 11-07-2014 09:05:00 16.8 C 14.01 g/m*3 16.8 C 0 km/h
Sensor: Nr:Datum:Temp:Abs-Feuchte:Windchill:Wind:
Aussen-T/F 1151 11-07-2014 09:10:00 16.8 C 14.01 g/m*3 16.8 C 0 km/h
1152 11-07-2014 09:15:00 16.8 C 14.01 g/m*3 16.8 C 0 km/h
1153 11-07-2014 09:20:00 16.8 C 14.01 g/m*3 16.8 C 0 km/h
1154 11-07-2014 09:25:00 16.8 C 14.01 g/m*3 16.8 C 0 km/h
1155 11-07-2014 09:30:00 16.8 C 14.01 g/m*3 16.8 C 0 km/h
1156 11-07-2014 09:35:00 16.8 C 14.01 g/m*3 16.8 C 0 km/h
1157 11-07-2014 09:40:00 16.9 C 14.1 g/m*3 16.9 C 0 km/h
1158 11-07-2014 09:45:00 16.9 C 14.1 g/m*3 16.9 C 0 km/h
1159 11-07-2014 09:50:00 16.9 C 14.1 g/m*3 16.9 C 0 km/h
1160 11-07-2014 09:55:00 17.1 C 14.27 g/m*3 17.1 C 0 km/h
1161 11-07-2014 10:00:00 17.1 C 14.27 g/m*3 17.1 C 0 km/h
1162 11-07-2014 10:05:00 17.2 C 14.35 g/m*3 17.2 C 4.8 km/h
1163 11-07-2014 10:10:00 17.3 C 14.44 g/m*3 17.3 C 0 km/h
1164 11-07-2014 10:15:00 17.3 C 14.44 g/m*3 17.3 C 4.8 km/h
1165 11-07-2014 10:20:00 17.3 C 14.44 g/m*3 17.3 C 6.4 km/h
1166 11-07-2014 10:25:00 17.4 C 14.52 g/m*3 17.4 C 4.8 km/h
1167 11-07-2014 10:30:00 17.4 C 14.52 g/m*3 17.4 C 6.4 km/h
1168 11-07-2014 11:35:00 18.6 C 14.8 g/m*3 18.6 C 8.1 km/h
1169 11-07-2014 11:40:00 18.6 C 14.48 g/m*3 18.6 C 8.1 km/h
1170 11-07-2014 11:45:00 18.6 C 14.64 g/m*3 18.6 C 6.4 km/h
1171 11-07-2014 11:50:00 18.6 C 14.64 g/m*3 18.6 C 4.8 km/h
1172 11-07-2014 11:55:00 18.6 C 14.64 g/m*3 18.6 C 6.4 km/h
1173 11-07-2014 12:00:00 18.8 C 14.66 g/m*3 18.8 C 4.8 km/h
1174 11-07-2014 12:05:00 18.9 C 14.74 g/m*3 18.9 C 1.6 km/h
1175 11-07-2014 12:10:00 19 C 14.67 g/m*3 19 C 8.1 km/h
Sensor: Nr:Datum:Temp:Abs-Feuchte:Windchill:Wind:
Aussen-T/F 1176 11-07-2014 12:15:00 19.1 C 14.75 g/m*3 19.1 C 1.6 km/h
1177 11-07-2014 12:20:00 19.3 C 14.93 g/m*3 19.3 C 8.1 km/h
1178 11-07-2014 12:25:00 19.3 C 14.93 g/m*3 19.3 C 6.4 km/h
1179 11-07-2014 12:30:00 19.3 C 14.93 g/m*3 19.3 C 4.8 km/h
1180 11-07-2014 12:35:00 19.6 C 15.19 g/m*3 19.6 C 4.8 km/h
1181 11-07-2014 12:40:00 19.7 C 15.11 g/m*3 19.7 C 4.8 km/h
1182 11-07-2014 12:45:00 19.8 C 15.03 g/m*3 19.8 C 8.1 km/h
1183 11-07-2014 12:50:00 20 C 15.04 g/m*3 20 C 6.4 km/h
1184 11-07-2014 12:55:00 20.1 C 14.95 g/m*3 20.1 C 8.1 km/h
1185 11-07-2014 13:00:00 20.2 C 15.04 g/m*3 20.2 C 6.4 km/h
1186 11-07-2014 13:05:00 20.2 C 15.04 g/m*3 20.2 C 9.7 km/h
1187 11-07-2014 13:10:00 20.3 C 15.13 g/m*3 20.3 C 9.7 km/h
1188 11-07-2014 13:15:00 20.4 C 15.21 g/m*3 20.4 C 3.2 km/h
1189 11-07-2014 13:20:00 20.6 C 15.21 g/m*3 20.6 C 6.4 km/h
1190 11-07-2014 13:25:00 20.8 C 15.39 g/m*3 20.8 C 4.8 km/h
1191 11-07-2014 13:30:00 20.9 C 15.3 g/m*3 20.9 C 4.8 km/h
1192 11-07-2014 13:35:00 20.9 C 15.3 g/m*3 20.9 C 6.4 km/h
1193 11-07-2014 13:40:00 21.2 C 15.38 g/m*3 21.2 C 8.1 km/h
1194 11-07-2014 13:45:00 21.2 C 15.01 g/m*3 21.2 C 8.1 km/h
1195 11-07-2014 13:50:00 21.3 C 15.1 g/m*3 21.3 C 8.1 km/h
1196 11-07-2014 13:55:00 21.3 C 15.28 g/m*3 21.3 C 6.4 km/h
1197 11-07-2014 14:00:00 21.4 C 15.37 g/m*3 21.4 C 6.4 km/h
1198 11-07-2014 14:05:00 21.5 C 15.09 g/m*3 21.5 C 8.1 km/h
1199 11-07-2014 14:10:00 21.5 C 14.9 g/m*3 21.5 C 6.4 km/h
1200 11-07-2014 14:15:00 21.6 C 14.79 g/m*3 21.6 C 14.5 km/h
Sensor: Nr:Datum:Temp:Abs-Feuchte:Windchill:Wind:
Aussen-T/F 1201 11-07-2014 14:20:00 21.7 C 15.07 g/m*3 21.7 C 11.3 km/h
1202 11-07-2014 14:25:00 21.7 C 14.88 g/m*3 21.7 C 8.1 km/h
1203 11-07-2014 14:30:00 21.7 C 15.07 g/m*3 21.7 C 4.8 km/h
1204 11-07-2014 14:35:00 21.7 C 14.88 g/m*3 21.7 C 9.7 km/h
1205 11-07-2014 14:40:00 21.8 C 15.35 g/m*3 21.8 C 6.4 km/h
1206 11-07-2014 14:45:00 21.8 C 14.77 g/m*3 21.8 C 4.8 km/h
1207 11-07-2014 14:50:00 21.9 C 15.05 g/m*3 21.9 C 6.4 km/h
1208 11-07-2014 14:55:00 21.9 C 15.05 g/m*3 21.9 C 6.4 km/h
1209 11-07-2014 15:00:00 22.1 C 15.03 g/m*3 22.1 C 4.8 km/h
1210 11-07-2014 15:05:00 22.1 C 15.03 g/m*3 22.1 C 6.4 km/h
1211 11-07-2014 15:25:00 22.6 C 15.27 g/m*3 22.6 C 8.1 km/h
1212 11-07-2014 15:30:00 22.6 C 14.66 g/m*3 22.6 C 6.4 km/h
1213 11-07-2014 15:35:00 22.6 C 14.66 g/m*3 22.6 C 11.3 km/h
1214 11-07-2014 15:40:00 22.7 C 14.95 g/m*3 22.7 C 9.7 km/h
1215 11-07-2014 15:45:00 22.7 C 15.15 g/m*3 22.7 C 9.7 km/h
1216 11-07-2014 15:50:00 22.7 C 15.15 g/m*3 22.7 C 9.7 km/h
1217 11-07-2014 15:55:00 23.3 C 15.68 g/m*3 23.3 C 4.8 km/h
1218 11-07-2014 16:00:00 23.8 C 15.92 g/m*3 23.8 C 8.1 km/h
1219 11-07-2014 16:05:00 24.1 C 15.97 g/m*3 24.1 C 9.7 km/h
1220 11-07-2014 16:10:00 24.1 C 15.97 g/m*3 24.1 C 11.3 km/h
1221 11-07-2014 16:15:00 24.1 C 15.97 g/m*3 24.1 C 8.1 km/h
1222 11-07-2014 18:00:00 24.3 C 15.05 g/m*3 24.3 C 8.1 km/h
1223 11-07-2014 18:05:00 24.1 C 15.32 g/m*3 24.1 C 4.8 km/h
1224 11-07-2014 18:10:00 23.9 C 15.36 g/m*3 23.9 C 8.1 km/h
1225 11-07-2014 18:15:00 23.8 C 15.06 g/m*3 23.8 C 9.7 km/h
Sensor: Nr:Datum:Temp:Abs-Feuchte:Windchill:Wind:
Aussen-T/F 1226 11-07-2014 18:20:00 23.7 C 15.61 g/m*3 23.7 C 11.3 km/h
1227 11-07-2014 18:25:00 23.5 C 15.23 g/m*3 23.5 C 6.4 km/h
1228 11-07-2014 18:30:00 23.4 C 15.14 g/m*3 23.4 C 9.7 km/h
1229 11-07-2014 18:35:00 23.6 C 15.31 g/m*3 23.6 C 6.4 km/h
1230 11-07-2014 18:40:00 23.8 C 15.7 g/m*3 23.8 C 4.8 km/h
1231 11-07-2014 18:45:00 24.2 C 16.06 g/m*3 24.2 C 8.1 km/h
1232 11-07-2014 18:50:00 24.3 C 15.49 g/m*3 24.3 C 11.3 km/h
1233 11-07-2014 18:55:00 24.2 C 15.4 g/m*3 24.2 C 8.1 km/h
1234 11-07-2014 19:00:00 24.1 C 15.53 g/m*3 24.1 C 9.7 km/h
1235 11-07-2014 19:05:00 24.1 C 15.32 g/m*3 24.1 C 8.1 km/h
1236 11-07-2014 19:10:00 24.2 C 15.18 g/m*3 24.2 C 11.3 km/h
1237 11-07-2014 19:15:00 24.2 C 15.4 g/m*3 24.2 C 9.7 km/h
1238 11-07-2014 19:20:00 23.9 C 15.14 g/m*3 23.9 C 11.3 km/h
1239 11-07-2014 19:25:00 23.8 C 15.06 g/m*3 23.8 C 11.3 km/h
1240 11-07-2014 19:30:00 23.8 C 15.06 g/m*3 23.8 C 8.1 km/h
1241 11-07-2014 19:35:00 23.4 C 15.14 g/m*3 23.4 C 9.7 km/h
1242 11-07-2014 19:40:00 23.3 C 15.05 g/m*3 23.3 C 8.1 km/h
1243 11-07-2014 19:45:00 23.3 C 15.26 g/m*3 23.3 C 8.1 km/h
1244 11-07-2014 19:50:00 23.2 C 14.97 g/m*3 23.2 C 8.1 km/h
1245 11-07-2014 19:55:00 23.2 C 14.97 g/m*3 23.2 C 8.1 km/h
1246 11-07-2014 20:20:00 23.1 C 15.5 g/m*3 23.1 C 11.3 km/h
1247 11-07-2014 20:25:00 23.1 C 15.5 g/m*3 23.1 C 6.4 km/h
1248 11-07-2014 20:30:00 22.9 C 15.33 g/m*3 22.9 C 8.1 km/h
1249 11-07-2014 20:35:00 22.8 C 15.65 g/m*3 22.8 C 6.4 km/h
1250 11-07-2014 20:40:00 22.8 C 15.65 g/m*3 22.8 C 6.4 km/h
Sensor: Nr:Datum:Temp:Abs-Feuchte:Windchill:Wind:
Aussen-T/F 1251 11-07-2014 20:45:00 22.7 C 15.36 g/m*3 22.7 C 12.9 km/h
1252 11-07-2014 20:50:00 22.6 C 15.47 g/m*3 22.6 C 9.7 km/h
1253 11-07-2014 20:55:00 22.4 C 15.29 g/m*3 22.4 C 9.7 km/h
1254 11-07-2014 21:00:00 22.3 C 15.2 g/m*3 22.3 C 9.7 km/h
1255 11-07-2014 21:05:00 22.2 C 15.31 g/m*3 22.2 C 9.7 km/h
1256 11-07-2014 21:10:00 22.1 C 15.23 g/m*3 22.1 C 6.4 km/h
1257 11-07-2014 21:15:00 22 C 15.33 g/m*3 22 C 6.4 km/h
1258 11-07-2014 21:20:00 21.9 C 15.24 g/m*3 21.9 C 3.2 km/h
1259 11-07-2014 21:25:00 21.8 C 14.97 g/m*3 21.8 C 11.3 km/h
1260 11-07-2014 21:30:00 21.7 C 15.07 g/m*3 21.7 C 8.1 km/h
1261 11-07-2014 21:35:00 21.6 C 14.98 g/m*3 21.6 C 8.1 km/h
1262 11-07-2014 21:40:00 21.5 C 15.09 g/m*3 21.5 C 4.8 km/h
1263 11-07-2014 21:45:00 21.4 C 15 g/m*3 21.4 C 11.3 km/h
1264 11-07-2014 21:50:00 21.3 C 14.91 g/m*3 21.3 C 4.8 km/h
1265 11-07-2014 21:55:00 21.3 C 15.1 g/m*3 21.3 C 4.8 km/h
1266 11-07-2014 22:00:00 21.2 C 15.01 g/m*3 21.2 C 4.8 km/h
1267 11-07-2014 22:05:00 21.1 C 15.11 g/m*3 21.1 C 4.8 km/h
1268 11-07-2014 22:10:00 20.9 C 14.93 g/m*3 20.9 C 9.7 km/h
1269 11-07-2014 22:15:00 20.8 C 14.67 g/m*3 20.8 C 9.7 km/h
1270 11-07-2014 22:20:00 20.8 C 14.85 g/m*3 20.8 C 4.8 km/h
1271 11-07-2014 22:25:00 20.7 C 14.76 g/m*3 20.7 C 4.8 km/h
1272 11-07-2014 22:30:00 20.6 C 14.5 g/m*3 20.6 C 6.4 km/h
1273 11-07-2014 22:35:00 20.5 C 14.41 g/m*3 20.5 C 9.7 km/h
1274 11-07-2014 22:40:00 20.4 C 14.33 g/m*3 20.4 C 4.8 km/h
1275 11-07-2014 22:45:00 20.3 C 14.42 g/m*3 20.3 C 1.6 km/h
Sensor: Nr:Datum:Temp:Abs-Feuchte:Windchill:Wind:
Aussen-T/F 1276 11-07-2014 22:50:00 20.2 C 14.34 g/m*3 20.2 C 1.6 km/h
1277 11-07-2014 22:55:00 20.1 C 14.43 g/m*3 20.1 C 3.2 km/h
1278 11-07-2014 23:00:00 19.9 C 14.26 g/m*3 19.9 C 4.8 km/h
1279 11-07-2014 23:05:00 19.9 C 14.43 g/m*3 19.9 C 4.8 km/h
1280 11-07-2014 23:10:00 19.8 C 14.35 g/m*3 19.8 C 1.6 km/h
1281 11-07-2014 23:15:00 19.7 C 14.26 g/m*3 19.7 C 4.8 km/h
1282 11-07-2014 23:20:00 19.6 C 14.52 g/m*3 19.6 C 0 km/h
1283 11-07-2014 23:25:00 19.4 C 14.35 g/m*3 19.4 C 0 km/h
1284 11-07-2014 23:30:00 19.3 C 14.1 g/m*3 19.3 C 3.2 km/h
1285 11-07-2014 23:35:00 19.4 C 14.18 g/m*3 19.4 C 4.8 km/h
1286 11-07-2014 23:40:00 19.4 C 14.18 g/m*3 19.4 C 3.2 km/h
1287 11-07-2014 23:45:00 19.4 C 14.01 g/m*3 19.4 C 1.6 km/h
1288 11-07-2014 23:50:00 19.4 C 14.18 g/m*3 19.4 C 3.2 km/h
1289 11-07-2014 23:55:00 19.4 C 14.35 g/m*3 19.4 C 3.2 km/h
1290 12-07-2014 00:00:00 19.3 C 14.43 g/m*3 19.3 C 0 km/h
1291 12-07-2014 00:05:00 19.2 C 14.51 g/m*3 19.2 C 0 km/h
1292 12-07-2014 00:10:00 19 C 14.5 g/m*3 19 C 0 km/h
1293 12-07-2014 00:15:00 18.8 C 14.33 g/m*3 18.8 C 0 km/h
1294 12-07-2014 00:20:00 18.7 C 14.25 g/m*3 18.7 C 0 km/h
1295 12-07-2014 00:25:00 18.7 C 14.41 g/m*3 18.7 C 0 km/h
1296 12-07-2014 00:30:00 18.6 C 14.32 g/m*3 18.6 C 0 km/h
1297 12-07-2014 00:35:00 18.5 C 14.4 g/m*3 18.5 C 0 km/h
1298 12-07-2014 00:40:00 18.4 C 14.31 g/m*3 18.4 C 0 km/h
1299 12-07-2014 00:45:00 18.3 C 14.23 g/m*3 18.3 C 0 km/h
1300 12-07-2014 00:50:00 18.3 C 14.23 g/m*3 18.3 C 0 km/h
Sensor: Nr:Datum:Temp:Abs-Feuchte:Windchill:Wind:
Aussen-T/F 1301 12-07-2014 00:55:00 18.3 C 14.23 g/m*3 18.3 C 0 km/h
1302 12-07-2014 01:00:00 18.3 C 14.38 g/m*3 18.3 C 0 km/h
1303 12-07-2014 01:05:00 18.3 C 14.38 g/m*3 18.3 C 0 km/h
1304 12-07-2014 01:10:00 18.3 C 14.38 g/m*3 18.3 C 0 km/h
1305 12-07-2014 01:15:00 18.2 C 14.3 g/m*3 18.2 C 0 km/h
1306 12-07-2014 01:20:00 18.2 C 14.3 g/m*3 18.2 C 0 km/h
1307 12-07-2014 01:25:00 18.2 C 14.3 g/m*3 18.2 C 0 km/h
1308 12-07-2014 01:30:00 18.1 C 14.21 g/m*3 18.1 C 0 km/h
1309 12-07-2014 01:35:00 18.1 C 14.21 g/m*3 18.1 C 0 km/h
1310 12-07-2014 01:40:00 17.9 C 14.05 g/m*3 17.9 C 0 km/h
1311 12-07-2014 01:45:00 17.9 C 14.05 g/m*3 17.9 C 0 km/h
1312 12-07-2014 01:50:00 17.8 C 14.12 g/m*3 17.8 C 0 km/h
1313 12-07-2014 01:55:00 17.8 C 14.12 g/m*3 17.8 C 0 km/h
1314 12-07-2014 02:00:00 17.8 C 14.12 g/m*3 17.8 C 0 km/h
1315 12-07-2014 02:05:00 17.7 C 14.03 g/m*3 17.7 C 0 km/h
1316 12-07-2014 02:10:00 17.7 C 14.03 g/m*3 17.7 C 0 km/h
1317 12-07-2014 02:15:00 17.7 C 14.03 g/m*3 17.7 C 3.2 km/h
1318 12-07-2014 02:20:00 17.7 C 14.03 g/m*3 17.7 C 0 km/h
1319 12-07-2014 02:25:00 17.7 C 14.03 g/m*3 17.7 C 0 km/h
1320 12-07-2014 02:30:00 17.7 C 14.03 g/m*3 17.7 C 0 km/h
1321 12-07-2014 02:35:00 17.7 C 14.18 g/m*3 17.7 C 0 km/h
1322 12-07-2014 02:40:00 17.7 C 14.03 g/m*3 17.7 C 0 km/h
1323 12-07-2014 02:45:00 17.8 C 14.12 g/m*3 17.8 C 0 km/h
1324 12-07-2014 02:50:00 17.8 C 14.12 g/m*3 17.8 C 0 km/h
1325 12-07-2014 02:55:00 17.8 C 14.12 g/m*3 17.8 C 1.6 km/h
Sensor: Nr:Datum:Temp:Abs-Feuchte:Windchill:Wind:
Aussen-T/F 1326 12-07-2014 03:00:00 17.9 C 14.05 g/m*3 17.9 C 1.6 km/h
1327 12-07-2014 03:05:00 17.9 C 14.05 g/m*3 17.9 C 0 km/h
1328 12-07-2014 03:10:00 17.9 C 13.74 g/m*3 17.9 C 8.1 km/h
1329 12-07-2014 03:15:00 18.1 C 13.75 g/m*3 18.1 C 4.8 km/h
1330 12-07-2014 03:20:00 18.2 C 13.83 g/m*3 18.2 C 6.4 km/h
1331 12-07-2014 03:25:00 18.3 C 13.76 g/m*3 18.3 C 1.6 km/h
1332 12-07-2014 03:30:00 18.3 C 13.76 g/m*3 18.3 C 3.2 km/h
1333 12-07-2014 03:35:00 18.3 C 13.76 g/m*3 18.3 C 1.6 km/h
1334 12-07-2014 03:40:00 18.3 C 13.76 g/m*3 18.3 C 8.1 km/h
1335 12-07-2014 03:45:00 18.3 C 13.6 g/m*3 18.3 C 6.4 km/h
1336 12-07-2014 03:50:00 18.3 C 13.76 g/m*3 18.3 C 3.2 km/h
1337 12-07-2014 03:55:00 18.3 C 13.76 g/m*3 18.3 C 3.2 km/h
1338 12-07-2014 04:00:00 18.3 C 13.92 g/m*3 18.3 C 1.6 km/h
1339 12-07-2014 04:05:00 18.3 C 13.92 g/m*3 18.3 C 1.6 km/h
1340 12-07-2014 04:10:00 18.2 C 13.83 g/m*3 18.2 C 1.6 km/h
1341 12-07-2014 04:15:00 18.2 C 13.83 g/m*3 18.2 C 1.6 km/h
1342 12-07-2014 04:20:00 18.1 C 13.91 g/m*3 18.1 C 0 km/h
1343 12-07-2014 04:25:00 18.1 C 13.91 g/m*3 18.1 C 4.8 km/h
1344 12-07-2014 04:30:00 18.1 C 13.75 g/m*3 18.1 C 6.4 km/h
1345 12-07-2014 04:35:00 18.1 C 13.75 g/m*3 18.1 C 8.1 km/h
1346 12-07-2014 04:40:00 18.1 C 13.75 g/m*3 18.1 C 6.4 km/h
1347 12-07-2014 04:45:00 18.1 C 13.75 g/m*3 18.1 C 4.8 km/h
1348 12-07-2014 04:50:00 18.2 C 13.68 g/m*3 18.2 C 6.4 km/h
1349 12-07-2014 04:55:00 18.2 C 13.68 g/m*3 18.2 C 6.4 km/h
1350 12-07-2014 05:00:00 18.2 C 13.68 g/m*3 18.2 C 11.3 km/h
Sensor: Nr:Datum:Temp:Abs-Feuchte:Windchill:Wind:
Aussen-T/F 1351 12-07-2014 05:05:00 18.2 C 13.68 g/m*3 18.2 C 11.3 km/h
1352 12-07-2014 05:10:00 18.2 C 13.68 g/m*3 18.2 C 6.4 km/h
1353 12-07-2014 05:15:00 18.2 C 13.68 g/m*3 18.2 C 9.7 km/h
1354 12-07-2014 05:20:00 18.1 C 13.6 g/m*3 18.1 C 6.4 km/h
1355 12-07-2014 05:25:00 18.1 C 13.75 g/m*3 18.1 C 6.4 km/h
1356 12-07-2014 05:30:00 18.1 C 13.75 g/m*3 18.1 C 3.2 km/h
1357 12-07-2014 05:35:00 18.1 C 13.75 g/m*3 18.1 C 1.6 km/h
1358 12-07-2014 05:40:00 18.1 C 13.75 g/m*3 18.1 C 6.4 km/h
1359 12-07-2014 05:45:00 18.1 C 13.75 g/m*3 18.1 C 12.9 km/h
1360 12-07-2014 05:50:00 18.1 C 13.75 g/m*3 18.1 C 1.6 km/h
1361 12-07-2014 05:55:00 18.1 C 13.75 g/m*3 18.1 C 3.2 km/h
1362 12-07-2014 06:00:00 18.1 C 13.75 g/m*3 18.1 C 4.8 km/h
1363 12-07-2014 06:05:00 18.1 C 13.75 g/m*3 18.1 C 11.3 km/h
1364 12-07-2014 06:10:00 18.1 C 13.75 g/m*3 18.1 C 3.2 km/h
1365 12-07-2014 06:15:00 18.1 C 13.75 g/m*3 18.1 C 3.2 km/h
1366 12-07-2014 06:20:00 18.1 C 13.75 g/m*3 18.1 C 8.1 km/h
1367 12-07-2014 06:25:00 18.1 C 13.75 g/m*3 18.1 C 4.8 km/h
1368 12-07-2014 06:30:00 18.1 C 13.91 g/m*3 18.1 C 6.4 km/h
1369 12-07-2014 06:35:00 18 C 13.82 g/m*3 18 C 6.4 km/h
1370 12-07-2014 06:40:00 18 C 13.82 g/m*3 18 C 4.8 km/h
1371 12-07-2014 06:45:00 17.9 C 13.74 g/m*3 17.9 C 4.8 km/h
1372 12-07-2014 06:50:00 17.9 C 13.89 g/m*3 17.9 C 3.2 km/h
1373 12-07-2014 06:55:00 17.9 C 13.89 g/m*3 17.9 C 9.7 km/h
1374 12-07-2014 07:00:00 17.9 C 13.89 g/m*3 17.9 C 9.7 km/h
1375 12-07-2014 07:05:00 17.9 C 13.89 g/m*3 17.9 C 6.4 km/h
Sensor: Nr:Datum:Temp:Abs-Feuchte:Windchill:Wind:
Aussen-T/F 1376 12-07-2014 07:10:00 17.9 C 13.89 g/m*3 17.9 C 8.1 km/h
1377 12-07-2014 07:15:00 17.9 C 13.89 g/m*3 17.9 C 4.8 km/h
1378 12-07-2014 07:20:00 17.8 C 13.81 g/m*3 17.8 C 3.2 km/h
1379 12-07-2014 07:25:00 17.8 C 13.81 g/m*3 17.8 C 4.8 km/h
1380 12-07-2014 07:30:00 17.8 C 13.81 g/m*3 17.8 C 0 km/h
1381 12-07-2014 07:35:00 17.8 C 13.81 g/m*3 17.8 C 3.2 km/h
1382 12-07-2014 07:40:00 17.8 C 13.81 g/m*3 17.8 C 1.6 km/h
1383 12-07-2014 07:45:00 17.8 C 13.81 g/m*3 17.8 C 3.2 km/h
1384 12-07-2014 07:50:00 17.8 C 13.81 g/m*3 17.8 C 1.6 km/h
1385 12-07-2014 07:55:00 17.9 C 13.89 g/m*3 17.9 C 4.8 km/h
1386 12-07-2014 08:00:00 17.8 C 13.81 g/m*3 17.8 C 6.4 km/h
1387 12-07-2014 08:05:00 17.9 C 13.89 g/m*3 17.9 C 3.2 km/h
1388 12-07-2014 08:10:00 17.8 C 13.81 g/m*3 17.8 C 12.9 km/h
1389 12-07-2014 08:15:00 17.8 C 13.81 g/m*3 17.8 C 9.7 km/h
1390 12-07-2014 08:20:00 17.8 C 13.81 g/m*3 17.8 C 8.1 km/h
1391 12-07-2014 08:25:00 17.8 C 13.81 g/m*3 17.8 C 6.4 km/h
1392 12-07-2014 08:30:00 17.7 C 13.73 g/m*3 17.7 C 4.8 km/h
1393 12-07-2014 08:35:00 17.7 C 13.88 g/m*3 17.7 C 3.2 km/h
1394 12-07-2014 08:40:00 17.6 C 13.8 g/m*3 17.6 C 1.6 km/h
1395 12-07-2014 08:45:00 17.7 C 13.88 g/m*3 17.7 C 3.2 km/h
1396 12-07-2014 08:50:00 17.7 C 13.88 g/m*3 17.7 C 3.2 km/h
1397 12-07-2014 08:55:00 17.7 C 13.73 g/m*3 17.7 C 4.8 km/h
1398 12-07-2014 09:00:00 17.7 C 13.73 g/m*3 17.7 C 6.4 km/h
1399 12-07-2014 09:05:00 17.7 C 13.73 g/m*3 17.7 C 1.6 km/h
1400 12-07-2014 09:10:00 17.8 C 13.81 g/m*3 17.8 C 12.9 km/h
Sensor: Nr:Datum:Temp:Abs-Feuchte:Windchill:Wind:
Aussen-T/F 1401 12-07-2014 09:15:00 17.8 C 13.66 g/m*3 17.8 C 6.4 km/h
1402 12-07-2014 09:20:00 17.8 C 13.66 g/m*3 17.8 C 8.1 km/h
1403 12-07-2014 09:25:00 17.8 C 13.66 g/m*3 17.8 C 6.4 km/h
1404 12-07-2014 09:30:00 17.9 C 13.74 g/m*3 17.9 C 4.8 km/h
1405 12-07-2014 09:35:00 18 C 13.67 g/m*3 18 C 9.7 km/h
1406 12-07-2014 09:40:00 18 C 13.67 g/m*3 18 C 3.2 km/h
1407 12-07-2014 09:45:00 18 C 13.67 g/m*3 18 C 4.8 km/h
1408 12-07-2014 09:50:00 18 C 13.67 g/m*3 18 C 3.2 km/h
1409 12-07-2014 12:55:00 18.4 C 14.47 g/m*3 18.4 C 4.8 km/h
1410 12-07-2014 13:00:00 18.6 C 14.48 g/m*3 18.6 C 6.4 km/h
1411 12-07-2014 13:05:00 18.8 C 14.66 g/m*3 18.8 C 4.8 km/h
1412 12-07-2014 13:10:00 19 C 14.67 g/m*3 19 C 4.8 km/h
1413 12-07-2014 13:15:00 19.1 C 14.75 g/m*3 19.1 C 6.4 km/h
1414 12-07-2014 13:20:00 19.1 C 14.43 g/m*3 19.1 C 8.1 km/h
1415 12-07-2014 13:25:00 19.1 C 14.43 g/m*3 19.1 C 11.3 km/h
1416 12-07-2014 13:30:00 19 C 14.34 g/m*3 19 C 8.1 km/h
1417 12-07-2014 13:35:00 19.1 C 14.43 g/m*3 19.1 C 9.7 km/h
1418 12-07-2014 13:40:00 19.2 C 14.51 g/m*3 19.2 C 6.4 km/h
1419 12-07-2014 13:45:00 19.3 C 14.43 g/m*3 19.3 C 8.1 km/h
1420 12-07-2014 13:50:00 19.4 C 14.52 g/m*3 19.4 C 6.4 km/h
1421 12-07-2014 13:55:00 19.4 C 14.35 g/m*3 19.4 C 8.1 km/h
1422 12-07-2014 14:00:00 19.3 C 14.43 g/m*3 19.3 C 8.1 km/h
1423 12-07-2014 14:05:00 19.3 C 14.43 g/m*3 19.3 C 9.7 km/h
1424 12-07-2014 14:10:00 19.3 C 14.43 g/m*3 19.3 C 6.4 km/h
1425 12-07-2014 14:15:00 19.3 C 14.43 g/m*3 19.3 C 8.1 km/h
Sensor: Nr:Datum:Temp:Abs-Feuchte:Windchill:Wind:
Aussen-T/F 1426 12-07-2014 14:20:00 19.3 C 14.26 g/m*3 19.3 C 9.7 km/h
1427 12-07-2014 14:25:00 19.3 C 14.26 g/m*3 19.3 C 8.1 km/h
1428 12-07-2014 14:30:00 19.3 C 14.26 g/m*3 19.3 C 11.3 km/h
1429 12-07-2014 14:35:00 19.4 C 14.35 g/m*3 19.4 C 9.7 km/h
1430 12-07-2014 14:40:00 19.4 C 14.35 g/m*3 19.4 C 8.1 km/h
1431 12-07-2014 14:45:00 19.4 C 14.35 g/m*3 19.4 C 6.4 km/h
1432 12-07-2014 14:50:00 19.4 C 14.35 g/m*3 19.4 C 6.4 km/h
1433 12-07-2014 14:55:00 19.4 C 14.18 g/m*3 19.4 C 8.1 km/h
1434 12-07-2014 15:00:00 19.8 C 14.52 g/m*3 19.8 C 11.3 km/h
1435 12-07-2014 15:05:00 19.8 C 14.52 g/m*3 19.8 C 8.1 km/h
1436 12-07-2014 15:25:00 21 C 14.84 g/m*3 21 C 8.1 km/h
1437 12-07-2014 15:30:00 21 C 14.65 g/m*3 21 C 6.4 km/h
1438 12-07-2014 15:35:00 20.8 C 14.3 g/m*3 20.8 C 8.1 km/h
1439 12-07-2014 15:40:00 20.6 C 14.32 g/m*3 20.6 C 9.7 km/h
1440 12-07-2014 15:45:00 20.4 C 14.33 g/m*3 20.4 C 9.7 km/h
1441 12-07-2014 15:50:00 20.1 C 14.08 g/m*3 20.1 C 9.7 km/h
1442 12-07-2014 15:55:00 19.8 C 14.18 g/m*3 19.8 C 14.5 km/h
1443 12-07-2014 16:00:00 19.6 C 14.18 g/m*3 19.6 C 11.3 km/h
1444 12-07-2014 16:05:00 19.3 C 14.26 g/m*3 19.3 C 8.1 km/h
1445 12-07-2014 16:10:00 19.2 C 14.35 g/m*3 19.2 C 4.8 km/h
1446 12-07-2014 16:15:00 19.1 C 14.43 g/m*3 19.1 C 6.4 km/h
1447 12-07-2014 16:20:00 18.9 C 14.26 g/m*3 18.9 C 4.8 km/h
1448 12-07-2014 16:25:00 18.9 C 14.58 g/m*3 18.9 C 6.4 km/h
1449 12-07-2014 16:30:00 18.9 C 14.42 g/m*3 18.9 C 4.8 km/h
1450 12-07-2014 16:35:00 19 C 14.67 g/m*3 19 C 4.8 km/h
Sensor: Nr:Datum:Temp:Abs-Feuchte:Windchill:Wind:
Aussen-T/F 1451 12-07-2014 16:40:00 19.1 C 14.75 g/m*3 19.1 C 3.2 km/h
1452 12-07-2014 16:45:00 19.1 C 14.59 g/m*3 19.1 C 3.2 km/h
1453 12-07-2014 16:50:00 19.1 C 14.59 g/m*3 19.1 C 4.8 km/h
1454 12-07-2014 16:55:00 19.1 C 14.59 g/m*3 19.1 C 4.8 km/h
1455 12-07-2014 18:25:00 21.9 C 14.86 g/m*3 21.9 C 11.3 km/h
1456 12-07-2014 18:30:00 22 C 14.94 g/m*3 22 C 6.4 km/h
1457 12-07-2014 18:35:00 21.9 C 14.67 g/m*3 21.9 C 8.1 km/h
1458 12-07-2014 18:40:00 21.7 C 14.69 g/m*3 21.7 C 8.1 km/h
1459 12-07-2014 18:45:00 21.7 C 14.5 g/m*3 21.7 C 8.1 km/h
1460 12-07-2014 18:50:00 21.8 C 14.97 g/m*3 21.8 C 6.4 km/h
1461 12-07-2014 18:55:00 21.8 C 14.58 g/m*3 21.8 C 6.4 km/h
1462 12-07-2014 19:00:00 21.7 C 14.69 g/m*3 21.7 C 6.4 km/h
1463 12-07-2014 19:05:00 21.4 C 14.62 g/m*3 21.4 C 9.7 km/h
1464 12-07-2014 19:10:00 21.1 C 14.37 g/m*3 21.1 C 9.7 km/h
1465 12-07-2014 19:15:00 20.9 C 14.21 g/m*3 20.9 C 8.1 km/h
1466 12-07-2014 19:20:00 20.9 C 14.21 g/m*3 20.9 C 6.4 km/h
1467 12-07-2014 19:25:00 20.9 C 14.21 g/m*3 20.9 C 6.4 km/h
1468 12-07-2014 20:00:00 20.3 C 17.59 g/m*3 20.3 C 4.8 km/h
1469 12-07-2014 20:05:00 20.3 C 14.25 g/m*3 20.3 C 8.1 km/h
1470 12-07-2014 20:10:00 20.2 C 14.16 g/m*3 20.2 C 6.4 km/h
1471 12-07-2014 20:15:00 20.1 C 14.08 g/m*3 20.1 C 3.2 km/h
1472 12-07-2014 20:20:00 20 C 14 g/m*3 20 C 4.8 km/h
1473 12-07-2014 20:25:00 19.9 C 14.09 g/m*3 19.9 C 6.4 km/h
1474 12-07-2014 20:30:00 19.8 C 13.84 g/m*3 19.8 C 8.1 km/h
1475 12-07-2014 20:35:00 19.8 C 14.01 g/m*3 19.8 C 6.4 km/h
Sensor: Nr:Datum:Temp:Abs-Feuchte:Windchill:Wind:
Aussen-T/F 1476 12-07-2014 20:40:00 19.7 C 13.92 g/m*3 19.7 C 6.4 km/h
1477 12-07-2014 20:45:00 19.7 C 14.09 g/m*3 19.7 C 4.8 km/h
1478 12-07-2014 20:50:00 19.7 C 14.09 g/m*3 19.7 C 3.2 km/h
1479 12-07-2014 20:55:00 19.7 C 14.09 g/m*3 19.7 C 4.8 km/h
1480 12-07-2014 21:00:00 19.6 C 14.01 g/m*3 19.6 C 4.8 km/h
1481 12-07-2014 21:05:00 19.6 C 14.18 g/m*3 19.6 C 6.4 km/h
1482 12-07-2014 21:10:00 19.5 C 14.1 g/m*3 19.5 C 3.2 km/h
1483 12-07-2014 21:15:00 19.4 C 14.01 g/m*3 19.4 C 6.4 km/h
1484 12-07-2014 21:20:00 19.3 C 13.93 g/m*3 19.3 C 3.2 km/h
1485 12-07-2014 21:25:00 19.3 C 13.93 g/m*3 19.3 C 8.1 km/h
1486 12-07-2014 21:30:00 19.2 C 13.85 g/m*3 19.2 C 4.8 km/h
1487 12-07-2014 21:35:00 19.2 C 13.85 g/m*3 19.2 C 6.4 km/h
1488 12-07-2014 21:40:00 19.2 C 13.85 g/m*3 19.2 C 4.8 km/h
1489 12-07-2014 21:45:00 19.1 C 13.77 g/m*3 19.1 C 4.8 km/h
1490 12-07-2014 21:50:00 19.1 C 14.1 g/m*3 19.1 C 4.8 km/h
1491 12-07-2014 21:55:00 18.8 C 13.69 g/m*3 18.8 C 0 km/h
1492 12-07-2014 22:00:00 18.8 C 13.85 g/m*3 18.8 C 8.1 km/h
1493 12-07-2014 22:05:00 18.7 C 13.77 g/m*3 18.7 C 8.1 km/h
1494 12-07-2014 22:10:00 18.7 C 13.93 g/m*3 18.7 C 1.6 km/h
1495 12-07-2014 22:15:00 18.6 C 13.69 g/m*3 18.6 C 8.1 km/h
1496 12-07-2014 22:20:00 18.6 C 13.85 g/m*3 18.6 C 3.2 km/h
1497 12-07-2014 22:25:00 18.5 C 14.08 g/m*3 18.5 C 0 km/h
1498 12-07-2014 22:30:00 18.4 C 14 g/m*3 18.4 C 0 km/h
1499 12-07-2014 22:35:00 18.2 C 13.99 g/m*3 18.2 C 0 km/h
1500 12-07-2014 22:40:00 18.1 C 14.06 g/m*3 18.1 C 0 km/h
Sensor: Nr:Datum:Temp:Abs-Feuchte:Windchill:Wind:
Aussen-T/F 1501 12-07-2014 22:45:00 18 C 13.82 g/m*3 18 C 1.6 km/h
1502 12-07-2014 22:50:00 17.9 C 13.59 g/m*3 17.9 C 0 km/h
1503 12-07-2014 22:55:00 18 C 13.82 g/m*3 18 C 0 km/h
1504 12-07-2014 23:00:00 18 C 13.98 g/m*3 18 C 1.6 km/h
1505 12-07-2014 23:05:00 17.9 C 13.89 g/m*3 17.9 C 0 km/h
1506 12-07-2014 23:10:00 17.9 C 13.89 g/m*3 17.9 C 0 km/h
1507 12-07-2014 23:15:00 17.8 C 13.81 g/m*3 17.8 C 0 km/h
1508 12-07-2014 23:20:00 17.7 C 13.73 g/m*3 17.7 C 0 km/h
1509 12-07-2014 23:25:00 17.6 C 13.8 g/m*3 17.6 C 0 km/h
1510 12-07-2014 23:30:00 17.6 C 13.8 g/m*3 17.6 C 0 km/h
1511 12-07-2014 23:35:00 17.6 C 13.8 g/m*3 17.6 C 1.6 km/h
1512 12-07-2014 23:40:00 17.5 C 13.87 g/m*3 17.5 C 0 km/h
1513 12-07-2014 23:45:00 17.5 C 13.87 g/m*3 17.5 C 0 km/h
1514 12-07-2014 23:50:00 17.4 C 13.78 g/m*3 17.4 C 0 km/h
1515 12-07-2014 23:55:00 17.4 C 13.78 g/m*3 17.4 C 0 km/h
1516 13-07-2014 00:00:00 17.4 C 13.78 g/m*3 17.4 C 0 km/h
1517 13-07-2014 00:05:00 17.3 C 13.7 g/m*3 17.3 C 0 km/h
1518 13-07-2014 00:10:00 17.3 C 13.7 g/m*3 17.3 C 0 km/h
1519 13-07-2014 00:15:00 17.2 C 13.62 g/m*3 17.2 C 0 km/h
1520 13-07-2014 00:20:00 17.2 C 13.62 g/m*3 17.2 C 0 km/h
1521 13-07-2014 00:25:00 17.2 C 13.62 g/m*3 17.2 C 0 km/h
1522 13-07-2014 00:30:00 17.2 C 13.77 g/m*3 17.2 C 0 km/h
1523 13-07-2014 00:35:00 17.2 C 13.77 g/m*3 17.2 C 0 km/h
1524 13-07-2014 00:40:00 17.1 C 13.68 g/m*3 17.1 C 0 km/h
1525 13-07-2014 00:45:00 17.1 C 13.68 g/m*3 17.1 C 0 km/h
Sensor: Nr:Datum:Temp:Abs-Feuchte:Windchill:Wind:
Aussen-T/F 1526 13-07-2014 00:50:00 17.1 C 13.68 g/m*3 17.1 C 0 km/h
1527 13-07-2014 00:55:00 17.1 C 13.68 g/m*3 17.1 C 0 km/h
1528 13-07-2014 01:00:00 17.1 C 13.68 g/m*3 17.1 C 0 km/h
1529 13-07-2014 01:05:00 17 C 13.6 g/m*3 17 C 0 km/h
1530 13-07-2014 01:10:00 16.9 C 13.52 g/m*3 16.9 C 0 km/h
1531 13-07-2014 01:15:00 16.9 C 13.52 g/m*3 16.9 C 0 km/h
1532 13-07-2014 01:20:00 16.9 C 13.52 g/m*3 16.9 C 0 km/h
1533 13-07-2014 01:25:00 16.8 C 13.44 g/m*3 16.8 C 0 km/h
1534 13-07-2014 01:30:00 16.7 C 13.36 g/m*3 16.7 C 0 km/h
1535 13-07-2014 01:35:00 16.7 C 13.36 g/m*3 16.7 C 0 km/h
1536 13-07-2014 01:40:00 16.6 C 13.28 g/m*3 16.6 C 0 km/h
1537 13-07-2014 01:45:00 16.6 C 13.28 g/m*3 16.6 C 0 km/h
1538 13-07-2014 01:50:00 16.7 C 13.5 g/m*3 16.7 C 0 km/h
1539 13-07-2014 01:55:00 16.7 C 13.5 g/m*3 16.7 C 0 km/h
1540 13-07-2014 02:00:00 16.7 C 13.5 g/m*3 16.7 C 0 km/h
1541 13-07-2014 02:05:00 16.7 C 13.5 g/m*3 16.7 C 0 km/h
1542 13-07-2014 02:10:00 16.7 C 13.5 g/m*3 16.7 C 0 km/h
1543 13-07-2014 02:15:00 16.8 C 13.58 g/m*3 16.8 C 0 km/h
1544 13-07-2014 02:20:00 16.8 C 13.58 g/m*3 16.8 C 0 km/h
1545 13-07-2014 02:25:00 16.8 C 13.58 g/m*3 16.8 C 0 km/h
1546 13-07-2014 02:30:00 16.8 C 13.58 g/m*3 16.8 C 0 km/h
1547 13-07-2014 02:35:00 16.8 C 13.58 g/m*3 16.8 C 0 km/h
1548 13-07-2014 02:40:00 16.8 C 13.58 g/m*3 16.8 C 0 km/h
1549 13-07-2014 02:45:00 16.8 C 13.58 g/m*3 16.8 C 0 km/h
1550 13-07-2014 02:50:00 16.8 C 13.58 g/m*3 16.8 C 0 km/h
Sensor: Nr:Datum:Temp:Abs-Feuchte:Windchill:Wind:
Aussen-T/F 1551 13-07-2014 02:55:00 16.8 C 13.58 g/m*3 16.8 C 0 km/h
1552 13-07-2014 03:00:00 16.8 C 13.58 g/m*3 16.8 C 0 km/h
1553 13-07-2014 03:05:00 16.8 C 13.58 g/m*3 16.8 C 0 km/h
1554 13-07-2014 03:10:00 16.8 C 13.58 g/m*3 16.8 C 0 km/h
1555 13-07-2014 03:15:00 16.8 C 13.58 g/m*3 16.8 C 0 km/h
1556 13-07-2014 03:20:00 16.8 C 13.58 g/m*3 16.8 C 0 km/h
1557 13-07-2014 03:25:00 16.8 C 13.58 g/m*3 16.8 C 0 km/h
1558 13-07-2014 03:30:00 16.8 C 13.58 g/m*3 16.8 C 0 km/h
1559 13-07-2014 03:35:00 16.8 C 13.58 g/m*3 16.8 C 0 km/h
1560 13-07-2014 03:40:00 16.8 C 13.58 g/m*3 16.8 C 0 km/h
1561 13-07-2014 03:45:00 16.8 C 13.58 g/m*3 16.8 C 0 km/h
1562 13-07-2014 03:50:00 16.8 C 13.58 g/m*3 16.8 C 0 km/h
1563 13-07-2014 03:55:00 16.8 C 13.58 g/m*3 16.8 C 0 km/h
1564 13-07-2014 04:00:00 16.7 C 13.5 g/m*3 16.7 C 0 km/h
1565 13-07-2014 04:05:00 16.7 C 13.5 g/m*3 16.7 C 0 km/h
1566 13-07-2014 04:10:00 16.7 C 13.5 g/m*3 16.7 C 0 km/h
1567 13-07-2014 04:15:00 16.7 C 13.5 g/m*3 16.7 C 0 km/h
1568 13-07-2014 04:20:00 16.6 C 13.42 g/m*3 16.6 C 0 km/h
1569 13-07-2014 04:25:00 16.6 C 13.42 g/m*3 16.6 C 0 km/h
1570 13-07-2014 04:30:00 16.6 C 13.42 g/m*3 16.6 C 0 km/h
1571 13-07-2014 04:35:00 16.6 C 13.42 g/m*3 16.6 C 0 km/h
1572 13-07-2014 04:40:00 16.6 C 13.42 g/m*3 16.6 C 0 km/h
1573 13-07-2014 04:45:00 16.6 C 13.42 g/m*3 16.6 C 0 km/h
1574 13-07-2014 04:50:00 16.6 C 13.42 g/m*3 16.6 C 0 km/h
1575 13-07-2014 04:55:00 16.6 C 13.42 g/m*3 16.6 C 0 km/h
Sensor: Nr:Datum:Temp:Abs-Feuchte:Windchill:Wind:
Aussen-T/F 1576 13-07-2014 05:00:00 16.5 C 13.34 g/m*3 16.5 C 0 km/h
1577 13-07-2014 05:05:00 16.5 C 13.34 g/m*3 16.5 C 0 km/h
1578 13-07-2014 05:10:00 16.5 C 13.34 g/m*3 16.5 C 0 km/h
1579 13-07-2014 05:15:00 16.6 C 13.42 g/m*3 16.6 C 0 km/h
1580 13-07-2014 05:20:00 16.6 C 13.42 g/m*3 16.6 C 0 km/h
1581 13-07-2014 05:25:00 16.6 C 13.42 g/m*3 16.6 C 0 km/h
1582 13-07-2014 05:30:00 16.6 C 13.42 g/m*3 16.6 C 0 km/h
1583 13-07-2014 05:35:00 16.5 C 13.34 g/m*3 16.5 C 0 km/h
1584 13-07-2014 05:40:00 16.5 C 13.2 g/m*3 16.5 C 0 km/h
1585 13-07-2014 05:45:00 16.6 C 13.42 g/m*3 16.6 C 0 km/h
1586 13-07-2014 05:50:00 16.6 C 13.28 g/m*3 16.6 C 0 km/h
1587 13-07-2014 05:55:00 16.6 C 13.28 g/m*3 16.6 C 0 km/h
1588 13-07-2014 06:00:00 16.6 C 13.28 g/m*3 16.6 C 1.6 km/h
1589 13-07-2014 06:05:00 16.6 C 13.28 g/m*3 16.6 C 0 km/h
1590 13-07-2014 06:10:00 16.7 C 13.22 g/m*3 16.7 C 3.2 km/h
1591 13-07-2014 06:15:00 16.8 C 13.15 g/m*3 16.8 C 6.4 km/h
1592 13-07-2014 06:20:00 16.9 C 13.23 g/m*3 16.9 C 3.2 km/h
1593 13-07-2014 06:25:00 17 C 13.31 g/m*3 17 C 3.2 km/h
1594 13-07-2014 06:30:00 17 C 13.17 g/m*3 17 C 0 km/h
1595 13-07-2014 06:35:00 17 C 13.17 g/m*3 17 C 0 km/h
1596 13-07-2014 06:40:00 17 C 13.02 g/m*3 17 C 0 km/h
1597 13-07-2014 06:45:00 17.1 C 13.1 g/m*3 17.1 C 8.1 km/h
1598 13-07-2014 06:50:00 17.1 C 13.1 g/m*3 17.1 C 1.6 km/h
1599 13-07-2014 06:55:00 17 C 13.17 g/m*3 17 C 3.2 km/h
1600 13-07-2014 07:00:00 16.8 C 13.15 g/m*3 16.8 C 1.6 km/h
Sensor: Nr:Datum:Temp:Abs-Feuchte:Windchill:Wind:
Aussen-T/F 1601 13-07-2014 07:05:00 16.8 C 13.15 g/m*3 16.8 C 0 km/h
1602 13-07-2014 07:40:00 16.2 C 13.1 g/m*3 16.2 C 3.2 km/h
1603 13-07-2014 07:45:00 16.2 C 13.1 g/m*3 16.2 C 1.6 km/h
1604 13-07-2014 07:50:00 16.2 C 13.1 g/m*3 16.2 C 1.6 km/h
1605 13-07-2014 07:55:00 16.2 C 13.1 g/m*3 16.2 C 1.6 km/h
1606 13-07-2014 09:40:00 17.3 C 13.7 g/m*3 17.3 C 9.7 km/h
1607 13-07-2014 09:45:00 17.5 C 13.87 g/m*3 17.5 C 8.1 km/h
1608 13-07-2014 09:50:00 17.6 C 13.8 g/m*3 17.6 C 9.7 km/h
1609 13-07-2014 09:55:00 17.7 C 13.88 g/m*3 17.7 C 8.1 km/h
1610 13-07-2014 10:00:00 17.8 C 13.96 g/m*3 17.8 C 9.7 km/h
1611 13-07-2014 10:05:00 17.8 C 13.66 g/m*3 17.8 C 8.1 km/h
1612 13-07-2014 10:10:00 17.8 C 13.81 g/m*3 17.8 C 6.4 km/h
1613 13-07-2014 10:15:00 17.7 C 13.73 g/m*3 17.7 C 8.1 km/h
1614 13-07-2014 10:20:00 17.7 C 13.73 g/m*3 17.7 C 9.7 km/h
1615 13-07-2014 10:25:00 17.7 C 13.73 g/m*3 17.7 C 12.9 km/h
1616 13-07-2014 10:30:00 17.6 C 13.65 g/m*3 17.6 C 6.4 km/h
1617 13-07-2014 10:35:00 17.6 C 13.65 g/m*3 17.6 C 8.1 km/h
1618 13-07-2014 10:40:00 17.7 C 13.73 g/m*3 17.7 C 11.3 km/h
1619 13-07-2014 10:45:00 17.7 C 13.88 g/m*3 17.7 C 6.4 km/h
1620 13-07-2014 10:50:00 17.7 C 13.73 g/m*3 17.7 C 4.8 km/h
1621 13-07-2014 10:55:00 17.7 C 13.73 g/m*3 17.7 C 6.4 km/h
1622 13-07-2014 11:00:00 18.1 C 14.06 g/m*3 18.1 C 6.4 km/h
1623 13-07-2014 11:05:00 18.2 C 14.14 g/m*3 18.2 C 8.1 km/h
1624 13-07-2014 11:10:00 18.2 C 13.99 g/m*3 18.2 C 4.8 km/h
1625 13-07-2014 11:15:00 18.3 C 14.07 g/m*3 18.3 C 4.8 km/h
Sensor: Nr:Datum:Temp:Abs-Feuchte:Windchill:Wind:
Aussen-T/F 1626 13-07-2014 11:20:00 18.3 C 14.07 g/m*3 18.3 C 3.2 km/h
1627 13-07-2014 11:25:00 18.5 C 14.08 g/m*3 18.5 C 0 km/h
1628 13-07-2014 11:30:00 18.5 C 14.08 g/m*3 18.5 C 4.8 km/h
1629 13-07-2014 11:35:00 18.5 C 14.08 g/m*3 18.5 C 4.8 km/h
1630 13-07-2014 11:40:00 18.9 C 14.26 g/m*3 18.9 C 6.4 km/h
1631 13-07-2014 11:45:00 19.2 C 14.35 g/m*3 19.2 C 6.4 km/h
1632 13-07-2014 11:50:00 19.4 C 14.52 g/m*3 19.4 C 11.3 km/h
1633 13-07-2014 11:55:00 19.6 C 14.35 g/m*3 19.6 C 8.1 km/h
1634 13-07-2014 12:00:00 19.6 C 14.35 g/m*3 19.6 C 9.7 km/h
1635 13-07-2014 12:05:00 19.7 C 14.09 g/m*3 19.7 C 9.7 km/h
1636 13-07-2014 12:10:00 19.9 C 14.26 g/m*3 19.9 C 9.7 km/h
1637 13-07-2014 12:15:00 20.2 C 14.51 g/m*3 20.2 C 9.7 km/h
1638 13-07-2014 12:20:00 20.2 C 14.34 g/m*3 20.2 C 14.5 km/h
1639 13-07-2014 12:25:00 20.4 C 14.33 g/m*3 20.4 C 12.9 km/h
1640 13-07-2014 12:30:00 20.6 C 14.32 g/m*3 20.6 C 8.1 km/h
1641 13-07-2014 12:35:00 20.8 C 14.12 g/m*3 20.8 C 14.5 km/h
1642 13-07-2014 12:40:00 20.9 C 14.02 g/m*3 20.9 C 8.1 km/h
1643 13-07-2014 12:45:00 20.9 C 14.21 g/m*3 20.9 C 11.3 km/h
1644 13-07-2014 12:50:00 20.9 C 14.21 g/m*3 20.9 C 12.9 km/h
1645 13-07-2014 12:55:00 20.9 C 14.39 g/m*3 20.9 C 8.1 km/h
1646 13-07-2014 13:00:00 20.8 C 14.12 g/m*3 20.8 C 9.7 km/h
1647 13-07-2014 13:05:00 20.9 C 14.39 g/m*3 20.9 C 11.3 km/h
1648 13-07-2014 13:10:00 20.8 C 14.3 g/m*3 20.8 C 4.8 km/h
1649 13-07-2014 13:15:00 20.8 C 14.12 g/m*3 20.8 C 8.1 km/h
1650 13-07-2014 13:20:00 20.7 C 14.04 g/m*3 20.7 C 14.5 km/h
Sensor: Nr:Datum:Temp:Abs-Feuchte:Windchill:Wind:
Aussen-T/F 1651 13-07-2014 13:25:00 20.7 C 14.22 g/m*3 20.7 C 4.8 km/h
1652 13-07-2014 13:30:00 20.8 C 14.12 g/m*3 20.8 C 11.3 km/h
1653 13-07-2014 13:35:00 21 C 14.11 g/m*3 21 C 14.5 km/h
1654 13-07-2014 13:40:00 21.4 C 14.44 g/m*3 21.4 C 12.9 km/h
1655 13-07-2014 13:45:00 21.7 C 14.12 g/m*3 21.7 C 14.5 km/h
1656 13-07-2014 13:50:00 21.8 C 14.2 g/m*3 21.8 C 14.5 km/h
1657 13-07-2014 13:55:00 21.9 C 14.47 g/m*3 21.9 C 12.9 km/h
1658 13-07-2014 14:00:00 22.1 C 14.25 g/m*3 22.1 C 19.3 km/h
1659 13-07-2014 14:05:00 21.9 C 14.28 g/m*3 21.9 C 19.3 km/h
1660 13-07-2014 14:10:00 21.9 C 14.47 g/m*3 21.9 C 12.9 km/h
1661 13-07-2014 14:15:00 22.1 C 14.45 g/m*3 22.1 C 11.3 km/h
1662 13-07-2014 14:20:00 22.4 C 14.5 g/m*3 22.4 C 14.5 km/h
1663 13-07-2014 14:25:00 22.8 C 14.43 g/m*3 22.8 C 9.7 km/h
1664 13-07-2014 14:30:00 22.8 C 14.02 g/m*3 22.8 C 16.1 km/h
1665 13-07-2014 14:35:00 23.1 C 14.47 g/m*3 23.1 C 22.5 km/h
1666 13-07-2014 14:40:00 22.9 C 14.1 g/m*3 22.9 C 17.7 km/h
1667 13-07-2014 14:45:00 22.7 C 14.14 g/m*3 22.7 C 22.5 km/h
1668 13-07-2014 14:50:00 22.7 C 13.94 g/m*3 22.7 C 17.7 km/h
1669 13-07-2014 14:55:00 22.8 C 13.61 g/m*3 22.8 C 25.7 km/h
1670 13-07-2014 15:00:00 22.9 C 14.1 g/m*3 22.9 C 25.7 km/h
1671 13-07-2014 15:05:00 23.3 C 13.8 g/m*3 23.3 C 12.9 km/h
1672 13-07-2014 15:10:00 23.2 C 13.72 g/m*3 23.2 C 11.3 km/h
1673 13-07-2014 15:15:00 23 C 13.77 g/m*3 23 C 11.3 km/h
1674 13-07-2014 15:20:00 22.7 C 13.54 g/m*3 22.7 C 8.1 km/h
1675 13-07-2014 15:25:00 22.3 C 13.43 g/m*3 22.3 C 9.7 km/h
Sensor: Nr:Datum:Temp:Abs-Feuchte:Windchill:Wind:
Aussen-T/F 1676 13-07-2014 15:30:00 22.1 C 13.47 g/m*3 22.1 C 8.1 km/h
1677 13-07-2014 15:35:00 22 C 13.59 g/m*3 22 C 6.4 km/h
1678 13-07-2014 15:40:00 22 C 13.59 g/m*3 22 C 4.8 km/h
1679 13-07-2014 15:45:00 22 C 14.17 g/m*3 22 C 3.2 km/h
1680 13-07-2014 15:50:00 21.9 C 14.67 g/m*3 21.9 C 4.8 km/h
1681 13-07-2014 15:55:00 21.8 C 14.39 g/m*3 21.8 C 3.2 km/h
1682 13-07-2014 16:00:00 21.6 C 14.6 g/m*3 21.6 C 1.6 km/h
1683 13-07-2014 16:05:00 21.5 C 15.09 g/m*3 21.5 C 0 km/h
1684 13-07-2014 16:10:00 21.3 C 15.1 g/m*3 21.3 C 1.6 km/h
1685 13-07-2014 16:15:00 21.1 C 14.92 g/m*3 21.1 C 1.6 km/h
1686 13-07-2014 16:20:00 21.4 C 14.81 g/m*3 21.4 C 4.8 km/h
1687 13-07-2014 16:25:00 21.6 C 14.98 g/m*3 21.6 C 4.8 km/h
1688 13-07-2014 16:30:00 21.6 C 14.79 g/m*3 21.6 C 6.4 km/h
1689 13-07-2014 16:35:00 21.4 C 14.81 g/m*3 21.4 C 1.6 km/h
1690 13-07-2014 16:40:00 21.3 C 15.1 g/m*3 21.3 C 3.2 km/h
1691 13-07-2014 16:45:00 21.1 C 15.29 g/m*3 21.1 C 8.1 km/h
1692 13-07-2014 16:50:00 20.7 C 15.12 g/m*3 20.7 C 8.1 km/h
1693 13-07-2014 16:55:00 20.5 C 14.95 g/m*3 20.5 C 0 km/h
1694 13-07-2014 17:00:00 20.5 C 14.95 g/m*3 20.5 C 0 km/h
1695 13-07-2014 17:05:00 20.5 C 14.95 g/m*3 20.5 C 0 km/h
1696 13-07-2014 17:10:00 21.1 C 15.48 g/m*3 21.1 C 3.2 km/h
1697 13-07-2014 17:15:00 21.1 C 15.48 g/m*3 21.1 C 1.6 km/h
1698 13-07-2014 17:20:00 21.1 C 15.48 g/m*3 21.1 C 1.6 km/h
1699 13-07-2014 17:40:00 22.9 C 15.12 g/m*3 22.9 C 6.4 km/h
1700 13-07-2014 17:45:00 23.3 C 14.84 g/m*3 23.3 C 9.7 km/h
Sensor: Nr:Datum:Temp:Abs-Feuchte:Windchill:Wind:
Aussen-T/F 1701 13-07-2014 17:50:00 23.8 C 14.84 g/m*3 23.8 C 12.9 km/h
1702 13-07-2014 17:55:00 23.7 C 14.12 g/m*3 23.7 C 9.7 km/h
1703 13-07-2014 18:00:00 23.3 C 14.01 g/m*3 23.3 C 11.3 km/h
1704 13-07-2014 18:05:00 22.8 C 14.63 g/m*3 22.8 C 11.3 km/h
1705 13-07-2014 18:10:00 22.6 C 14.66 g/m*3 22.6 C 8.1 km/h
1706 13-07-2014 18:15:00 22.7 C 14.55 g/m*3 22.7 C 12.9 km/h
1707 13-07-2014 18:20:00 22.7 C 14.34 g/m*3 22.7 C 16.1 km/h
1708 13-07-2014 18:25:00 22.7 C 14.55 g/m*3 22.7 C 16.1 km/h
1709 13-07-2014 18:30:00 22.4 C 14.5 g/m*3 22.4 C 16.1 km/h
1710 13-07-2014 18:35:00 22.3 C 14.61 g/m*3 22.3 C 14.5 km/h
1711 13-07-2014 18:40:00 22.2 C 14.53 g/m*3 22.2 C 16.1 km/h
1712 13-07-2014 18:45:00 22.2 C 14.53 g/m*3 22.2 C 14.5 km/h
1713 13-07-2014 18:50:00 22.2 C 14.33 g/m*3 22.2 C 16.1 km/h
1714 13-07-2014 18:55:00 22 C 14.56 g/m*3 22 C 14.5 km/h
1715 13-07-2014 19:00:00 21.7 C 14.5 g/m*3 21.7 C 16.1 km/h
1716 13-07-2014 19:05:00 21.3 C 14.35 g/m*3 21.3 C 14.5 km/h
1717 13-07-2014 19:10:00 20.9 C 14.21 g/m*3 20.9 C 12.9 km/h
1718 13-07-2014 19:15:00 20.7 C 14.22 g/m*3 20.7 C 17.7 km/h
1719 13-07-2014 19:20:00 20.6 C 14.32 g/m*3 20.6 C 11.3 km/h
1720 13-07-2014 19:25:00 20.6 C 14.32 g/m*3 20.6 C 8.1 km/h
1721 13-07-2014 19:30:00 20.6 C 14.5 g/m*3 20.6 C 9.7 km/h
1722 13-07-2014 19:35:00 20.6 C 14.32 g/m*3 20.6 C 9.7 km/h
1723 13-07-2014 19:40:00 20.4 C 14.15 g/m*3 20.4 C 8.1 km/h
1724 13-07-2014 19:45:00 20.2 C 13.99 g/m*3 20.2 C 12.9 km/h
1725 13-07-2014 19:50:00 20.1 C 14.08 g/m*3 20.1 C 12.9 km/h
Sensor: Nr:Datum:Temp:Abs-Feuchte:Windchill:Wind:
Aussen-T/F 1726 13-07-2014 19:55:00 19.9 C 14.09 g/m*3 19.9 C 6.4 km/h
1727 13-07-2014 20:00:00 19.9 C 14.09 g/m*3 19.9 C 9.7 km/h
1728 13-07-2014 20:05:00 19.8 C 14.01 g/m*3 19.8 C 8.1 km/h
1729 13-07-2014 20:10:00 19.8 C 14.01 g/m*3 19.8 C 6.4 km/h
1730 13-07-2014 20:15:00 19.7 C 13.92 g/m*3 19.7 C 6.4 km/h
1731 13-07-2014 20:20:00 19.7 C 14.09 g/m*3 19.7 C 6.4 km/h
1732 13-07-2014 20:25:00 19.7 C 14.09 g/m*3 19.7 C 12.9 km/h
1733 13-07-2014 20:30:00 19.7 C 14.09 g/m*3 19.7 C 11.3 km/h
1734 13-07-2014 20:35:00 19.6 C 14.01 g/m*3 19.6 C 8.1 km/h
1735 13-07-2014 20:40:00 19.7 C 14.26 g/m*3 19.7 C 12.9 km/h
1736 13-07-2014 20:45:00 19.7 C 14.09 g/m*3 19.7 C 9.7 km/h
1737 13-07-2014 20:50:00 19.7 C 14.09 g/m*3 19.7 C 14.5 km/h
1738 13-07-2014 20:55:00 19.6 C 14.01 g/m*3 19.6 C 11.3 km/h
1739 13-07-2014 21:00:00 19.6 C 14.18 g/m*3 19.6 C 3.2 km/h
1740 13-07-2014 21:05:00 19.4 C 14.01 g/m*3 19.4 C 6.4 km/h
1741 13-07-2014 21:10:00 19.3 C 14.1 g/m*3 19.3 C 4.8 km/h
1742 13-07-2014 21:15:00 19.2 C 14.02 g/m*3 19.2 C 12.9 km/h
1743 13-07-2014 21:20:00 19.1 C 13.93 g/m*3 19.1 C 12.9 km/h
1744 13-07-2014 21:25:00 19.1 C 13.93 g/m*3 19.1 C 6.4 km/h
1745 13-07-2014 21:30:00 19 C 14.01 g/m*3 19 C 8.1 km/h
1746 13-07-2014 21:35:00 18.9 C 13.93 g/m*3 18.9 C 6.4 km/h
1747 13-07-2014 21:40:00 18.9 C 13.93 g/m*3 18.9 C 6.4 km/h
1748 13-07-2014 22:05:00 18.7 C 13.77 g/m*3 18.7 C 12.9 km/h
1749 13-07-2014 22:10:00 18.6 C 13.69 g/m*3 18.6 C 4.8 km/h
1750 13-07-2014 22:15:00 18.6 C 13.85 g/m*3 18.6 C 11.3 km/h
Sensor: Nr:Datum:Temp:Abs-Feuchte:Windchill:Wind:
Aussen-T/F 1751 13-07-2014 22:20:00 18.5 C 13.77 g/m*3 18.5 C 3.2 km/h
1752 13-07-2014 22:25:00 18.4 C 13.68 g/m*3 18.4 C 3.2 km/h
1753 13-07-2014 22:30:00 18.4 C 13.68 g/m*3 18.4 C 4.8 km/h
1754 13-07-2014 22:35:00 18.5 C 13.77 g/m*3 18.5 C 3.2 km/h
1755 13-07-2014 22:40:00 18.6 C 13.85 g/m*3 18.6 C 3.2 km/h
1756 13-07-2014 22:45:00 18.6 C 13.69 g/m*3 18.6 C 6.4 km/h
1757 13-07-2014 22:50:00 18.7 C 13.77 g/m*3 18.7 C 6.4 km/h
1758 13-07-2014 22:55:00 18.7 C 13.77 g/m*3 18.7 C 9.7 km/h
1759 13-07-2014 23:00:00 18.7 C 13.77 g/m*3 18.7 C 3.2 km/h
1760 13-07-2014 23:05:00 18.7 C 13.77 g/m*3 18.7 C 6.4 km/h
1761 13-07-2014 23:10:00 18.7 C 13.93 g/m*3 18.7 C 3.2 km/h
1762 13-07-2014 23:15:00 18.7 C 13.77 g/m*3 18.7 C 4.8 km/h
1763 13-07-2014 23:20:00 18.7 C 13.93 g/m*3 18.7 C 11.3 km/h
1764 13-07-2014 23:25:00 18.7 C 13.77 g/m*3 18.7 C 4.8 km/h
1765 13-07-2014 23:30:00 18.7 C 13.93 g/m*3 18.7 C 8.1 km/h
1766 13-07-2014 23:35:00 18.7 C 13.93 g/m*3 18.7 C 12.9 km/h
1767 13-07-2014 23:40:00 18.6 C 13.85 g/m*3 18.6 C 4.8 km/h
1768 13-07-2014 23:45:00 18.7 C 13.93 g/m*3 18.7 C 9.7 km/h
1769 13-07-2014 23:50:00 18.6 C 13.85 g/m*3 18.6 C 4.8 km/h
1770 13-07-2014 23:55:00 18.6 C 13.85 g/m*3 18.6 C 8.1 km/h
1771 14-07-2014 00:00:00 18.6 C 13.85 g/m*3 18.6 C 6.4 km/h
1772 14-07-2014 00:05:00 18.6 C 13.85 g/m*3 18.6 C 8.1 km/h
1773 14-07-2014 00:10:00 18.6 C 13.85 g/m*3 18.6 C 3.2 km/h
1774 14-07-2014 00:15:00 18.6 C 13.85 g/m*3 18.6 C 3.2 km/h
1775 14-07-2014 00:20:00 18.4 C 13.84 g/m*3 18.4 C 4.8 km/h
Sensor: Nr:Datum:Temp:Abs-Feuchte:Windchill:Wind:
Aussen-T/F 1776 14-07-2014 00:25:00 18.3 C 13.76 g/m*3 18.3 C 11.3 km/h
1777 14-07-2014 00:30:00 18.3 C 13.76 g/m*3 18.3 C 1.6 km/h
1778 14-07-2014 00:35:00 18.3 C 13.76 g/m*3 18.3 C 1.6 km/h
1779 14-07-2014 00:40:00 18.1 C 13.75 g/m*3 18.1 C 1.6 km/h
1780 14-07-2014 00:45:00 18.1 C 13.75 g/m*3 18.1 C 3.2 km/h
1781 14-07-2014 00:50:00 17.9 C 13.59 g/m*3 17.9 C 3.2 km/h
1782 14-07-2014 00:55:00 17.9 C 13.59 g/m*3 17.9 C 1.6 km/h
1783 14-07-2014 01:50:00 17.4 C 13.63 g/m*3 17.4 C 3.2 km/h
1784 14-07-2014 01:55:00 17.4 C 13.63 g/m*3 17.4 C 1.6 km/h
1785 14-07-2014 02:00:00 17.5 C 13.72 g/m*3 17.5 C 4.8 km/h
1786 14-07-2014 02:05:00 17.6 C 13.8 g/m*3 17.6 C 4.8 km/h
1787 14-07-2014 02:10:00 17.6 C 13.8 g/m*3 17.6 C 3.2 km/h
1788 14-07-2014 02:15:00 17.6 C 13.8 g/m*3 17.6 C 4.8 km/h
1789 14-07-2014 02:20:00 17.6 C 13.8 g/m*3 17.6 C 3.2 km/h
1790 14-07-2014 02:25:00 17.6 C 13.8 g/m*3 17.6 C 3.2 km/h
1791 14-07-2014 02:30:00 17.6 C 13.8 g/m*3 17.6 C 3.2 km/h
1792 14-07-2014 02:35:00 17.6 C 13.8 g/m*3 17.6 C 1.6 km/h
1793 14-07-2014 02:40:00 17.7 C 13.88 g/m*3 17.7 C 3.2 km/h
1794 14-07-2014 02:45:00 17.7 C 13.73 g/m*3 17.7 C 4.8 km/h
1795 14-07-2014 02:50:00 17.7 C 13.73 g/m*3 17.7 C 3.2 km/h
1796 14-07-2014 02:55:00 17.7 C 13.73 g/m*3 17.7 C 4.8 km/h
1797 14-07-2014 03:00:00 17.7 C 13.73 g/m*3 17.7 C 0 km/h
1798 14-07-2014 03:35:00 17.7 C 15.09 g/m*3 17.7 C 9.7 km/h
1799 14-07-2014 03:40:00 17.7 C 13.58 g/m*3 17.7 C 1.6 km/h
1800 14-07-2014 03:45:00 17.7 C 13.58 g/m*3 17.7 C 6.4 km/h
Sensor: Nr:Datum:Temp:Abs-Feuchte:Windchill:Wind:
Aussen-T/F 1801 14-07-2014 03:50:00 17.8 C 13.66 g/m*3 17.8 C 6.4 km/h
1802 14-07-2014 03:55:00 17.8 C 13.66 g/m*3 17.8 C 3.2 km/h
1803 14-07-2014 04:00:00 17.8 C 13.66 g/m*3 17.8 C 3.2 km/h
1804 14-07-2014 04:05:00 17.7 C 13.58 g/m*3 17.7 C 3.2 km/h
1805 14-07-2014 04:10:00 17.7 C 13.58 g/m*3 17.7 C 1.6 km/h
1806 14-07-2014 04:15:00 17.7 C 13.58 g/m*3 17.7 C 1.6 km/h
1807 14-07-2014 04:20:00 17.6 C 13.5 g/m*3 17.6 C 1.6 km/h
1808 14-07-2014 04:25:00 17.6 C 13.5 g/m*3 17.6 C 1.6 km/h
1809 14-07-2014 04:30:00 17.6 C 13.5 g/m*3 17.6 C 1.6 km/h
1810 14-07-2014 06:40:00 15.1 C 11.74 g/m*3 15.1 C 0 km/h
1811 14-07-2014 06:45:00 15.1 C 11.74 g/m*3 15.1 C 0 km/h
1812 14-07-2014 06:50:00 14.9 C 11.73 g/m*3 14.9 C 0 km/h
1813 14-07-2014 06:55:00 14.9 C 11.73 g/m*3 14.9 C 0 km/h
1814 14-07-2014 07:00:00 14.9 C 11.85 g/m*3 14.9 C 0 km/h
1815 14-07-2014 07:05:00 14.9 C 11.85 g/m*3 14.9 C 0 km/h
1816 14-07-2014 07:10:00 15 C 12.05 g/m*3 15 C 1.6 km/h
1817 14-07-2014 07:15:00 15.1 C 12.13 g/m*3 15.1 C 0 km/h
1818 14-07-2014 07:20:00 15.2 C 12.2 g/m*3 15.2 C 0 km/h
1819 14-07-2014 07:25:00 15.3 C 12.28 g/m*3 15.3 C 1.6 km/h
1820 14-07-2014 07:30:00 15.5 C 12.29 g/m*3 15.5 C 6.4 km/h
1821 14-07-2014 07:35:00 15.7 C 12.31 g/m*3 15.7 C 4.8 km/h
1822 14-07-2014 07:40:00 16 C 12.4 g/m*3 16 C 1.6 km/h
1823 14-07-2014 07:45:00 16.2 C 12.41 g/m*3 16.2 C 1.6 km/h
1824 14-07-2014 07:50:00 16.3 C 12.35 g/m*3 16.3 C 4.8 km/h
1825 14-07-2014 07:55:00 16.4 C 12.42 g/m*3 16.4 C 1.6 km/h
Sensor: Nr:Datum:Temp:Abs-Feuchte:Windchill:Wind:
Aussen-T/F 1826 14-07-2014 08:00:00 16.6 C 12.43 g/m*3 16.6 C 4.8 km/h
1827 14-07-2014 08:05:00 16.8 C 12.3 g/m*3 16.8 C 6.4 km/h
1828 14-07-2014 08:10:00 17.1 C 12.52 g/m*3 17.1 C 1.6 km/h
1829 14-07-2014 08:15:00 17.3 C 12.52 g/m*3 17.3 C 4.8 km/h
1830 14-07-2014 08:20:00 17.4 C 12.3 g/m*3 17.4 C 6.4 km/h
1831 14-07-2014 08:25:00 17.6 C 12.45 g/m*3 17.6 C 8.1 km/h
1832 14-07-2014 08:30:00 17.6 C 12.45 g/m*3 17.6 C 1.6 km/h
1833 14-07-2014 08:35:00 17.7 C 12.22 g/m*3 17.7 C 3.2 km/h
1834 14-07-2014 08:40:00 17.8 C 12.14 g/m*3 17.8 C 6.4 km/h
1835 14-07-2014 08:45:00 17.9 C 12.21 g/m*3 17.9 C 9.7 km/h
1836 14-07-2014 08:50:00 18 C 12.13 g/m*3 18 C 6.4 km/h
1837 14-07-2014 08:55:00 18.2 C 12.12 g/m*3 18.2 C 8.1 km/h
1838 14-07-2014 09:00:00 18.2 C 12.12 g/m*3 18.2 C 8.1 km/h
1839 14-07-2014 09:05:00 18.3 C 12.2 g/m*3 18.3 C 11.3 km/h
1840 14-07-2014 09:10:00 18.4 C 12.11 g/m*3 18.4 C 9.7 km/h
1841 14-07-2014 09:15:00 18.4 C 12.11 g/m*3 18.4 C 8.1 km/h
1842 14-07-2014 09:20:00 18.4 C 11.95 g/m*3 18.4 C 11.3 km/h
1843 14-07-2014 09:25:00 18.3 C 12.04 g/m*3 18.3 C 6.4 km/h
1844 14-07-2014 09:30:00 18.3 C 12.04 g/m*3 18.3 C 3.2 km/h
1845 14-07-2014 09:35:00 18.3 C 12.04 g/m*3 18.3 C 8.1 km/h
1846 14-07-2014 09:40:00 18.4 C 12.27 g/m*3 18.4 C 11.3 km/h
1847 14-07-2014 09:45:00 18.5 C 12.02 g/m*3 18.5 C 14.5 km/h
1848 14-07-2014 09:50:00 18.7 C 12.33 g/m*3 18.7 C 9.7 km/h
1849 14-07-2014 09:55:00 18.8 C 12.4 g/m*3 18.8 C 8.1 km/h
1850 14-07-2014 10:00:00 19.1 C 12.46 g/m*3 19.1 C 11.3 km/h
Sensor: Nr:Datum:Temp:Abs-Feuchte:Windchill:Wind:
Aussen-T/F 1851 14-07-2014 10:05:00 19.3 C 12.27 g/m*3 19.3 C 12.9 km/h
1852 14-07-2014 10:10:00 19.5 C 12.42 g/m*3 19.5 C 4.8 km/h
1853 14-07-2014 10:15:00 19.7 C 12.57 g/m*3 19.7 C 14.5 km/h
1854 14-07-2014 10:20:00 20 C 12.62 g/m*3 20 C 9.7 km/h
1855 14-07-2014 10:25:00 20.2 C 12.59 g/m*3 20.2 C 9.7 km/h
1856 14-07-2014 10:30:00 20.4 C 12.74 g/m*3 20.4 C 16.1 km/h
1857 14-07-2014 10:35:00 20.6 C 12.53 g/m*3 20.6 C 9.7 km/h
1858 14-07-2014 10:40:00 20.6 C 12.71 g/m*3 20.6 C 12.9 km/h
1859 14-07-2014 10:45:00 20.6 C 12.71 g/m*3 20.6 C 8.1 km/h
1860 14-07-2014 10:50:00 20.7 C 12.6 g/m*3 20.7 C 8.1 km/h
1861 14-07-2014 10:55:00 20.7 C 12.6 g/m*3 20.7 C 11.3 km/h
1862 14-07-2014 11:00:00 20.8 C 12.86 g/m*3 20.8 C 6.4 km/h
1863 14-07-2014 11:05:00 20.7 C 12.78 g/m*3 20.7 C 6.4 km/h
1864 14-07-2014 11:10:00 20.5 C 12.63 g/m*3 20.5 C 1.6 km/h
1865 14-07-2014 11:15:00 20.5 C 12.63 g/m*3 20.5 C 8.1 km/h
1866 14-07-2014 11:20:00 20.5 C 12.81 g/m*3 20.5 C 6.4 km/h
1867 14-07-2014 11:25:00 20.6 C 12.89 g/m*3 20.6 C 4.8 km/h
1868 14-07-2014 11:30:00 20.6 C 12.89 g/m*3 20.6 C 4.8 km/h
1869 14-07-2014 11:35:00 20.6 C 13.07 g/m*3 20.6 C 6.4 km/h
1870 14-07-2014 11:40:00 20.7 C 12.78 g/m*3 20.7 C 6.4 km/h
1871 14-07-2014 11:45:00 20.8 C 12.86 g/m*3 20.8 C 6.4 km/h
1872 14-07-2014 11:50:00 21.1 C 13.27 g/m*3 21.1 C 8.1 km/h
1873 14-07-2014 11:55:00 21.4 C 13.31 g/m*3 21.4 C 8.1 km/h
1874 14-07-2014 12:00:00 21.7 C 12.97 g/m*3 21.7 C 9.7 km/h
1875 14-07-2014 12:05:00 21.7 C 13.16 g/m*3 21.7 C 12.9 km/h
Sensor: Nr:Datum:Temp:Abs-Feuchte:Windchill:Wind:
Aussen-T/F 1876 14-07-2014 12:10:00 21.7 C 12.97 g/m*3 21.7 C 11.3 km/h
1877 14-07-2014 12:15:00 21.7 C 12.78 g/m*3 21.7 C 9.7 km/h
1878 14-07-2014 12:20:00 21.8 C 12.85 g/m*3 21.8 C 8.1 km/h
1879 14-07-2014 12:25:00 21.8 C 12.85 g/m*3 21.8 C 11.3 km/h
1880 14-07-2014 12:30:00 22.1 C 12.88 g/m*3 22.1 C 11.3 km/h
1881 14-07-2014 12:35:00 22.2 C 12.76 g/m*3 22.2 C 9.7 km/h
1882 14-07-2014 12:40:00 22.4 C 12.91 g/m*3 22.4 C 9.7 km/h
1883 14-07-2014 12:45:00 22.7 C 12.93 g/m*3 22.7 C 8.1 km/h
1884 14-07-2014 12:50:00 22.8 C 13 g/m*3 22.8 C 9.7 km/h
1885 14-07-2014 12:55:00 22.9 C 13.28 g/m*3 22.9 C 9.7 km/h
1886 14-07-2014 13:00:00 23 C 12.95 g/m*3 23 C 8.1 km/h
1887 14-07-2014 13:05:00 22.9 C 13.08 g/m*3 22.9 C 12.9 km/h
1888 14-07-2014 13:10:00 22.9 C 13.08 g/m*3 22.9 C 4.8 km/h
1889 14-07-2014 13:15:00 22.7 C 13.13 g/m*3 22.7 C 6.4 km/h
1890 14-07-2014 13:20:00 22.6 C 13.06 g/m*3 22.6 C 6.4 km/h
1891 14-07-2014 13:25:00 22.3 C 12.83 g/m*3 22.3 C 4.8 km/h
1892 14-07-2014 13:30:00 22.3 C 13.03 g/m*3 22.3 C 11.3 km/h
1893 14-07-2014 13:35:00 22.6 C 13.46 g/m*3 22.6 C 9.7 km/h
1894 14-07-2014 13:40:00 22.7 C 13.13 g/m*3 22.7 C 9.7 km/h
1895 14-07-2014 13:45:00 22.8 C 13.41 g/m*3 22.8 C 8.1 km/h
1896 14-07-2014 13:50:00 22.8 C 13.41 g/m*3 22.8 C 6.4 km/h
1897 14-07-2014 13:55:00 22.8 C 13.41 g/m*3 22.8 C 4.8 km/h
1898 14-07-2014 14:00:00 22.8 C 13.41 g/m*3 22.8 C 6.4 km/h
1899 14-07-2014 14:05:00 22.8 C 13 g/m*3 22.8 C 12.9 km/h
1900 14-07-2014 14:10:00 22.7 C 13.13 g/m*3 22.7 C 4.8 km/h
Sensor: Nr:Datum:Temp:Abs-Feuchte:Windchill:Wind:
Aussen-T/F 1901 14-07-2014 14:15:00 22.3 C 14.41 g/m*3 22.3 C 0 km/h
1902 14-07-2014 14:20:00 21.7 C 14.88 g/m*3 21.7 C 1.6 km/h
1903 14-07-2014 14:25:00 21.2 C 13.53 g/m*3 21.2 C 6.4 km/h
1904 14-07-2014 14:30:00 21.3 C 13.42 g/m*3 21.3 C 8.1 km/h
1905 14-07-2014 14:35:00 21.6 C 13.47 g/m*3 21.6 C 8.1 km/h
1906 14-07-2014 14:40:00 21.9 C 14.28 g/m*3 21.9 C 8.1 km/h
1907 14-07-2014 14:45:00 22.3 C 13.82 g/m*3 22.3 C 8.1 km/h
1908 14-07-2014 14:50:00 22.6 C 13.86 g/m*3 22.6 C 6.4 km/h
1909 14-07-2014 14:55:00 23 C 14.39 g/m*3 23 C 8.1 km/h
1910 14-07-2014 15:00:00 23.3 C 13.8 g/m*3 23.3 C 6.4 km/h
1911 14-07-2014 15:05:00 23.3 C 14.22 g/m*3 23.3 C 9.7 km/h
1912 14-07-2014 15:10:00 23 C 13.57 g/m*3 23 C 4.8 km/h
1913 14-07-2014 15:15:00 22.8 C 13.82 g/m*3 22.8 C 6.4 km/h
1914 14-07-2014 15:20:00 22.4 C 13.9 g/m*3 22.4 C 17.7 km/h
1915 14-07-2014 15:25:00 21.8 C 13.81 g/m*3 21.8 C 12.9 km/h
1916 14-07-2014 15:30:00 21.3 C 13.79 g/m*3 21.3 C 14.5 km/h
1917 14-07-2014 15:35:00 21.1 C 14.19 g/m*3 21.1 C 11.3 km/h
1918 14-07-2014 15:40:00 21.2 C 14.27 g/m*3 21.2 C 12.9 km/h
1919 14-07-2014 15:45:00 21 C 13.92 g/m*3 21 C 12.9 km/h
1920 14-07-2014 15:50:00 20.9 C 14.21 g/m*3 20.9 C 11.3 km/h
1921 14-07-2014 15:55:00 20.8 C 14.12 g/m*3 20.8 C 8.1 km/h
1922 14-07-2014 16:00:00 20.7 C 14.4 g/m*3 20.7 C 9.7 km/h
1923 14-07-2014 16:05:00 20.6 C 14.14 g/m*3 20.6 C 9.7 km/h
1924 14-07-2014 16:10:00 20.4 C 13.98 g/m*3 20.4 C 11.3 km/h
1925 14-07-2014 16:15:00 20.4 C 13.98 g/m*3 20.4 C 4.8 km/h
Sensor: Nr:Datum:Temp:Abs-Feuchte:Windchill:Wind:
Aussen-T/F 1926 14-07-2014 16:20:00 20.6 C 14.14 g/m*3 20.6 C 8.1 km/h
1927 14-07-2014 16:25:00 20.7 C 13.86 g/m*3 20.7 C 9.7 km/h
1928 14-07-2014 16:30:00 20.9 C 13.84 g/m*3 20.9 C 14.5 km/h
1929 14-07-2014 16:35:00 21 C 13.74 g/m*3 21 C 14.5 km/h
1930 14-07-2014 16:40:00 21.1 C 13.82 g/m*3 21.1 C 11.3 km/h
1931 14-07-2014 16:45:00 21.1 C 13.63 g/m*3 21.1 C 12.9 km/h
1932 14-07-2014 16:50:00 20.9 C 13.3 g/m*3 20.9 C 11.3 km/h
1933 14-07-2014 16:55:00 20.8 C 13.58 g/m*3 20.8 C 6.4 km/h
1934 14-07-2014 17:00:00 20.9 C 13.66 g/m*3 20.9 C 8.1 km/h
1935 14-07-2014 17:05:00 21 C 13.74 g/m*3 21 C 6.4 km/h
1936 14-07-2014 17:10:00 21.2 C 14.08 g/m*3 21.2 C 9.7 km/h
1937 14-07-2014 17:15:00 21.3 C 13.98 g/m*3 21.3 C 12.9 km/h
1938 14-07-2014 17:20:00 21.3 C 13.79 g/m*3 21.3 C 9.7 km/h
1939 14-07-2014 17:25:00 21.4 C 13.87 g/m*3 21.4 C 6.4 km/h
1940 14-07-2014 17:30:00 21.5 C 13.77 g/m*3 21.5 C 9.7 km/h
1941 14-07-2014 17:35:00 21.6 C 13.47 g/m*3 21.6 C 12.9 km/h
1942 14-07-2014 17:40:00 21.8 C 13.81 g/m*3 21.8 C 8.1 km/h
1943 14-07-2014 17:45:00 21.9 C 13.31 g/m*3 21.9 C 9.7 km/h
1944 14-07-2014 17:50:00 21.8 C 13.62 g/m*3 21.8 C 8.1 km/h
1945 14-07-2014 17:55:00 21.8 C 13.62 g/m*3 21.8 C 6.4 km/h
1946 14-07-2014 18:00:00 21.7 C 13.93 g/m*3 21.7 C 4.8 km/h
1947 14-07-2014 18:05:00 21.6 C 13.66 g/m*3 21.6 C 9.7 km/h
1948 14-07-2014 18:10:00 21.5 C 13.95 g/m*3 21.5 C 6.4 km/h
1949 14-07-2014 18:15:00 21.4 C 13.87 g/m*3 21.4 C 4.8 km/h
1950 14-07-2014 18:20:00 21.5 C 13.95 g/m*3 21.5 C 6.4 km/h
Sensor: Nr:Datum:Temp:Abs-Feuchte:Windchill:Wind:
Aussen-T/F 1951 14-07-2014 18:25:00 21.5 C 13.95 g/m*3 21.5 C 6.4 km/h
1952 14-07-2014 18:30:00 21.6 C 13.85 g/m*3 21.6 C 6.4 km/h
1953 14-07-2014 18:35:00 21.6 C 13.66 g/m*3 21.6 C 8.1 km/h
1954 14-07-2014 18:40:00 21.6 C 13.47 g/m*3 21.6 C 6.4 km/h
1955 14-07-2014 18:45:00 21.6 C 13.85 g/m*3 21.6 C 6.4 km/h
1956 14-07-2014 18:50:00 22 C 13.78 g/m*3 22 C 6.4 km/h
1957 14-07-2014 18:55:00 22.4 C 13.7 g/m*3 22.4 C 6.4 km/h
1958 14-07-2014 19:00:00 22.8 C 13.82 g/m*3 22.8 C 6.4 km/h
1959 14-07-2014 19:05:00 22.9 C 14.1 g/m*3 22.9 C 4.8 km/h
1960 14-07-2014 19:10:00 23.1 C 14.06 g/m*3 23.1 C 6.4 km/h
1961 14-07-2014 19:15:00 22.9 C 13.69 g/m*3 22.9 C 9.7 km/h
1962 14-07-2014 19:20:00 22.7 C 13.74 g/m*3 22.7 C 4.8 km/h
1963 14-07-2014 19:25:00 22.4 C 13.9 g/m*3 22.4 C 4.8 km/h
1964 14-07-2014 19:30:00 22.3 C 13.62 g/m*3 22.3 C 8.1 km/h
1965 14-07-2014 19:35:00 22.2 C 13.35 g/m*3 22.2 C 4.8 km/h
1966 14-07-2014 19:40:00 21.9 C 13.31 g/m*3 21.9 C 3.2 km/h
1967 14-07-2014 19:45:00 21.8 C 13.62 g/m*3 21.8 C 6.4 km/h
1968 14-07-2014 19:50:00 21.7 C 13.54 g/m*3 21.7 C 1.6 km/h
1969 14-07-2014 19:55:00 21.6 C 13.47 g/m*3 21.6 C 0 km/h
1970 14-07-2014 20:00:00 21.4 C 14.25 g/m*3 21.4 C 0 km/h
1971 14-07-2014 20:05:00 21.1 C 14.56 g/m*3 21.1 C 1.6 km/h
1972 14-07-2014 20:10:00 20.8 C 14.67 g/m*3 20.8 C 0 km/h
1973 14-07-2014 20:15:00 20.4 C 14.51 g/m*3 20.4 C 0 km/h
1974 14-07-2014 20:20:00 20 C 14.34 g/m*3 20 C 0 km/h
1975 14-07-2014 20:25:00 19.7 C 14.26 g/m*3 19.7 C 0 km/h
Sensor: Nr:Datum:Temp:Abs-Feuchte:Windchill:Wind:
Aussen-T/F 1976 14-07-2014 20:30:00 19.4 C 14.18 g/m*3 19.4 C 0 km/h
1977 14-07-2014 20:35:00 19.2 C 14.02 g/m*3 19.2 C 0 km/h
1978 14-07-2014 20:40:00 19.1 C 14.1 g/m*3 19.1 C 0 km/h
1979 14-07-2014 20:45:00 18.9 C 13.93 g/m*3 18.9 C 0 km/h
1980 14-07-2014 20:50:00 18.9 C 14.09 g/m*3 18.9 C 0 km/h
1981 14-07-2014 20:55:00 18.8 C 14.01 g/m*3 18.8 C 0 km/h
1982 14-07-2014 21:00:00 18.7 C 14.09 g/m*3 18.7 C 0 km/h
1983 14-07-2014 21:05:00 18.6 C 14.01 g/m*3 18.6 C 0 km/h
1984 14-07-2014 21:10:00 18.5 C 13.92 g/m*3 18.5 C 0 km/h
1985 14-07-2014 21:15:00 18.4 C 13.84 g/m*3 18.4 C 0 km/h
1986 14-07-2014 21:20:00 18.3 C 13.76 g/m*3 18.3 C 0 km/h
1987 14-07-2014 21:25:00 18.2 C 13.83 g/m*3 18.2 C 0 km/h
1988 14-07-2014 21:30:00 18.1 C 13.75 g/m*3 18.1 C 0 km/h
1989 14-07-2014 21:35:00 18 C 13.67 g/m*3 18 C 0 km/h
1990 14-07-2014 21:40:00 17.9 C 13.59 g/m*3 17.9 C 0 km/h
1991 14-07-2014 21:45:00 17.8 C 13.66 g/m*3 17.8 C 0 km/h
1992 14-07-2014 21:50:00 17.8 C 13.66 g/m*3 17.8 C 0 km/h
1993 14-07-2014 21:55:00 17.8 C 13.66 g/m*3 17.8 C 0 km/h
1994 14-07-2014 22:00:00 17.6 C 13.5 g/m*3 17.6 C 0 km/h
1995 14-07-2014 22:05:00 17.5 C 13.42 g/m*3 17.5 C 1.6 km/h
1996 14-07-2014 22:10:00 17.4 C 13.49 g/m*3 17.4 C 0 km/h
1997 14-07-2014 22:15:00 17.4 C 13.49 g/m*3 17.4 C 0 km/h
1998 14-07-2014 22:20:00 17.3 C 13.41 g/m*3 17.3 C 0 km/h
1999 14-07-2014 22:25:00 17.3 C 13.41 g/m*3 17.3 C 0 km/h
2000 14-07-2014 22:30:00 17.3 C 13.41 g/m*3 17.3 C 0 km/h
Sensor: Nr:Datum:Temp:Abs-Feuchte:Windchill:Wind:
Aussen-T/F 2001 14-07-2014 22:35:00 17.3 C 13.41 g/m*3 17.3 C 0 km/h
2002 14-07-2014 22:40:00 17.2 C 13.47 g/m*3 17.2 C 0 km/h
2003 14-07-2014 22:45:00 17.2 C 13.33 g/m*3 17.2 C 0 km/h
2004 14-07-2014 22:50:00 17.1 C 13.39 g/m*3 17.1 C 0 km/h
2005 14-07-2014 22:55:00 17 C 13.17 g/m*3 17 C 0 km/h
2006 14-07-2014 23:00:00 17 C 13.31 g/m*3 17 C 0 km/h
2007 14-07-2014 23:05:00 16.9 C 13.23 g/m*3 16.9 C 0 km/h
2008 14-07-2014 23:10:00 16.8 C 13.15 g/m*3 16.8 C 0 km/h
2009 14-07-2014 23:15:00 16.8 C 13.15 g/m*3 16.8 C 0 km/h
2010 14-07-2014 23:20:00 16.7 C 13.07 g/m*3 16.7 C 0 km/h
2011 14-07-2014 23:25:00 16.7 C 13.07 g/m*3 16.7 C 0 km/h
2012 14-07-2014 23:30:00 16.6 C 13 g/m*3 16.6 C 0 km/h
2013 14-07-2014 23:35:00 16.6 C 13 g/m*3 16.6 C 0 km/h
2014 15-07-2014 06:00:00 13.7 C 11.37 g/m*3 13.7 C 0 km/h
2015 15-07-2014 06:05:00 13.7 C 11.37 g/m*3 13.7 C 0 km/h
2016 15-07-2014 06:10:00 13.7 C 11.37 g/m*3 13.7 C 0 km/h
2017 15-07-2014 06:15:00 13.7 C 11.37 g/m*3 13.7 C 0 km/h
2018 15-07-2014 06:35:00 13.7 C 11.37 g/m*3 13.7 C 0 km/h
2019 15-07-2014 06:40:00 13.8 C 11.56 g/m*3 13.8 C 0 km/h
2020 15-07-2014 06:45:00 13.8 C 11.56 g/m*3 13.8 C 1.6 km/h
2021 15-07-2014 06:50:00 13.9 C 11.63 g/m*3 13.9 C 1.6 km/h
2022 15-07-2014 06:55:00 14 C 11.7 g/m*3 14 C 0 km/h
2023 15-07-2014 07:00:00 14.1 C 11.77 g/m*3 14.1 C 0 km/h
2024 15-07-2014 07:05:00 14.1 C 11.77 g/m*3 14.1 C 0 km/h
2025 15-07-2014 07:10:00 14.2 C 11.84 g/m*3 14.2 C 0 km/h
Sensor: Nr:Datum:Temp:Abs-Feuchte:Windchill:Wind:
Aussen-T/F 2026 15-07-2014 07:15:00 14.3 C 11.92 g/m*3 14.3 C 0 km/h
2027 15-07-2014 07:20:00 14.3 C 11.92 g/m*3 14.3 C 0 km/h
2028 15-07-2014 07:25:00 14.4 C 11.99 g/m*3 14.4 C 3.2 km/h
2029 15-07-2014 07:30:00 14.4 C 11.99 g/m*3 14.4 C 0 km/h
2030 15-07-2014 07:35:00 14.4 C 11.99 g/m*3 14.4 C 0 km/h
2031 15-07-2014 07:40:00 14.6 C 12.14 g/m*3 14.6 C 4.8 km/h
2032 15-07-2014 07:45:00 14.7 C 12.21 g/m*3 14.7 C 3.2 km/h
2033 15-07-2014 07:50:00 14.8 C 12.29 g/m*3 14.8 C 3.2 km/h
2034 15-07-2014 07:55:00 14.9 C 12.36 g/m*3 14.9 C 1.6 km/h
2035 15-07-2014 08:00:00 15 C 12.31 g/m*3 15 C 3.2 km/h
2036 15-07-2014 08:05:00 15.2 C 12.46 g/m*3 15.2 C 3.2 km/h
2037 15-07-2014 08:10:00 15.4 C 12.61 g/m*3 15.4 C 4.8 km/h
2038 15-07-2014 08:15:00 15.7 C 12.71 g/m*3 15.7 C 4.8 km/h
2039 15-07-2014 08:20:00 16 C 12.81 g/m*3 16 C 3.2 km/h
2040 15-07-2014 08:25:00 16.3 C 12.9 g/m*3 16.3 C 3.2 km/h
2041 15-07-2014 08:30:00 16.5 C 12.92 g/m*3 16.5 C 1.6 km/h
2042 15-07-2014 08:35:00 16.7 C 12.93 g/m*3 16.7 C 4.8 km/h
2043 15-07-2014 08:40:00 16.8 C 13.01 g/m*3 16.8 C 4.8 km/h
2044 15-07-2014 08:45:00 17 C 13.02 g/m*3 17 C 8.1 km/h
2045 15-07-2014 08:50:00 17.3 C 13.26 g/m*3 17.3 C 4.8 km/h
2046 15-07-2014 08:55:00 17.5 C 13.27 g/m*3 17.5 C 4.8 km/h
2047 15-07-2014 09:00:00 17.7 C 13.43 g/m*3 17.7 C 3.2 km/h
2048 15-07-2014 09:05:00 18 C 13.52 g/m*3 18 C 4.8 km/h
2049 15-07-2014 09:10:00 18.2 C 13.52 g/m*3 18.2 C 6.4 km/h
2050 15-07-2014 09:15:00 18.3 C 13.45 g/m*3 18.3 C 6.4 km/h
Sensor: Nr:Datum:Temp:Abs-Feuchte:Windchill:Wind:
Aussen-T/F 2051 15-07-2014 09:20:00 18.3 C 13.45 g/m*3 18.3 C 6.4 km/h
2052 15-07-2014 09:25:00 18.4 C 13.53 g/m*3 18.4 C 6.4 km/h
2053 15-07-2014 09:30:00 18.4 C 13.53 g/m*3 18.4 C 3.2 km/h
2054 15-07-2014 09:35:00 18.4 C 13.37 g/m*3 18.4 C 8.1 km/h
2055 15-07-2014 09:40:00 18.7 C 13.61 g/m*3 18.7 C 6.4 km/h
2056 15-07-2014 09:45:00 18.8 C 13.37 g/m*3 18.8 C 6.4 km/h
2057 15-07-2014 09:50:00 19.1 C 13.77 g/m*3 19.1 C 6.4 km/h
2058 15-07-2014 09:55:00 19.3 C 13.6 g/m*3 19.3 C 6.4 km/h
2059 15-07-2014 10:00:00 19.3 C 13.44 g/m*3 19.3 C 3.2 km/h
2060 15-07-2014 10:05:00 19.6 C 13.34 g/m*3 19.6 C 4.8 km/h
2061 15-07-2014 10:10:00 20.1 C 13.56 g/m*3 20.1 C 6.4 km/h
2062 15-07-2014 10:15:00 20.6 C 13.78 g/m*3 20.6 C 1.6 km/h
2063 15-07-2014 10:20:00 20.7 C 13.86 g/m*3 20.7 C 0 km/h
2064 15-07-2014 10:25:00 20.8 C 14.12 g/m*3 20.8 C 0 km/h
2065 15-07-2014 10:30:00 20.9 C 12.75 g/m*3 20.9 C 4.8 km/h
2066 15-07-2014 10:35:00 21.2 C 12.6 g/m*3 21.2 C 11.3 km/h
2067 15-07-2014 10:40:00 21.6 C 12.52 g/m*3 21.6 C 16.1 km/h
2068 15-07-2014 10:45:00 22 C 13.59 g/m*3 22 C 8.1 km/h
2069 15-07-2014 10:50:00 22.3 C 13.03 g/m*3 22.3 C 4.8 km/h
2070 15-07-2014 10:55:00 22.6 C 13.46 g/m*3 22.6 C 9.7 km/h
2071 15-07-2014 11:00:00 22.4 C 14.3 g/m*3 22.4 C 9.7 km/h
2072 15-07-2014 11:05:00 22.1 C 14.05 g/m*3 22.1 C 9.7 km/h
2073 15-07-2014 11:10:00 21.8 C 14.01 g/m*3 21.8 C 6.4 km/h
2074 15-07-2014 11:15:00 21.8 C 14.77 g/m*3 21.8 C 3.2 km/h
2075 15-07-2014 11:20:00 21.9 C 13.7 g/m*3 21.9 C 6.4 km/h
Sensor: Nr:Datum:Temp:Abs-Feuchte:Windchill:Wind:
Aussen-T/F 2076 15-07-2014 11:25:00 21.9 C 14.28 g/m*3 21.9 C 6.4 km/h
2077 15-07-2014 11:30:00 21.9 C 14.09 g/m*3 21.9 C 3.2 km/h
2078 15-07-2014 11:35:00 22.1 C 14.05 g/m*3 22.1 C 4.8 km/h
2079 15-07-2014 11:40:00 22.1 C 13.66 g/m*3 22.1 C 1.6 km/h
2080 15-07-2014 11:45:00 22 C 14.36 g/m*3 22 C 1.6 km/h
2081 15-07-2014 11:50:00 22.1 C 14.05 g/m*3 22.1 C 3.2 km/h
2082 15-07-2014 11:55:00 22.4 C 13.11 g/m*3 22.4 C 3.2 km/h
2083 15-07-2014 12:00:00 22.7 C 12.53 g/m*3 22.7 C 4.8 km/h
2084 15-07-2014 12:05:00 22.8 C 12.8 g/m*3 22.8 C 6.4 km/h
2085 15-07-2014 12:10:00 22.9 C 12.47 g/m*3 22.9 C 4.8 km/h
2086 15-07-2014 12:15:00 23.1 C 12.2 g/m*3 23.1 C 11.3 km/h
2087 15-07-2014 12:20:00 23.4 C 12.2 g/m*3 23.4 C 8.1 km/h
2088 15-07-2014 12:25:00 23.6 C 12.34 g/m*3 23.6 C 8.1 km/h
2089 15-07-2014 12:30:00 23.6 C 12.12 g/m*3 23.6 C 9.7 km/h
2090 15-07-2014 12:35:00 23.6 C 12.12 g/m*3 23.6 C 14.5 km/h
2091 15-07-2014 12:40:00 23.7 C 12.19 g/m*3 23.7 C 8.1 km/h
2092 15-07-2014 12:45:00 23.9 C 12.55 g/m*3 23.9 C 11.3 km/h
2093 15-07-2014 12:50:00 23.9 C 13.2 g/m*3 23.9 C 6.4 km/h
2094 15-07-2014 12:55:00 23.9 C 12.11 g/m*3 23.9 C 1.6 km/h
2095 15-07-2014 13:00:00 23.8 C 12.69 g/m*3 23.8 C 8.1 km/h
2096 15-07-2014 13:05:00 23.8 C 12.69 g/m*3 23.8 C 6.4 km/h
2097 15-07-2014 13:10:00 23.5 C 14.59 g/m*3 23.5 C 4.8 km/h
2098 15-07-2014 13:15:00 23.1 C 14.47 g/m*3 23.1 C 1.6 km/h
2099 15-07-2014 13:20:00 23.3 C 11.92 g/m*3 23.3 C 8.1 km/h
2100 15-07-2014 13:25:00 23.7 C 12.19 g/m*3 23.7 C 8.1 km/h
Sensor: Nr:Datum:Temp:Abs-Feuchte:Windchill:Wind:
Aussen-T/F 2101 15-07-2014 13:30:00 24 C 12.62 g/m*3 24 C 6.4 km/h
2102 15-07-2014 13:35:00 24 C 12.18 g/m*3 24 C 4.8 km/h
2103 15-07-2014 13:40:00 23.9 C 11.9 g/m*3 23.9 C 4.8 km/h
2104 15-07-2014 13:45:00 23.9 C 11.9 g/m*3 23.9 C 11.3 km/h
2105 15-07-2014 13:50:00 24.2 C 12.32 g/m*3 24.2 C 4.8 km/h
2106 15-07-2014 13:55:00 24.7 C 12.22 g/m*3 24.7 C 8.1 km/h
2107 15-07-2014 14:00:00 24.8 C 12.06 g/m*3 24.8 C 11.3 km/h
2108 15-07-2014 14:05:00 24.6 C 11.48 g/m*3 24.6 C 9.7 km/h
2109 15-07-2014 14:10:00 24.4 C 12.02 g/m*3 24.4 C 8.1 km/h
2110 15-07-2014 14:15:00 24.4 C 12.02 g/m*3 24.4 C 6.4 km/h
2111 15-07-2014 14:20:00 24.4 C 12.46 g/m*3 24.4 C 6.4 km/h
2112 15-07-2014 14:25:00 24.6 C 11.7 g/m*3 24.6 C 4.8 km/h
2113 15-07-2014 14:30:00 24.5 C 12.09 g/m*3 24.5 C 16.1 km/h
2114 15-07-2014 14:35:00 24.4 C 11.79 g/m*3 24.4 C 12.9 km/h
2115 15-07-2014 14:40:00 24.3 C 12.17 g/m*3 24.3 C 8.1 km/h
2116 15-07-2014 14:45:00 24.4 C 11.79 g/m*3 24.4 C 4.8 km/h
2117 15-07-2014 14:50:00 24.6 C 11.93 g/m*3 24.6 C 4.8 km/h
2118 15-07-2014 14:55:00 24.7 C 12.45 g/m*3 24.7 C 9.7 km/h
2119 15-07-2014 15:00:00 24.9 C 12.36 g/m*3 24.9 C 12.9 km/h
2120 15-07-2014 15:05:00 25.3 C 11.71 g/m*3 25.3 C 9.7 km/h
2121 15-07-2014 15:10:00 25.5 C 12.55 g/m*3 25.5 C 9.7 km/h
2122 15-07-2014 15:15:00 25.7 C 11.73 g/m*3 25.7 C 9.7 km/h
2123 15-07-2014 15:20:00 25.3 C 11.94 g/m*3 25.3 C 12.9 km/h
2124 15-07-2014 15:25:00 24.9 C 11.9 g/m*3 24.9 C 6.4 km/h
2125 15-07-2014 15:30:00 24.9 C 11.67 g/m*3 24.9 C 14.5 km/h
Sensor: Nr:Datum:Temp:Abs-Feuchte:Windchill:Wind:
Aussen-T/F 2126 15-07-2014 15:35:00 25 C 11.74 g/m*3 25 C 8.1 km/h
2127 15-07-2014 15:40:00 25 C 11.97 g/m*3 25 C 9.7 km/h
2128 15-07-2014 15:45:00 24.9 C 12.13 g/m*3 24.9 C 9.7 km/h
2129 15-07-2014 15:50:00 24.8 C 11.84 g/m*3 24.8 C 8.1 km/h
2130 15-07-2014 15:55:00 24.9 C 11.9 g/m*3 24.9 C 11.3 km/h
2131 15-07-2014 16:00:00 25.2 C 12.11 g/m*3 25.2 C 11.3 km/h
2132 15-07-2014 16:05:00 25.1 C 12.73 g/m*3 25.1 C 6.4 km/h
2133 15-07-2014 16:10:00 24.8 C 11.84 g/m*3 24.8 C 8.1 km/h
2134 15-07-2014 16:15:00 24.8 C 11.61 g/m*3 24.8 C 9.7 km/h
2135 15-07-2014 16:20:00 24.8 C 12.29 g/m*3 24.8 C 8.1 km/h
2136 15-07-2014 16:25:00 25.3 C 12.17 g/m*3 25.3 C 9.7 km/h
2137 15-07-2014 16:30:00 25.7 C 11.97 g/m*3 25.7 C 8.1 km/h
2138 15-07-2014 16:35:00 25.9 C 11.62 g/m*3 25.9 C 11.3 km/h
2139 15-07-2014 16:40:00 25.9 C 12.1 g/m*3 25.9 C 6.4 km/h
2140 15-07-2014 16:45:00 25.7 C 11.97 g/m*3 25.7 C 8.1 km/h
2141 15-07-2014 16:50:00 25.2 C 12.11 g/m*3 25.2 C 1.6 km/h
2142 15-07-2014 16:55:00 24.9 C 12.59 g/m*3 24.9 C 1.6 km/h
2143 15-07-2014 17:00:00 24.9 C 12.36 g/m*3 24.9 C 3.2 km/h
2144 15-07-2014 17:05:00 24.8 C 14.8 g/m*3 24.8 C 1.6 km/h
2145 15-07-2014 17:10:00 24.6 C 12.83 g/m*3 24.6 C 6.4 km/h
2146 15-07-2014 17:15:00 24.9 C 11.67 g/m*3 24.9 C 6.4 km/h
2147 15-07-2014 17:20:00 25.2 C 14.67 g/m*3 25.2 C 1.6 km/h
2148 15-07-2014 17:25:00 25.3 C 12.41 g/m*3 25.3 C 4.8 km/h
2149 15-07-2014 17:30:00 25.6 C 11.43 g/m*3 25.6 C 14.5 km/h
2150 15-07-2014 17:35:00 25.8 C 11.8 g/m*3 25.8 C 8.1 km/h
Sensor: Nr:Datum:Temp:Abs-Feuchte:Windchill:Wind:
Aussen-T/F 2151 15-07-2014 17:40:00 25.7 C 11.49 g/m*3 25.7 C 8.1 km/h
2152 15-07-2014 17:45:00 25.6 C 11.67 g/m*3 25.6 C 4.8 km/h
2153 15-07-2014 17:50:00 25.4 C 12.01 g/m*3 25.4 C 6.4 km/h
2154 15-07-2014 17:55:00 25.1 C 11.57 g/m*3 25.1 C 8.1 km/h
2155 15-07-2014 18:00:00 24.9 C 11.45 g/m*3 24.9 C 6.4 km/h
2156 15-07-2014 18:05:00 24.7 C 11.77 g/m*3 24.7 C 4.8 km/h
2157 15-07-2014 18:10:00 24.5 C 12.76 g/m*3 24.5 C 6.4 km/h
2158 15-07-2014 18:15:00 24.3 C 12.39 g/m*3 24.3 C 12.9 km/h
2159 15-07-2014 18:20:00 24.3 C 12.83 g/m*3 24.3 C 6.4 km/h
2160 15-07-2014 18:25:00 24.5 C 12.53 g/m*3 24.5 C 9.7 km/h
2161 15-07-2014 18:30:00 24.6 C 12.83 g/m*3 24.6 C 9.7 km/h
2162 15-07-2014 18:35:00 24.8 C 12.97 g/m*3 24.8 C 8.1 km/h
2163 15-07-2014 18:40:00 24.9 C 13.05 g/m*3 24.9 C 3.2 km/h
2164 15-07-2014 18:45:00 24.8 C 12.06 g/m*3 24.8 C 8.1 km/h
2165 15-07-2014 18:50:00 24.7 C 12.68 g/m*3 24.7 C 8.1 km/h
2166 15-07-2014 18:55:00 24.5 C 13.2 g/m*3 24.5 C 6.4 km/h
2167 15-07-2014 19:00:00 24.3 C 13.94 g/m*3 24.3 C 1.6 km/h
2168 15-07-2014 19:05:00 23.8 C 13.55 g/m*3 23.8 C 1.6 km/h
2169 15-07-2014 19:10:00 23.7 C 12.83 g/m*3 23.7 C 4.8 km/h
2170 15-07-2014 19:15:00 23.6 C 14.46 g/m*3 23.6 C 0 km/h
2171 15-07-2014 19:20:00 23.2 C 11.85 g/m*3 23.2 C 4.8 km/h
2172 15-07-2014 19:25:00 23.3 C 12.55 g/m*3 23.3 C 4.8 km/h
2173 15-07-2014 19:30:00 23.3 C 13.8 g/m*3 23.3 C 3.2 km/h
2174 15-07-2014 19:35:00 23 C 11.92 g/m*3 23 C 6.4 km/h
2175 15-07-2014 19:40:00 23.2 C 13.1 g/m*3 23.2 C 6.4 km/h
Sensor: Nr:Datum:Temp:Abs-Feuchte:Windchill:Wind:
Aussen-T/F 2176 15-07-2014 19:45:00 23.1 C 12.2 g/m*3 23.1 C 8.1 km/h
2177 15-07-2014 19:50:00 23.2 C 13.51 g/m*3 23.2 C 4.8 km/h
2178 15-07-2014 19:55:00 23.1 C 13.02 g/m*3 23.1 C 8.1 km/h
2179 15-07-2014 20:00:00 23 C 12.54 g/m*3 23 C 4.8 km/h
2180 15-07-2014 20:05:00 23 C 13.15 g/m*3 23 C 3.2 km/h
2181 15-07-2014 20:10:00 22.8 C 13.41 g/m*3 22.8 C 1.6 km/h
2182 15-07-2014 20:15:00 22.6 C 12.86 g/m*3 22.6 C 8.1 km/h
2183 15-07-2014 20:20:00 22.5 C 13.18 g/m*3 22.5 C 8.1 km/h
2184 15-07-2014 20:25:00 22.5 C 13.18 g/m*3 22.5 C 4.8 km/h
2185 15-07-2014 20:30:00 22.4 C 13.11 g/m*3 22.4 C 6.4 km/h
2186 15-07-2014 20:35:00 22.4 C 13.11 g/m*3 22.4 C 8.1 km/h
2187 15-07-2014 20:40:00 22.3 C 13.03 g/m*3 22.3 C 9.7 km/h
2188 15-07-2014 20:45:00 22.3 C 13.23 g/m*3 22.3 C 4.8 km/h
2189 15-07-2014 20:50:00 22.2 C 13.15 g/m*3 22.2 C 6.4 km/h
2190 15-07-2014 20:55:00 22.1 C 13.47 g/m*3 22.1 C 1.6 km/h
2191 15-07-2014 21:00:00 21.9 C 14.09 g/m*3 21.9 C 3.2 km/h
2192 15-07-2014 21:05:00 21.8 C 13.43 g/m*3 21.8 C 8.1 km/h
2193 15-07-2014 21:10:00 21.6 C 13.47 g/m*3 21.6 C 3.2 km/h
2194 15-07-2014 21:15:00 21.4 C 13.31 g/m*3 21.4 C 3.2 km/h
2195 15-07-2014 21:20:00 21.4 C 13.87 g/m*3 21.4 C 4.8 km/h
2196 15-07-2014 21:25:00 21.2 C 14.27 g/m*3 21.2 C 1.6 km/h
2197 15-07-2014 21:30:00 20.7 C 14.04 g/m*3 20.7 C 0 km/h
2198 15-07-2014 21:35:00 20.3 C 14.07 g/m*3 20.3 C 0 km/h
2199 15-07-2014 21:40:00 19.9 C 14.09 g/m*3 19.9 C 1.6 km/h
2200 15-07-2014 21:45:00 19.6 C 13.84 g/m*3 19.6 C 0 km/h
Sensor: Nr:Datum:Temp:Abs-Feuchte:Windchill:Wind:
Aussen-T/F 2201 15-07-2014 21:50:00 19.4 C 13.85 g/m*3 19.4 C 0 km/h
2202 15-07-2014 21:55:00 19.2 C 13.69 g/m*3 19.2 C 1.6 km/h
2203 15-07-2014 22:00:00 19.1 C 13.77 g/m*3 19.1 C 1.6 km/h
2204 15-07-2014 22:05:00 19.1 C 13.77 g/m*3 19.1 C 0 km/h
2205 15-07-2014 22:10:00 18.8 C 13.69 g/m*3 18.8 C 0 km/h
2206 15-07-2014 22:15:00 18.7 C 13.61 g/m*3 18.7 C 0 km/h
2207 15-07-2014 22:20:00 18.6 C 13.69 g/m*3 18.6 C 0 km/h
2208 15-07-2014 22:25:00 18.5 C 13.61 g/m*3 18.5 C 0 km/h
2209 15-07-2014 22:30:00 18.5 C 13.61 g/m*3 18.5 C 0 km/h
2210 15-07-2014 22:35:00 18.6 C 13.85 g/m*3 18.6 C 0 km/h
2211 15-07-2014 22:40:00 18.6 C 13.69 g/m*3 18.6 C 0 km/h
2212 15-07-2014 22:45:00 18.7 C 13.77 g/m*3 18.7 C 0 km/h
2213 15-07-2014 22:50:00 18.7 C 13.93 g/m*3 18.7 C 0 km/h
2214 15-07-2014 22:55:00 18.7 C 13.77 g/m*3 18.7 C 0 km/h
2215 15-07-2014 23:00:00 18.7 C 13.93 g/m*3 18.7 C 0 km/h
2216 15-07-2014 23:05:00 18.7 C 13.93 g/m*3 18.7 C 0 km/h
2217 15-07-2014 23:10:00 18.7 C 13.93 g/m*3 18.7 C 0 km/h
2218 15-07-2014 23:15:00 18.7 C 13.93 g/m*3 18.7 C 0 km/h
2219 15-07-2014 23:20:00 18.6 C 13.85 g/m*3 18.6 C 0 km/h
2220 15-07-2014 23:25:00 18.6 C 14.01 g/m*3 18.6 C 0 km/h
2221 15-07-2014 23:30:00 18.6 C 14.01 g/m*3 18.6 C 0 km/h
2222 15-07-2014 23:35:00 18.6 C 14.01 g/m*3 18.6 C 0 km/h
2223 15-07-2014 23:40:00 18.6 C 14.17 g/m*3 18.6 C 0 km/h
2224 15-07-2014 23:45:00 18.5 C 14.08 g/m*3 18.5 C 0 km/h
2225 15-07-2014 23:50:00 18.5 C 14.08 g/m*3 18.5 C 0 km/h
Sensor: Nr:Datum:Temp:Abs-Feuchte:Windchill:Wind:
Aussen-T/F 2226 15-07-2014 23:55:00 18.5 C 14.08 g/m*3 18.5 C 0 km/h
2227 16-07-2014 00:00:00 18.4 C 14 g/m*3 18.4 C 0 km/h
2228 16-07-2014 00:05:00 18.4 C 14 g/m*3 18.4 C 0 km/h
2229 16-07-2014 00:10:00 18.4 C 14 g/m*3 18.4 C 0 km/h
2230 16-07-2014 00:15:00 18.3 C 13.92 g/m*3 18.3 C 0 km/h
2231 16-07-2014 00:20:00 18.3 C 13.92 g/m*3 18.3 C 0 km/h
2232 16-07-2014 00:25:00 18.3 C 13.92 g/m*3 18.3 C 0 km/h
2233 16-07-2014 00:30:00 18.3 C 13.92 g/m*3 18.3 C 0 km/h
2234 16-07-2014 00:35:00 18.3 C 14.07 g/m*3 18.3 C 0 km/h
2235 16-07-2014 00:40:00 18.3 C 14.07 g/m*3 18.3 C 0 km/h
2236 16-07-2014 00:45:00 18.3 C 14.07 g/m*3 18.3 C 0 km/h
2237 16-07-2014 00:50:00 18.2 C 13.99 g/m*3 18.2 C 0 km/h
2238 16-07-2014 00:55:00 18.2 C 13.99 g/m*3 18.2 C 0 km/h
2239 16-07-2014 01:00:00 18.2 C 13.99 g/m*3 18.2 C 0 km/h
2240 16-07-2014 01:05:00 18.2 C 13.99 g/m*3 18.2 C 0 km/h
2241 16-07-2014 01:10:00 18.2 C 13.99 g/m*3 18.2 C 0 km/h
2242 16-07-2014 01:15:00 18.2 C 14.14 g/m*3 18.2 C 0 km/h
2243 16-07-2014 01:20:00 18.1 C 13.91 g/m*3 18.1 C 0 km/h
2244 16-07-2014 01:25:00 18.1 C 13.91 g/m*3 18.1 C 0 km/h
2245 16-07-2014 01:30:00 18.1 C 13.91 g/m*3 18.1 C 0 km/h
2246 16-07-2014 01:35:00 18.1 C 13.91 g/m*3 18.1 C 0 km/h
2247 16-07-2014 01:40:00 18.1 C 13.91 g/m*3 18.1 C 0 km/h
2248 16-07-2014 01:45:00 18.1 C 13.91 g/m*3 18.1 C 0 km/h
2249 16-07-2014 01:50:00 18.1 C 14.06 g/m*3 18.1 C 0 km/h
2250 16-07-2014 01:55:00 18 C 13.98 g/m*3 18 C 0 km/h
Sensor: Nr:Datum:Temp:Abs-Feuchte:Windchill:Wind:
Aussen-T/F 2251 16-07-2014 02:00:00 18 C 13.98 g/m*3 18 C 0 km/h
2252 16-07-2014 02:05:00 17.9 C 13.89 g/m*3 17.9 C 0 km/h
2253 16-07-2014 02:10:00 17.9 C 13.74 g/m*3 17.9 C 0 km/h
2254 16-07-2014 02:15:00 17.9 C 13.89 g/m*3 17.9 C 0 km/h
2255 16-07-2014 02:20:00 17.8 C 13.81 g/m*3 17.8 C 0 km/h
2256 16-07-2014 02:25:00 17.8 C 13.81 g/m*3 17.8 C 0 km/h
2257 16-07-2014 02:30:00 17.8 C 13.81 g/m*3 17.8 C 0 km/h
2258 16-07-2014 02:35:00 17.8 C 13.81 g/m*3 17.8 C 0 km/h
2259 16-07-2014 02:40:00 17.8 C 13.81 g/m*3 17.8 C 0 km/h
2260 16-07-2014 02:45:00 17.8 C 13.81 g/m*3 17.8 C 0 km/h
2261 16-07-2014 02:50:00 17.7 C 13.73 g/m*3 17.7 C 0 km/h
2262 16-07-2014 02:55:00 17.7 C 13.73 g/m*3 17.7 C 0 km/h
2263 16-07-2014 03:00:00 17.7 C 13.73 g/m*3 17.7 C 0 km/h
2264 16-07-2014 03:05:00 17.7 C 13.73 g/m*3 17.7 C 0 km/h
2265 16-07-2014 03:10:00 17.7 C 13.73 g/m*3 17.7 C 0 km/h
2266 16-07-2014 03:15:00 17.7 C 13.73 g/m*3 17.7 C 0 km/h
2267 16-07-2014 03:20:00 17.6 C 13.65 g/m*3 17.6 C 0 km/h
2268 16-07-2014 03:25:00 17.6 C 13.65 g/m*3 17.6 C 0 km/h
2269 16-07-2014 03:30:00 17.6 C 13.65 g/m*3 17.6 C 0 km/h
2270 16-07-2014 03:35:00 17.6 C 13.65 g/m*3 17.6 C 0 km/h
2271 16-07-2014 03:40:00 17.6 C 13.8 g/m*3 17.6 C 0 km/h
2272 16-07-2014 03:45:00 17.6 C 13.8 g/m*3 17.6 C 0 km/h
2273 16-07-2014 03:50:00 17.6 C 13.8 g/m*3 17.6 C 0 km/h
2274 16-07-2014 03:55:00 17.5 C 13.57 g/m*3 17.5 C 0 km/h
2275 16-07-2014 04:00:00 17.5 C 13.57 g/m*3 17.5 C 0 km/h
Sensor: Nr:Datum:Temp:Abs-Feuchte:Windchill:Wind:
Aussen-T/F 2276 16-07-2014 04:05:00 17.5 C 13.57 g/m*3 17.5 C 0 km/h
2277 16-07-2014 04:10:00 17.5 C 13.57 g/m*3 17.5 C 0 km/h
2278 16-07-2014 04:15:00 17.5 C 13.57 g/m*3 17.5 C 0 km/h
2279 16-07-2014 04:20:00 17.5 C 13.72 g/m*3 17.5 C 0 km/h
2280 16-07-2014 04:25:00 17.5 C 13.57 g/m*3 17.5 C 0 km/h
2281 16-07-2014 04:30:00 17.5 C 13.72 g/m*3 17.5 C 0 km/h
2282 16-07-2014 04:35:00 17.5 C 13.72 g/m*3 17.5 C 0 km/h
2283 16-07-2014 04:40:00 17.5 C 13.72 g/m*3 17.5 C 0 km/h
2284 16-07-2014 04:45:00 17.5 C 13.72 g/m*3 17.5 C 0 km/h
2285 16-07-2014 04:50:00 17.5 C 13.72 g/m*3 17.5 C 0 km/h
2286 16-07-2014 04:55:00 17.5 C 13.72 g/m*3 17.5 C 0 km/h
2287 16-07-2014 05:00:00 17.5 C 13.72 g/m*3 17.5 C 0 km/h
2288 16-07-2014 05:05:00 17.5 C 13.72 g/m*3 17.5 C 0 km/h
2289 16-07-2014 05:10:00 17.4 C 13.63 g/m*3 17.4 C 0 km/h
2290 16-07-2014 05:15:00 17.4 C 13.63 g/m*3 17.4 C 0 km/h
2291 16-07-2014 05:20:00 17.4 C 13.63 g/m*3 17.4 C 0 km/h
2292 16-07-2014 05:25:00 17.4 C 13.63 g/m*3 17.4 C 0 km/h
2293 16-07-2014 05:30:00 17.4 C 13.63 g/m*3 17.4 C 0 km/h
2294 16-07-2014 05:35:00 17.4 C 13.63 g/m*3 17.4 C 3.2 km/h
2295 16-07-2014 05:40:00 17.4 C 13.63 g/m*3 17.4 C 0 km/h
2296 16-07-2014 05:45:00 17.4 C 13.63 g/m*3 17.4 C 0 km/h
2297 16-07-2014 05:50:00 17.4 C 13.63 g/m*3 17.4 C 0 km/h
2298 16-07-2014 05:55:00 17.4 C 13.63 g/m*3 17.4 C 0 km/h
2299 16-07-2014 06:00:00 17.4 C 13.63 g/m*3 17.4 C 0 km/h
2300 16-07-2014 06:05:00 17.4 C 13.63 g/m*3 17.4 C 0 km/h
Sensor: Nr:Datum:Temp:Abs-Feuchte:Windchill:Wind:
Aussen-T/F 2301 16-07-2014 06:10:00 17.4 C 13.63 g/m*3 17.4 C 0 km/h
2302 16-07-2014 06:15:00 17.4 C 13.78 g/m*3 17.4 C 0 km/h
2303 16-07-2014 06:20:00 17.4 C 13.78 g/m*3 17.4 C 0 km/h
2304 16-07-2014 06:25:00 17.4 C 13.78 g/m*3 17.4 C 0 km/h
2305 16-07-2014 06:30:00 17.4 C 13.78 g/m*3 17.4 C 0 km/h
2306 16-07-2014 06:35:00 17.4 C 13.78 g/m*3 17.4 C 0 km/h
2307 16-07-2014 06:40:00 17.4 C 13.78 g/m*3 17.4 C 0 km/h
2308 16-07-2014 06:45:00 17.4 C 13.78 g/m*3 17.4 C 0 km/h
2309 16-07-2014 06:50:00 17.4 C 13.78 g/m*3 17.4 C 0 km/h
2310 16-07-2014 06:55:00 17.4 C 13.78 g/m*3 17.4 C 0 km/h
2311 16-07-2014 07:00:00 17.5 C 13.87 g/m*3 17.5 C 0 km/h
2312 16-07-2014 07:05:00 17.5 C 13.87 g/m*3 17.5 C 0 km/h
2313 16-07-2014 07:10:00 17.5 C 13.87 g/m*3 17.5 C 0 km/h
2314 16-07-2014 07:15:00 17.6 C 13.95 g/m*3 17.6 C 0 km/h
2315 16-07-2014 07:20:00 17.6 C 13.95 g/m*3 17.6 C 0 km/h
2316 16-07-2014 07:25:00 17.7 C 14.03 g/m*3 17.7 C 0 km/h
2317 16-07-2014 07:30:00 17.7 C 14.03 g/m*3 17.7 C 0 km/h
2318 16-07-2014 07:35:00 17.7 C 14.03 g/m*3 17.7 C 0 km/h
2319 16-07-2014 09:35:00 20.6 C 17.9 g/m*3 20.6 C 1.6 km/h
2320 16-07-2014 09:40:00 20.6 C 17.9 g/m*3 20.6 C 0 km/h
2321 16-07-2014 09:45:00 20.6 C 17.9 g/m*3 20.6 C 0 km/h
2322 16-07-2014 09:50:00 20.6 C 17.9 g/m*3 20.6 C 1.6 km/h
2323 16-07-2014 09:55:00 20.9 C 14.39 g/m*3 20.9 C 1.6 km/h
2324 16-07-2014 10:00:00 21.1 C 14.19 g/m*3 21.1 C 0 km/h
2325 16-07-2014 10:05:00 21.2 C 14.46 g/m*3 21.2 C 0 km/h
Sensor: Nr:Datum:Temp:Abs-Feuchte:Windchill:Wind:
Aussen-T/F 2326 16-07-2014 10:10:00 21.6 C 14.98 g/m*3 21.6 C 1.6 km/h
2327 16-07-2014 10:15:00 21.8 C 14.58 g/m*3 21.8 C 1.6 km/h
2328 16-07-2014 10:20:00 22.1 C 15.03 g/m*3 22.1 C 1.6 km/h
2329 16-07-2014 10:25:00 22.2 C 15.12 g/m*3 22.2 C 1.6 km/h
2330 16-07-2014 10:30:00 22.2 C 15.12 g/m*3 22.2 C 4.8 km/h
2331 16-07-2014 10:35:00 22.2 C 15.12 g/m*3 22.2 C 6.4 km/h
2332 16-07-2014 11:45:00 24.7 C 22.63 g/m*3 24.7 C 6.4 km/h
2333 16-07-2014 11:50:00 25 C 14.27 g/m*3 25 C 4.8 km/h
2334 16-07-2014 11:55:00 25 C 14.04 g/m*3 25 C 1.6 km/h
2335 16-07-2014 12:00:00 24.9 C 15.57 g/m*3 24.9 C 3.2 km/h
2336 16-07-2014 12:05:00 24.9 C 13.96 g/m*3 24.9 C 6.4 km/h
2337 16-07-2014 12:10:00 24.9 C 13.96 g/m*3 24.9 C 4.8 km/h
2338 16-07-2014 12:15:00 24.9 C 13.96 g/m*3 24.9 C 3.2 km/h
2339 16-07-2014 12:20:00 25.1 C 13.66 g/m*3 25.1 C 8.1 km/h
2340 16-07-2014 12:25:00 25.4 C 13.89 g/m*3 25.4 C 8.1 km/h
2341 16-07-2014 12:30:00 25.4 C 13.65 g/m*3 25.4 C 3.2 km/h
2342 16-07-2014 12:35:00 25.4 C 13.65 g/m*3 25.4 C 3.2 km/h
2343 16-07-2014 12:40:00 25.4 C 13.65 g/m*3 25.4 C 3.2 km/h
2344 16-07-2014 12:45:00 24.3 C 15.27 g/m*3 24.3 C 0 km/h
2345 16-07-2014 12:50:00 23.8 C 15.92 g/m*3 23.8 C 4.8 km/h
2346 16-07-2014 12:55:00 23.8 C 15.92 g/m*3 23.8 C 6.4 km/h
2347 16-07-2014 13:00:00 24.6 C 13.5 g/m*3 24.6 C 4.8 km/h
2348 16-07-2014 13:05:00 25.2 C 13.97 g/m*3 25.2 C 3.2 km/h
2349 16-07-2014 13:10:00 25.3 C 14.05 g/m*3 25.3 C 3.2 km/h
2350 16-07-2014 13:15:00 25.8 C 13.72 g/m*3 25.8 C 4.8 km/h
Sensor: Nr:Datum:Temp:Abs-Feuchte:Windchill:Wind:
Aussen-T/F 2351 16-07-2014 13:20:00 26.1 C 13.46 g/m*3 26.1 C 4.8 km/h
2352 16-07-2014 13:25:00 26.1 C 14.2 g/m*3 26.1 C 3.2 km/h
2353 16-07-2014 13:30:00 26.4 C 13.19 g/m*3 26.4 C 6.4 km/h
2354 16-07-2014 13:35:00 26.3 C 12.87 g/m*3 26.3 C 6.4 km/h
2355 16-07-2014 13:40:00 26.3 C 12.87 g/m*3 26.3 C 6.4 km/h
2356 16-07-2014 13:45:00 26.2 C 13.05 g/m*3 26.2 C 6.4 km/h
2357 16-07-2014 13:50:00 26.2 C 13.05 g/m*3 26.2 C 6.4 km/h
2358 16-07-2014 13:55:00 26.3 C 14.11 g/m*3 26.3 C 8.1 km/h
2359 16-07-2014 14:00:00 26.3 C 14.11 g/m*3 26.3 C 9.7 km/h
2360 16-07-2014 14:05:00 26.4 C 14.19 g/m*3 26.4 C 8.1 km/h
2361 16-07-2014 14:10:00 26.6 C 14.35 g/m*3 26.6 C 8.1 km/h
2362 16-07-2014 14:15:00 26.6 C 14.35 g/m*3 26.6 C 3.2 km/h
2363 16-07-2014 15:10:00 27.4 C 13.68 g/m*3 27.4 C 3.2 km/h
2364 16-07-2014 15:15:00 27.4 C 13.68 g/m*3 27.4 C 9.7 km/h
2365 16-07-2014 16:15:00 28.7 C 13.28 g/m*3 28.7 C 4.8 km/h
2366 16-07-2014 16:20:00 28.7 C 13.28 g/m*3 28.7 C 6.4 km/h
2367 16-07-2014 16:25:00 28.7 C 13.28 g/m*3 28.7 C 6.4 km/h
2368 16-07-2014 16:30:00 28.7 C 13.28 g/m*3 28.7 C 8.1 km/h
2369 16-07-2014 16:35:00 29.2 C 13.07 g/m*3 29.2 C 4.8 km/h
2370 16-07-2014 16:40:00 29.2 C 12.2 g/m*3 29.2 C 8.1 km/h
2371 16-07-2014 16:45:00 29.2 C 12.2 g/m*3 29.2 C 4.8 km/h
2372 16-07-2014 16:50:00 29.4 C 12.92 g/m*3 29.4 C 0 km/h
2373 16-07-2014 16:55:00 29.6 C 13.65 g/m*3 29.6 C 4.8 km/h
2374 16-07-2014 17:00:00 29.7 C 11.64 g/m*3 29.7 C 6.4 km/h
2375 16-07-2014 17:05:00 29.8 C 12.9 g/m*3 29.8 C 9.7 km/h
Sensor: Nr:Datum:Temp:Abs-Feuchte:Windchill:Wind:
Aussen-T/F 2376 16-07-2014 17:10:00 29.9 C 12.06 g/m*3 29.9 C 9.7 km/h
2377 16-07-2014 17:15:00 30.1 C 13.11 g/m*3 30.1 C 6.4 km/h
2378 16-07-2014 17:20:00 30 C 13.04 g/m*3 30 C 4.8 km/h
2379 16-07-2014 17:25:00 29.9 C 13.27 g/m*3 29.9 C 8.1 km/h
2380 16-07-2014 17:30:00 29.7 C 13.13 g/m*3 29.7 C 9.7 km/h
2381 16-07-2014 17:35:00 29.7 C 13.13 g/m*3 29.7 C 8.1 km/h
2382 16-07-2014 18:00:00 29.3 C 11.68 g/m*3 29.3 C 4.8 km/h
2383 16-07-2014 18:05:00 29.4 C 11.74 g/m*3 29.4 C 4.8 km/h
2384 16-07-2014 18:10:00 29.5 C 11.81 g/m*3 29.5 C 3.2 km/h
2385 16-07-2014 18:15:00 29.4 C 12.62 g/m*3 29.4 C 3.2 km/h
2386 16-07-2014 18:20:00 29.2 C 12.2 g/m*3 29.2 C 8.1 km/h
2387 16-07-2014 18:25:00 29.2 C 11.61 g/m*3 29.2 C 4.8 km/h
2388 16-07-2014 18:30:00 29.3 C 13.14 g/m*3 29.3 C 6.4 km/h
2389 16-07-2014 18:35:00 29.4 C 12.33 g/m*3 29.4 C 6.4 km/h
2390 16-07-2014 18:40:00 29.6 C 11.87 g/m*3 29.6 C 8.1 km/h
2391 16-07-2014 18:45:00 29.6 C 11.87 g/m*3 29.6 C 8.1 km/h
2392 16-07-2014 18:50:00 29.4 C 12.04 g/m*3 29.4 C 6.4 km/h
2393 16-07-2014 18:55:00 29.3 C 12.26 g/m*3 29.3 C 4.8 km/h
2394 16-07-2014 19:00:00 29.2 C 11.61 g/m*3 29.2 C 6.4 km/h
2395 16-07-2014 19:05:00 29.2 C 11.61 g/m*3 29.2 C 4.8 km/h
2396 16-07-2014 19:10:00 29 C 14.36 g/m*3 29 C 0 km/h
2397 16-07-2014 19:15:00 28.6 C 12.65 g/m*3 28.6 C 4.8 km/h
2398 16-07-2014 19:20:00 28.4 C 11.95 g/m*3 28.4 C 3.2 km/h
2399 16-07-2014 19:25:00 27.9 C 14.6 g/m*3 27.9 C 3.2 km/h
2400 16-07-2014 19:30:00 27.4 C 13.16 g/m*3 27.4 C 3.2 km/h
Sensor: Nr:Datum:Temp:Abs-Feuchte:Windchill:Wind:
Aussen-T/F 2401 16-07-2014 19:35:00 26.8 C 14.51 g/m*3 26.8 C 4.8 km/h
2402 16-07-2014 19:40:00 26.1 C 14.93 g/m*3 26.1 C 0 km/h
2403 16-07-2014 19:45:00 25.5 C 14.91 g/m*3 25.5 C 1.6 km/h
2404 16-07-2014 19:50:00 24.4 C 14.91 g/m*3 24.4 C 1.6 km/h
2405 16-07-2014 19:55:00 24 C 15.01 g/m*3 24 C 1.6 km/h
2406 16-07-2014 20:00:00 23.7 C 14.97 g/m*3 23.7 C 0 km/h
2407 16-07-2014 20:05:00 23.5 C 14.8 g/m*3 23.5 C 1.6 km/h
2408 16-07-2014 20:10:00 23.4 C 14.93 g/m*3 23.4 C 0 km/h
2409 16-07-2014 20:15:00 23.4 C 14.93 g/m*3 23.4 C 0 km/h
2410 16-07-2014 20:20:00 23.3 C 15.05 g/m*3 23.3 C 0 km/h
2411 16-07-2014 20:25:00 23.3 C 14.84 g/m*3 23.3 C 0 km/h
2412 16-07-2014 20:30:00 23.3 C 14.84 g/m*3 23.3 C 0 km/h
2413 16-07-2014 20:35:00 23.3 C 14.84 g/m*3 23.3 C 0 km/h
2414 16-07-2014 20:40:00 22.6 C 14.87 g/m*3 22.6 C 1.6 km/h
2415 16-07-2014 20:45:00 22.4 C 14.5 g/m*3 22.4 C 0 km/h
2416 16-07-2014 20:50:00 22.2 C 14.33 g/m*3 22.2 C 0 km/h
2417 16-07-2014 20:55:00 21.9 C 14.28 g/m*3 21.9 C 1.6 km/h
2418 16-07-2014 21:00:00 21.8 C 14.58 g/m*3 21.8 C 0 km/h
2419 16-07-2014 21:05:00 21.7 C 14.5 g/m*3 21.7 C 0 km/h
2420 16-07-2014 21:10:00 21.7 C 14.5 g/m*3 21.7 C 0 km/h
2421 16-07-2014 22:15:00 19.8 C 13.84 g/m*3 19.8 C 0 km/h
2422 16-07-2014 22:20:00 19.7 C 13.75 g/m*3 19.7 C 0 km/h
2423 16-07-2014 22:25:00 19.6 C 13.51 g/m*3 19.6 C 0 km/h
2424 16-07-2014 22:30:00 19.6 C 13.67 g/m*3 19.6 C 0 km/h
2425 16-07-2014 22:35:00 19.5 C 13.59 g/m*3 19.5 C 0 km/h
Sensor: Nr:Datum:Temp:Abs-Feuchte:Windchill:Wind:
Aussen-T/F 2426 16-07-2014 22:40:00 19.4 C 13.51 g/m*3 19.4 C 0 km/h
2427 16-07-2014 22:45:00 19.2 C 13.36 g/m*3 19.2 C 0 km/h
2428 16-07-2014 22:50:00 19.2 C 13.52 g/m*3 19.2 C 0 km/h
2429 16-07-2014 22:55:00 19 C 13.53 g/m*3 19 C 0 km/h
2430 16-07-2014 23:00:00 18.9 C 13.45 g/m*3 18.9 C 0 km/h
2431 16-07-2014 23:05:00 18.9 C 13.45 g/m*3 18.9 C 0 km/h
2432 17-07-2014 07:05:00 14.5 C 11.82 g/m*3 14.5 C 0 km/h
2433 17-07-2014 07:10:00 14.6 C 11.89 g/m*3 14.6 C 0 km/h
2434 17-07-2014 07:15:00 14.6 C 11.89 g/m*3 14.6 C 0 km/h
2435 17-07-2014 07:20:00 14.7 C 11.96 g/m*3 14.7 C 0 km/h
2436 17-07-2014 07:25:00 14.7 C 11.96 g/m*3 14.7 C 0 km/h
2437 17-07-2014 07:30:00 14.8 C 12.03 g/m*3 14.8 C 0 km/h
2438 17-07-2014 07:35:00 14.9 C 12.11 g/m*3 14.9 C 0 km/h
2439 17-07-2014 07:40:00 14.9 C 12.11 g/m*3 14.9 C 0 km/h
2440 17-07-2014 07:45:00 15.1 C 12.26 g/m*3 15.1 C 0 km/h
2441 17-07-2014 07:50:00 15.2 C 12.33 g/m*3 15.2 C 0 km/h
2442 17-07-2014 07:55:00 15.3 C 12.41 g/m*3 15.3 C 0 km/h
2443 17-07-2014 08:00:00 15.6 C 12.63 g/m*3 15.6 C 0 km/h
2444 17-07-2014 08:05:00 15.8 C 12.65 g/m*3 15.8 C 0 km/h
2445 17-07-2014 08:10:00 16.3 C 12.9 g/m*3 16.3 C 0 km/h
2446 17-07-2014 08:15:00 16.6 C 13 g/m*3 16.6 C 0 km/h
2447 17-07-2014 08:20:00 16.9 C 13.09 g/m*3 16.9 C 0 km/h
2448 17-07-2014 08:25:00 17.1 C 13.1 g/m*3 17.1 C 0 km/h
2449 17-07-2014 08:30:00 17.2 C 13.18 g/m*3 17.2 C 0 km/h
2450 17-07-2014 08:35:00 17.3 C 13.11 g/m*3 17.3 C 0 km/h
Sensor: Nr:Datum:Temp:Abs-Feuchte:Windchill:Wind:
Aussen-T/F 2451 17-07-2014 08:40:00 17.6 C 13.2 g/m*3 17.6 C 0 km/h
2452 17-07-2014 08:45:00 17.9 C 13.44 g/m*3 17.9 C 0 km/h
2453 17-07-2014 08:50:00 18.1 C 13.44 g/m*3 18.1 C 0 km/h
2454 17-07-2014 08:55:00 18.3 C 13.45 g/m*3 18.3 C 0 km/h
2455 17-07-2014 09:00:00 18.4 C 13.53 g/m*3 18.4 C 0 km/h
2456 17-07-2014 09:05:00 18.6 C 13.69 g/m*3 18.6 C 0 km/h
2457 17-07-2014 09:10:00 18.7 C 13.77 g/m*3 18.7 C 0 km/h
2458 17-07-2014 09:15:00 18.7 C 13.77 g/m*3 18.7 C 0 km/h
2459 17-07-2014 09:20:00 18.7 C 13.77 g/m*3 18.7 C 0 km/h
2460 17-07-2014 09:25:00 18.7 C 13.77 g/m*3 18.7 C 0 km/h
2461 17-07-2014 09:30:00 18.6 C 13.85 g/m*3 18.6 C 0 km/h
2462 17-07-2014 09:35:00 18.6 C 14.01 g/m*3 18.6 C 0 km/h
2463 17-07-2014 09:40:00 18.6 C 14.01 g/m*3 18.6 C 1.6 km/h
2464 17-07-2014 09:45:00 18.8 C 14.01 g/m*3 18.8 C 0 km/h
2465 17-07-2014 09:50:00 19.1 C 14.43 g/m*3 19.1 C 0 km/h
2466 17-07-2014 09:55:00 19.1 C 14.26 g/m*3 19.1 C 1.6 km/h
2467 17-07-2014 10:00:00 19.1 C 14.26 g/m*3 19.1 C 1.6 km/h
2468 17-07-2014 10:10:00 20.9 C 14.75 g/m*3 20.9 C 3.2 km/h
2469 17-07-2014 10:15:00 20.9 C 14.75 g/m*3 20.9 C 1.6 km/h
2470 17-07-2014 10:20:00 20.9 C 14.75 g/m*3 20.9 C 0 km/h
2471 17-07-2014 16:15:00 31.4 C 13.08 g/m*3 31.4 C 4.8 km/h
2472 17-07-2014 16:20:00 31.4 C 15.37 g/m*3 31.4 C 3.2 km/h
2473 17-07-2014 16:25:00 31.7 C 13.62 g/m*3 31.7 C 9.7 km/h
2474 17-07-2014 16:30:00 31.7 C 13.29 g/m*3 31.7 C 6.4 km/h
2475 17-07-2014 16:35:00 31.7 C 16.28 g/m*3 31.7 C 3.2 km/h
Sensor: Nr:Datum:Temp:Abs-Feuchte:Windchill:Wind:
Aussen-T/F 2476 17-07-2014 16:40:00 31.4 C 14.39 g/m*3 31.4 C 8.1 km/h
2477 17-07-2014 16:45:00 31.3 C 14.96 g/m*3 31.3 C 4.8 km/h
2478 17-07-2014 16:50:00 31.2 C 15.53 g/m*3 31.2 C 4.8 km/h
2479 17-07-2014 16:55:00 31.2 C 15.53 g/m*3 31.2 C 8.1 km/h
2480 17-07-2014 17:00:00 31.3 C 12.68 g/m*3 31.3 C 4.8 km/h
2481 17-07-2014 17:05:00 31.6 C 13.22 g/m*3 31.6 C 4.8 km/h
2482 17-07-2014 17:10:00 31.9 C 13.77 g/m*3 31.9 C 8.1 km/h
2483 17-07-2014 17:15:00 32 C 13.84 g/m*3 32 C 8.1 km/h
2484 17-07-2014 17:20:00 31.9 C 13.77 g/m*3 31.9 C 12.9 km/h
2485 17-07-2014 17:25:00 31.8 C 13.69 g/m*3 31.8 C 8.1 km/h
2486 17-07-2014 17:30:00 31.8 C 13.03 g/m*3 31.8 C 8.1 km/h
2487 17-07-2014 17:35:00 31.7 C 12.62 g/m*3 31.7 C 4.8 km/h
2488 17-07-2014 17:40:00 31.9 C 12.76 g/m*3 31.9 C 6.4 km/h
2489 17-07-2014 17:45:00 32.1 C 13.24 g/m*3 32.1 C 8.1 km/h
2490 17-07-2014 17:50:00 32.1 C 14.25 g/m*3 32.1 C 3.2 km/h
2491 17-07-2014 17:55:00 32.2 C 15.01 g/m*3 32.2 C 3.2 km/h
2492 17-07-2014 18:00:00 31.8 C 15.36 g/m*3 31.8 C 3.2 km/h
2493 17-07-2014 18:05:00 31.7 C 12.96 g/m*3 31.7 C 6.4 km/h
2494 17-07-2014 18:10:00 31.6 C 14.21 g/m*3 31.6 C 4.8 km/h
2495 17-07-2014 18:15:00 31.4 C 13.41 g/m*3 31.4 C 4.8 km/h
2496 17-07-2014 18:20:00 31.7 C 12.96 g/m*3 31.7 C 4.8 km/h
2497 17-07-2014 18:25:00 32 C 13.17 g/m*3 32 C 9.7 km/h
2498 17-07-2014 18:30:00 32 C 16.54 g/m*3 32 C 6.4 km/h
2499 17-07-2014 18:35:00 31.3 C 13.98 g/m*3 31.3 C 3.2 km/h
2500 17-07-2014 18:40:00 30.7 C 16.69 g/m*3 30.7 C 1.6 km/h
Sensor: Nr:Datum:Temp:Abs-Feuchte:Windchill:Wind:
Aussen-T/F 2501 17-07-2014 18:45:00 30.2 C 13.49 g/m*3 30.2 C 4.8 km/h
2502 17-07-2014 18:50:00 30.3 C 14.18 g/m*3 30.3 C 4.8 km/h
2503 17-07-2014 18:55:00 30.7 C 16.38 g/m*3 30.7 C 9.7 km/h
2504 17-07-2014 19:00:00 30.7 C 17.01 g/m*3 30.7 C 4.8 km/h
2505 17-07-2014 19:05:00 29.7 C 16.71 g/m*3 29.7 C 1.6 km/h
2506 17-07-2014 19:10:00 28.9 C 16.85 g/m*3 28.9 C 3.2 km/h
2507 17-07-2014 19:15:00 28.4 C 16.68 g/m*3 28.4 C 0 km/h
2508 17-07-2014 19:20:00 28 C 16.86 g/m*3 28 C 1.6 km/h
2509 17-07-2014 19:25:00 27.5 C 16.67 g/m*3 27.5 C 0 km/h
2510 17-07-2014 19:30:00 27.1 C 16.56 g/m*3 27.1 C 0 km/h
2511 17-07-2014 19:35:00 26.8 C 16.8 g/m*3 26.8 C 1.6 km/h
2512 17-07-2014 19:40:00 26.6 C 16.61 g/m*3 26.6 C 1.6 km/h
2513 17-07-2014 19:45:00 26.4 C 16.68 g/m*3 26.4 C 0 km/h
2514 17-07-2014 19:50:00 26.3 C 16.59 g/m*3 26.3 C 0 km/h
2515 17-07-2014 19:55:00 26.1 C 16.65 g/m*3 26.1 C 1.6 km/h
2516 17-07-2014 20:00:00 26 C 16.55 g/m*3 26 C 0 km/h
2517 17-07-2014 20:05:00 25.7 C 16.28 g/m*3 25.7 C 0 km/h
2518 17-07-2014 20:10:00 25.3 C 16.15 g/m*3 25.3 C 1.6 km/h
2519 17-07-2014 20:15:00 24.9 C 16.02 g/m*3 24.9 C 1.6 km/h
2520 17-07-2014 20:20:00 24.6 C 16.21 g/m*3 24.6 C 1.6 km/h
2521 17-07-2014 20:25:00 24.4 C 16.02 g/m*3 24.4 C 0 km/h
2522 17-07-2014 20:30:00 24.2 C 15.84 g/m*3 24.2 C 0 km/h
2523 17-07-2014 20:35:00 24.1 C 15.97 g/m*3 24.1 C 0 km/h
2524 17-07-2014 20:40:00 23.9 C 15.58 g/m*3 23.9 C 0 km/h
2525 17-07-2014 20:45:00 23.7 C 15.61 g/m*3 23.7 C 1.6 km/h
Sensor: Nr:Datum:Temp:Abs-Feuchte:Windchill:Wind:
Aussen-T/F 2526 17-07-2014 20:50:00 23.6 C 15.53 g/m*3 23.6 C 1.6 km/h
2527 17-07-2014 20:55:00 23.4 C 15.56 g/m*3 23.4 C 1.6 km/h
2528 17-07-2014 21:00:00 23.2 C 15.59 g/m*3 23.2 C 0 km/h
2529 17-07-2014 21:05:00 23 C 15.42 g/m*3 23 C 1.6 km/h
2530 17-07-2014 21:10:00 22.8 C 15.44 g/m*3 22.8 C 1.6 km/h
2531 17-07-2014 21:15:00 22.6 C 15.47 g/m*3 22.6 C 1.6 km/h
2532 17-07-2014 21:20:00 22.4 C 15.09 g/m*3 22.4 C 1.6 km/h
2533 17-07-2014 21:25:00 22.3 C 15.2 g/m*3 22.3 C 1.6 km/h
2534 17-07-2014 21:30:00 22.2 C 15.12 g/m*3 22.2 C 0 km/h
2535 17-07-2014 21:35:00 22.1 C 15.03 g/m*3 22.1 C 1.6 km/h
2536 17-07-2014 21:40:00 22 C 14.94 g/m*3 22 C 1.6 km/h
2537 17-07-2014 21:45:00 21.9 C 14.86 g/m*3 21.9 C 1.6 km/h
2538 17-07-2014 21:50:00 21.9 C 15.05 g/m*3 21.9 C 1.6 km/h
2539 17-07-2014 21:55:00 21.8 C 14.77 g/m*3 21.8 C 1.6 km/h
2540 17-07-2014 22:00:00 21.7 C 14.69 g/m*3 21.7 C 1.6 km/h
2541 17-07-2014 22:05:00 21.7 C 14.88 g/m*3 21.7 C 0 km/h
2542 17-07-2014 22:10:00 21.6 C 14.6 g/m*3 21.6 C 0 km/h
2543 17-07-2014 22:15:00 21.5 C 14.52 g/m*3 21.5 C 0 km/h
2544 17-07-2014 22:20:00 21.4 C 14.62 g/m*3 21.4 C 0 km/h
2545 17-07-2014 22:25:00 21.3 C 14.54 g/m*3 21.3 C 0 km/h
2546 17-07-2014 22:30:00 21.3 C 14.91 g/m*3 21.3 C 1.6 km/h
2547 17-07-2014 22:35:00 21.2 C 14.83 g/m*3 21.2 C 0 km/h
2548 17-07-2014 22:40:00 21.2 C 14.83 g/m*3 21.2 C 0 km/h
2549 17-07-2014 22:45:00 21.1 C 14.74 g/m*3 21.1 C 0 km/h
2550 17-07-2014 22:50:00 20.9 C 14.57 g/m*3 20.9 C 0 km/h
Sensor: Nr:Datum:Temp:Abs-Feuchte:Windchill:Wind:
Aussen-T/F 2551 17-07-2014 22:55:00 20.9 C 14.57 g/m*3 20.9 C 0 km/h
2552 17-07-2014 23:00:00 20.8 C 14.49 g/m*3 20.8 C 0 km/h
2553 17-07-2014 23:05:00 20.8 C 14.67 g/m*3 20.8 C 0 km/h
2554 17-07-2014 23:10:00 20.8 C 14.67 g/m*3 20.8 C 0 km/h
2555 17-07-2014 23:15:00 20.8 C 14.67 g/m*3 20.8 C 0 km/h
2556 18-07-2014 02:40:00 17.4 C 13.19 g/m*3 17.4 C 0 km/h
2557 18-07-2014 02:45:00 17.3 C 13.11 g/m*3 17.3 C 0 km/h
2558 18-07-2014 02:50:00 17.3 C 13.11 g/m*3 17.3 C 0 km/h
2559 18-07-2014 02:55:00 17.2 C 13.18 g/m*3 17.2 C 0 km/h
2560 18-07-2014 03:00:00 17.2 C 13.18 g/m*3 17.2 C 0 km/h
2561 18-07-2014 03:05:00 17.2 C 13.18 g/m*3 17.2 C 0 km/h
2562 18-07-2014 03:10:00 17.2 C 13.18 g/m*3 17.2 C 0 km/h
2563 18-07-2014 03:15:00 17 C 13.02 g/m*3 17 C 0 km/h
2564 18-07-2014 03:20:00 16.9 C 12.94 g/m*3 16.9 C 0 km/h
2565 18-07-2014 03:25:00 16.9 C 12.94 g/m*3 16.9 C 0 km/h
2566 18-07-2014 03:30:00 16.8 C 13.01 g/m*3 16.8 C 0 km/h
2567 18-07-2014 03:35:00 16.8 C 13.01 g/m*3 16.8 C 0 km/h
2568 18-07-2014 03:40:00 16.7 C 12.93 g/m*3 16.7 C 0 km/h
2569 18-07-2014 03:45:00 16.6 C 12.86 g/m*3 16.6 C 0 km/h
2570 18-07-2014 03:50:00 16.6 C 12.86 g/m*3 16.6 C 1.6 km/h
2571 18-07-2014 03:55:00 16.6 C 12.86 g/m*3 16.6 C 0 km/h
2572 18-07-2014 04:00:00 16.6 C 12.86 g/m*3 16.6 C 0 km/h
2573 18-07-2014 06:40:00 15.9 C 12.87 g/m*3 15.9 C 0 km/h
2574 18-07-2014 06:45:00 15.9 C 12.87 g/m*3 15.9 C 0 km/h
2575 18-07-2014 06:50:00 16 C 12.94 g/m*3 16 C 0 km/h
Sensor: Nr:Datum:Temp:Abs-Feuchte:Windchill:Wind:
Aussen-T/F 2576 18-07-2014 06:55:00 16.1 C 13.02 g/m*3 16.1 C 0 km/h
2577 18-07-2014 07:00:00 16.1 C 13.02 g/m*3 16.1 C 0 km/h
2578 18-07-2014 07:05:00 16.2 C 13.1 g/m*3 16.2 C 0 km/h
2579 18-07-2014 07:10:00 16.2 C 13.1 g/m*3 16.2 C 0 km/h
2580 18-07-2014 07:15:00 16.2 C 12.96 g/m*3 16.2 C 0 km/h
2581 18-07-2014 07:20:00 16.3 C 13.04 g/m*3 16.3 C 0 km/h
2582 18-07-2014 07:25:00 16.3 C 13.04 g/m*3 16.3 C 0 km/h
2583 18-07-2014 07:30:00 16.4 C 13.26 g/m*3 16.4 C 0 km/h
2584 18-07-2014 07:35:00 16.4 C 13.12 g/m*3 16.4 C 0 km/h
2585 18-07-2014 07:40:00 16.5 C 13.2 g/m*3 16.5 C 0 km/h
2586 18-07-2014 07:45:00 16.5 C 13.2 g/m*3 16.5 C 0 km/h
2587 18-07-2014 07:50:00 16.6 C 13.28 g/m*3 16.6 C 0 km/h
2588 18-07-2014 07:55:00 16.6 C 13.28 g/m*3 16.6 C 0 km/h
2589 18-07-2014 08:00:00 16.8 C 13.44 g/m*3 16.8 C 0 km/h
2590 18-07-2014 08:05:00 17.2 C 13.77 g/m*3 17.2 C 0 km/h
2591 18-07-2014 08:10:00 17.3 C 13.7 g/m*3 17.3 C 0 km/h
2592 18-07-2014 08:15:00 17.8 C 14.12 g/m*3 17.8 C 0 km/h
2593 18-07-2014 08:20:00 18.2 C 14.14 g/m*3 18.2 C 0 km/h
2594 18-07-2014 08:25:00 18.4 C 14.16 g/m*3 18.4 C 0 km/h
2595 18-07-2014 08:30:00 18.7 C 14.25 g/m*3 18.7 C 0 km/h
2596 18-07-2014 08:35:00 19 C 14.34 g/m*3 19 C 0 km/h
2597 18-07-2014 08:40:00 19.2 C 14.51 g/m*3 19.2 C 0 km/h
2598 18-07-2014 08:45:00 19.4 C 14.68 g/m*3 19.4 C 0 km/h
2599 18-07-2014 08:50:00 19.7 C 14.77 g/m*3 19.7 C 0 km/h
2600 18-07-2014 08:55:00 19.9 C 14.78 g/m*3 19.9 C 0 km/h
Sensor: Nr:Datum:Temp:Abs-Feuchte:Windchill:Wind:
Aussen-T/F 2601 18-07-2014 09:00:00 20 C 14.86 g/m*3 20 C 0 km/h
2602 18-07-2014 09:05:00 20.2 C 14.86 g/m*3 20.2 C 0 km/h
2603 18-07-2014 09:10:00 20.3 C 14.95 g/m*3 20.3 C 0 km/h
2604 18-07-2014 09:15:00 20.3 C 14.77 g/m*3 20.3 C 0 km/h
2605 18-07-2014 09:20:00 20.2 C 14.86 g/m*3 20.2 C 0 km/h
2606 18-07-2014 09:25:00 20.1 C 14.78 g/m*3 20.1 C 0 km/h
2607 18-07-2014 09:30:00 20.1 C 14.95 g/m*3 20.1 C 0 km/h
2608 18-07-2014 09:35:00 20.1 C 15.12 g/m*3 20.1 C 1.6 km/h
2609 18-07-2014 09:40:00 20.2 C 15.21 g/m*3 20.2 C 1.6 km/h
2610 18-07-2014 09:45:00 20.3 C 15.3 g/m*3 20.3 C 0 km/h
2611 18-07-2014 09:50:00 20.3 C 15.3 g/m*3 20.3 C 1.6 km/h
2612 18-07-2014 09:55:00 20.5 C 15.48 g/m*3 20.5 C 3.2 km/h
2613 18-07-2014 10:00:00 20.7 C 15.48 g/m*3 20.7 C 1.6 km/h
2614 18-07-2014 10:05:00 20.9 C 15.66 g/m*3 20.9 C 1.6 km/h
2615 18-07-2014 10:10:00 20.9 C 15.66 g/m*3 20.9 C 1.6 km/h
2616 18-07-2014 10:15:00 21.3 C 15.84 g/m*3 21.3 C 0 km/h
2617 18-07-2014 10:20:00 21.3 C 15.84 g/m*3 21.3 C 0 km/h
2618 18-07-2014 13:00:00 29.8 C 15.6 g/m*3 29.8 C 4.8 km/h
2619 18-07-2014 13:05:00 30.2 C 12.87 g/m*3 30.2 C 8.1 km/h
2620 18-07-2014 13:10:00 30.6 C 12.53 g/m*3 30.6 C 6.4 km/h
2621 18-07-2014 13:15:00 30.6 C 13.16 g/m*3 30.6 C 9.7 km/h
2622 18-07-2014 13:20:00 30.6 C 13.16 g/m*3 30.6 C 6.4 km/h
2623 18-07-2014 13:55:00 31.9 C 12.76 g/m*3 31.9 C 6.4 km/h
2624 18-07-2014 14:00:00 32 C 14.52 g/m*3 32 C 6.4 km/h
2625 18-07-2014 14:05:00 32 C 11.82 g/m*3 32 C 6.4 km/h
Sensor: Nr:Datum:Temp:Abs-Feuchte:Windchill:Wind:
Aussen-T/F 2626 18-07-2014 14:10:00 31.9 C 11.75 g/m*3 31.9 C 6.4 km/h
2627 18-07-2014 14:15:00 31.9 C 13.1 g/m*3 31.9 C 8.1 km/h
2628 18-07-2014 14:20:00 31.9 C 13.1 g/m*3 31.9 C 6.4 km/h
2629 18-07-2014 14:25:00 32.1 C 14.59 g/m*3 32.1 C 4.8 km/h
2630 18-07-2014 14:30:00 31.9 C 13.77 g/m*3 31.9 C 8.1 km/h
2631 18-07-2014 14:35:00 32.2 C 13.99 g/m*3 32.2 C 6.4 km/h
2632 18-07-2014 14:40:00 32.3 C 13.38 g/m*3 32.3 C 8.1 km/h
2633 18-07-2014 14:45:00 32.2 C 12.97 g/m*3 32.2 C 9.7 km/h
2634 18-07-2014 14:50:00 32.2 C 12.97 g/m*3 32.2 C 11.3 km/h
2635 18-07-2014 14:55:00 32.2 C 12.97 g/m*3 32.2 C 4.8 km/h
2636 18-07-2014 15:00:00 32.3 C 13.03 g/m*3 32.3 C 11.3 km/h
2637 18-07-2014 15:05:00 32.3 C 13.03 g/m*3 32.3 C 8.1 km/h
2638 18-07-2014 15:10:00 32.3 C 13.03 g/m*3 32.3 C 3.2 km/h
2639 18-07-2014 16:05:00 33.2 C 12.95 g/m*3 33.2 C 16.1 km/h
2640 18-07-2014 16:10:00 33.3 C 13.38 g/m*3 33.3 C 1.6 km/h
2641 18-07-2014 16:15:00 33.3 C 13.38 g/m*3 33.3 C 9.7 km/h
2642 18-07-2014 16:20:00 33.3 C 13.38 g/m*3 33.3 C 8.1 km/h
2643 18-07-2014 16:25:00 33.3 C 13.38 g/m*3 33.3 C 6.4 km/h
2644 18-07-2014 16:30:00 33.8 C 13.74 g/m*3 33.8 C 8.1 km/h
2645 18-07-2014 16:35:00 33.8 C 13.74 g/m*3 33.8 C 4.8 km/h
2646 18-07-2014 16:40:00 33.6 C 13.59 g/m*3 33.6 C 6.4 km/h
2647 18-07-2014 16:45:00 33.6 C 12.86 g/m*3 33.6 C 9.7 km/h
2648 18-07-2014 16:50:00 33.7 C 12.93 g/m*3 33.7 C 8.1 km/h
2649 18-07-2014 16:55:00 34 C 12.01 g/m*3 34 C 6.4 km/h
2650 18-07-2014 17:00:00 33.8 C 11.88 g/m*3 33.8 C 8.1 km/h
Sensor: Nr:Datum:Temp:Abs-Feuchte:Windchill:Wind:
Aussen-T/F 2651 18-07-2014 17:05:00 33.7 C 11.82 g/m*3 33.7 C 8.1 km/h
2652 18-07-2014 17:10:00 33.7 C 11.82 g/m*3 33.7 C 8.1 km/h
2653 18-07-2014 17:15:00 34.1 C 12.07 g/m*3 34.1 C 6.4 km/h
2654 18-07-2014 17:20:00 34.1 C 12.07 g/m*3 34.1 C 4.8 km/h
2655 18-07-2014 17:25:00 33.4 C 11.63 g/m*3 33.4 C 6.4 km/h
2656 18-07-2014 17:30:00 33.5 C 12.06 g/m*3 33.5 C 6.4 km/h
2657 18-07-2014 17:35:00 33.9 C 15.3 g/m*3 33.9 C 4.8 km/h
2658 18-07-2014 17:40:00 33.9 C 11.94 g/m*3 33.9 C 8.1 km/h
2659 18-07-2014 17:45:00 34 C 12.01 g/m*3 34 C 8.1 km/h
2660 18-07-2014 17:50:00 34.2 C 14.41 g/m*3 34.2 C 9.7 km/h
2661 18-07-2014 17:55:00 34.2 C 15.17 g/m*3 34.2 C 4.8 km/h
2662 18-07-2014 18:00:00 33.8 C 13 g/m*3 33.8 C 3.2 km/h
2663 18-07-2014 18:05:00 33.3 C 15.91 g/m*3 33.3 C 6.4 km/h
2664 18-07-2014 18:10:00 32.7 C 14.01 g/m*3 32.7 C 1.6 km/h
2665 18-07-2014 18:15:00 32.8 C 12.68 g/m*3 32.8 C 6.4 km/h
2666 18-07-2014 18:20:00 32.3 C 14.06 g/m*3 32.3 C 3.2 km/h
2667 18-07-2014 18:25:00 31.9 C 16.12 g/m*3 31.9 C 3.2 km/h
2668 18-07-2014 18:30:00 31.5 C 12.49 g/m*3 31.5 C 3.2 km/h
2669 18-07-2014 18:35:00 31.5 C 16.76 g/m*3 31.5 C 4.8 km/h
2670 18-07-2014 18:40:00 30.7 C 16.69 g/m*3 30.7 C 3.2 km/h
2671 18-07-2014 18:45:00 30.3 C 16.64 g/m*3 30.3 C 1.6 km/h
2672 18-07-2014 18:50:00 29.9 C 16.59 g/m*3 29.9 C 3.2 km/h
2673 18-07-2014 18:55:00 29.7 C 16.41 g/m*3 29.7 C 1.6 km/h
2674 18-07-2014 19:00:00 29.4 C 16.44 g/m*3 29.4 C 1.6 km/h
2675 18-07-2014 19:05:00 29.3 C 16.64 g/m*3 29.3 C 1.6 km/h
Sensor: Nr:Datum:Temp:Abs-Feuchte:Windchill:Wind:
Aussen-T/F 2676 18-07-2014 19:10:00 29.2 C 16.55 g/m*3 29.2 C 1.6 km/h
2677 18-07-2014 19:15:00 29.1 C 16.17 g/m*3 29.1 C 1.6 km/h
2678 18-07-2014 19:20:00 28.7 C 16.11 g/m*3 28.7 C 1.6 km/h
2679 18-07-2014 19:25:00 28.4 C 16.12 g/m*3 28.4 C 1.6 km/h
2680 18-07-2014 19:30:00 28.3 C 16.31 g/m*3 28.3 C 1.6 km/h
2681 18-07-2014 19:35:00 28.1 C 16.13 g/m*3 28.1 C 1.6 km/h
2682 18-07-2014 19:40:00 27.9 C 16.23 g/m*3 27.9 C 1.6 km/h
2683 18-07-2014 19:45:00 27.7 C 16.05 g/m*3 27.7 C 1.6 km/h
2684 18-07-2014 19:50:00 27.4 C 15.79 g/m*3 27.4 C 1.6 km/h
2685 18-07-2014 19:55:00 27.1 C 15.53 g/m*3 27.1 C 1.6 km/h
2686 18-07-2014 20:00:00 27 C 15.7 g/m*3 27 C 1.6 km/h
2687 18-07-2014 20:05:00 27 C 15.7 g/m*3 27 C 1.6 km/h
2688 18-07-2014 20:10:00 26.3 C 15.1 g/m*3 26.3 C 1.6 km/h
2689 18-07-2014 20:15:00 26.3 C 15.1 g/m*3 26.3 C 1.6 km/h
2690 18-07-2014 22:00:00 22.9 C 20.44 g/m*3 22.9 C 1.6 km/h
2691 18-07-2014 22:05:00 22.8 C 13.61 g/m*3 22.8 C 1.6 km/h
2692 18-07-2014 22:10:00 22.7 C 13.74 g/m*3 22.7 C 1.6 km/h
2693 18-07-2014 22:15:00 22.7 C 13.54 g/m*3 22.7 C 1.6 km/h
2694 18-07-2014 22:20:00 22.7 C 13.33 g/m*3 22.7 C 1.6 km/h
2695 18-07-2014 22:25:00 22.6 C 13.26 g/m*3 22.6 C 1.6 km/h
2696 18-07-2014 22:30:00 22.6 C 13.46 g/m*3 22.6 C 1.6 km/h
2697 18-07-2014 22:35:00 22.4 C 13.31 g/m*3 22.4 C 1.6 km/h
2698 18-07-2014 22:40:00 22.4 C 13.31 g/m*3 22.4 C 1.6 km/h
2699 18-07-2014 22:45:00 22.4 C 12.51 g/m*3 22.4 C 1.6 km/h
2700 18-07-2014 22:50:00 22.4 C 13.11 g/m*3 22.4 C 0 km/h
Sensor: Nr:Datum:Temp:Abs-Feuchte:Windchill:Wind:
Aussen-T/F 2701 18-07-2014 22:55:00 22.4 C 13.5 g/m*3 22.4 C 1.6 km/h
2702 18-07-2014 23:00:00 22.3 C 13.23 g/m*3 22.3 C 1.6 km/h
2703 18-07-2014 23:05:00 22.2 C 13.35 g/m*3 22.2 C 1.6 km/h
2704 18-07-2014 23:10:00 22.2 C 13.15 g/m*3 22.2 C 1.6 km/h
2705 18-07-2014 23:15:00 22.2 C 13.15 g/m*3 22.2 C 1.6 km/h
2706 18-07-2014 23:20:00 22.1 C 13.08 g/m*3 22.1 C 3.2 km/h
2707 18-07-2014 23:25:00 22.1 C 13.08 g/m*3 22.1 C 1.6 km/h
2708 18-07-2014 23:30:00 22 C 12.81 g/m*3 22 C 1.6 km/h
2709 18-07-2014 23:35:00 22 C 12.62 g/m*3 22 C 1.6 km/h
2710 18-07-2014 23:40:00 22 C 12.62 g/m*3 22 C 1.6 km/h
2711 19-07-2014 07:55:00 16.9 C 12.94 g/m*3 16.9 C 0 km/h
2712 19-07-2014 08:00:00 17.2 C 13.03 g/m*3 17.2 C 0 km/h
2713 19-07-2014 08:05:00 17.5 C 13.12 g/m*3 17.5 C 0 km/h
2714 19-07-2014 08:10:00 17.9 C 13.28 g/m*3 17.9 C 0 km/h
2715 19-07-2014 08:15:00 18.2 C 13.37 g/m*3 18.2 C 0 km/h
2716 19-07-2014 08:20:00 18.6 C 13.69 g/m*3 18.6 C 0 km/h
2717 19-07-2014 08:25:00 18.9 C 13.77 g/m*3 18.9 C 0 km/h
2718 19-07-2014 08:30:00 19.2 C 13.85 g/m*3 19.2 C 0 km/h
2719 19-07-2014 08:35:00 19.4 C 13.85 g/m*3 19.4 C 0 km/h
2720 19-07-2014 08:40:00 19.7 C 14.09 g/m*3 19.7 C 0 km/h
2721 19-07-2014 08:45:00 19.8 C 14.01 g/m*3 19.8 C 0 km/h
2722 19-07-2014 08:50:00 20 C 14.17 g/m*3 20 C 0 km/h
2723 19-07-2014 08:55:00 20.3 C 14.42 g/m*3 20.3 C 0 km/h
2724 19-07-2014 09:35:00 20.7 C 14.58 g/m*3 20.7 C 0 km/h
2725 19-07-2014 09:40:00 20.7 C 14.94 g/m*3 20.7 C 0 km/h
Sensor: Nr:Datum:Temp:Abs-Feuchte:Windchill:Wind:
Aussen-T/F 2726 19-07-2014 09:45:00 20.8 C 15.03 g/m*3 20.8 C 0 km/h
2727 19-07-2014 09:50:00 21 C 15.2 g/m*3 21 C 0 km/h
2728 19-07-2014 09:55:00 21.2 C 15.2 g/m*3 21.2 C 0 km/h
2729 19-07-2014 10:00:00 21.3 C 15.28 g/m*3 21.3 C 0 km/h
2730 19-07-2014 10:05:00 21.6 C 15.55 g/m*3 21.6 C 0 km/h
2731 19-07-2014 10:10:00 22.1 C 15.81 g/m*3 22.1 C 0 km/h
2732 19-07-2014 10:15:00 22.4 C 15.89 g/m*3 22.4 C 0 km/h
2733 19-07-2014 10:20:00 22.7 C 15.96 g/m*3 22.7 C 0 km/h
2734 19-07-2014 10:25:00 23.1 C 16.12 g/m*3 23.1 C 0 km/h
2735 19-07-2014 10:30:00 23.2 C 16.22 g/m*3 23.2 C 0 km/h
2736 19-07-2014 10:35:00 23.3 C 16.31 g/m*3 23.3 C 0 km/h
2737 19-07-2014 10:40:00 23.4 C 15.98 g/m*3 23.4 C 0 km/h
2738 19-07-2014 10:45:00 23.7 C 16.26 g/m*3 23.7 C 0 km/h
2739 19-07-2014 10:50:00 23.8 C 16.35 g/m*3 23.8 C 0 km/h
2740 19-07-2014 10:55:00 23.9 C 16.44 g/m*3 23.9 C 0 km/h
2741 19-07-2014 11:00:00 24.3 C 16.6 g/m*3 24.3 C 0 km/h
2742 19-07-2014 11:05:00 24.7 C 16.98 g/m*3 24.7 C 0 km/h
2743 19-07-2014 11:10:00 25.2 C 16.76 g/m*3 25.2 C 1.6 km/h
2744 19-07-2014 11:15:00 25.3 C 17.09 g/m*3 25.3 C 1.6 km/h
2745 19-07-2014 11:20:00 25.7 C 14.6 g/m*3 25.7 C 1.6 km/h
2746 19-07-2014 11:25:00 26.3 C 16.83 g/m*3 26.3 C 3.2 km/h
2747 19-07-2014 11:30:00 26.7 C 16.96 g/m*3 26.7 C 4.8 km/h
2748 19-07-2014 11:35:00 27.3 C 13.34 g/m*3 27.3 C 14.5 km/h
2749 19-07-2014 11:40:00 28.5 C 16.49 g/m*3 28.5 C 14.5 km/h
2750 19-07-2014 11:45:00 28.8 C 15.91 g/m*3 28.8 C 3.2 km/h
Sensor: Nr:Datum:Temp:Abs-Feuchte:Windchill:Wind:
Aussen-T/F 2751 19-07-2014 11:50:00 29.1 C 16.17 g/m*3 29.1 C 6.4 km/h
2752 19-07-2014 11:55:00 28.9 C 16.57 g/m*3 28.9 C 11.3 km/h
2753 19-07-2014 12:00:00 29.3 C 15.47 g/m*3 29.3 C 8.1 km/h
2754 19-07-2014 12:05:00 29.2 C 16.26 g/m*3 29.2 C 1.6 km/h
2755 19-07-2014 12:10:00 29.3 C 13.14 g/m*3 29.3 C 8.1 km/h
2756 19-07-2014 12:15:00 29.8 C 13.2 g/m*3 29.8 C 12.9 km/h
2757 19-07-2014 12:20:00 30.2 C 15.63 g/m*3 30.2 C 6.4 km/h
2758 19-07-2014 12:25:00 30.7 C 14.17 g/m*3 30.7 C 6.4 km/h
2759 19-07-2014 12:30:00 31.2 C 12.94 g/m*3 31.2 C 9.7 km/h
2760 19-07-2014 12:35:00 31.6 C 14.21 g/m*3 31.6 C 9.7 km/h
2761 19-07-2014 12:40:00 31.6 C 13.88 g/m*3 31.6 C 6.4 km/h
2762 19-07-2014 12:45:00 31.8 C 12.02 g/m*3 31.8 C 8.1 km/h
2763 19-07-2014 12:50:00 32 C 12.83 g/m*3 32 C 11.3 km/h
2764 19-07-2014 12:55:00 32.2 C 14.33 g/m*3 32.2 C 8.1 km/h
2765 19-07-2014 13:00:00 32.3 C 12.35 g/m*3 32.3 C 6.4 km/h
2766 19-07-2014 13:05:00 32.4 C 12.07 g/m*3 32.4 C 8.1 km/h
2767 19-07-2014 13:10:00 32.3 C 12.01 g/m*3 32.3 C 6.4 km/h
2768 19-07-2014 13:15:00 32.4 C 12.41 g/m*3 32.4 C 8.1 km/h
2769 19-07-2014 13:20:00 32.7 C 15.07 g/m*3 32.7 C 8.1 km/h
2770 19-07-2014 13:25:00 32.6 C 11.85 g/m*3 32.6 C 9.7 km/h
2771 19-07-2014 13:30:00 32.6 C 13.59 g/m*3 32.6 C 6.4 km/h
2772 19-07-2014 13:35:00 32.6 C 12.2 g/m*3 32.6 C 9.7 km/h
2773 19-07-2014 13:40:00 32.5 C 12.83 g/m*3 32.5 C 8.1 km/h
2774 19-07-2014 13:45:00 32.6 C 12.55 g/m*3 32.6 C 8.1 km/h
2775 19-07-2014 13:50:00 32.7 C 12.61 g/m*3 32.7 C 11.3 km/h
Sensor: Nr:Datum:Temp:Abs-Feuchte:Windchill:Wind:
Aussen-T/F 2776 19-07-2014 13:55:00 32.8 C 12.33 g/m*3 32.8 C 6.4 km/h
2777 19-07-2014 14:00:00 33.2 C 12.23 g/m*3 33.2 C 9.7 km/h
2778 19-07-2014 14:05:00 33.2 C 11.51 g/m*3 33.2 C 16.1 km/h
2779 19-07-2014 14:10:00 32.9 C 11.69 g/m*3 32.9 C 16.1 km/h
2780 19-07-2014 14:15:00 33.1 C 11.81 g/m*3 33.1 C 6.4 km/h
2781 19-07-2014 14:20:00 32.9 C 14.52 g/m*3 32.9 C 8.1 km/h
2782 19-07-2014 14:25:00 32.9 C 13.81 g/m*3 32.9 C 8.1 km/h
2783 19-07-2014 14:30:00 33.2 C 13.31 g/m*3 33.2 C 8.1 km/h
2784 19-07-2014 14:35:00 33.5 C 12.79 g/m*3 33.5 C 8.1 km/h
2785 19-07-2014 14:40:00 33.4 C 12.36 g/m*3 33.4 C 12.9 km/h
2786 19-07-2014 14:45:00 33.3 C 13.02 g/m*3 33.3 C 12.9 km/h
2787 19-07-2014 14:50:00 33.6 C 13.23 g/m*3 33.6 C 8.1 km/h
2788 19-07-2014 14:55:00 33.6 C 12.86 g/m*3 33.6 C 16.1 km/h
2789 19-07-2014 15:00:00 33.8 C 13.37 g/m*3 33.8 C 9.7 km/h
2790 19-07-2014 15:05:00 33.8 C 13 g/m*3 33.8 C 11.3 km/h
2791 19-07-2014 15:10:00 33.9 C 14.93 g/m*3 33.9 C 6.4 km/h
2792 19-07-2014 15:15:00 34.2 C 15.55 g/m*3 34.2 C 4.8 km/h
2793 19-07-2014 15:20:00 34.6 C 13.16 g/m*3 34.6 C 8.1 km/h
2794 19-07-2014 15:25:00 34.7 C 13.23 g/m*3 34.7 C 8.1 km/h
2795 19-07-2014 15:30:00 34.8 C 12.91 g/m*3 34.8 C 4.8 km/h
2796 19-07-2014 15:35:00 34.8 C 13.3 g/m*3 34.8 C 9.7 km/h
2797 19-07-2014 15:40:00 34.8 C 13.69 g/m*3 34.8 C 9.7 km/h
2798 19-07-2014 15:45:00 34.7 C 12.84 g/m*3 34.7 C 8.1 km/h
2799 19-07-2014 15:50:00 34.8 C 12.91 g/m*3 34.8 C 6.4 km/h
2800 19-07-2014 15:55:00 34.9 C 13.76 g/m*3 34.9 C 12.9 km/h
Sensor: Nr:Datum:Temp:Abs-Feuchte:Windchill:Wind:
Aussen-T/F 2801 19-07-2014 16:00:00 34.8 C 15.26 g/m*3 34.8 C 6.4 km/h
2802 19-07-2014 16:05:00 34.8 C 12.91 g/m*3 34.8 C 8.1 km/h
2803 19-07-2014 16:10:00 34.6 C 13.55 g/m*3 34.6 C 6.4 km/h
2804 19-07-2014 16:15:00 34.7 C 12.45 g/m*3 34.7 C 9.7 km/h
2805 19-07-2014 16:20:00 34.7 C 12.84 g/m*3 34.7 C 4.8 km/h
2806 19-07-2014 16:25:00 34.6 C 12.39 g/m*3 34.6 C 8.1 km/h
2807 19-07-2014 16:30:00 34.7 C 13.62 g/m*3 34.7 C 8.1 km/h
2808 19-07-2014 16:35:00 34.8 C 14.08 g/m*3 34.8 C 11.3 km/h
2809 19-07-2014 16:40:00 34.5 C 13.48 g/m*3 34.5 C 9.7 km/h
2810 19-07-2014 16:45:00 33.9 C 15.68 g/m*3 33.9 C 1.6 km/h
2811 19-07-2014 16:50:00 32.7 C 13.66 g/m*3 32.7 C 4.8 km/h
2812 19-07-2014 16:55:00 32.1 C 16.29 g/m*3 32.1 C 3.2 km/h
2813 19-07-2014 17:00:00 31.6 C 16.52 g/m*3 31.6 C 3.2 km/h
2814 19-07-2014 17:05:00 31.2 C 17.47 g/m*3 31.2 C 4.8 km/h
2815 19-07-2014 17:10:00 31.8 C 15.03 g/m*3 31.8 C 6.4 km/h
2816 19-07-2014 17:15:00 32.6 C 16.03 g/m*3 32.6 C 9.7 km/h
2817 19-07-2014 17:20:00 32.4 C 16.21 g/m*3 32.4 C 0 km/h
2818 19-07-2014 17:25:00 31.7 C 16.94 g/m*3 31.7 C 0 km/h
2819 19-07-2014 17:30:00 30.7 C 17.63 g/m*3 30.7 C 0 km/h
2820 19-07-2014 17:35:00 29.9 C 17.49 g/m*3 29.9 C 0 km/h
2821 19-07-2014 17:40:00 29.6 C 18.1 g/m*3 29.6 C 1.6 km/h
2822 19-07-2014 17:45:00 29.9 C 18.1 g/m*3 29.9 C 0 km/h
2823 19-07-2014 17:50:00 30.3 C 18.49 g/m*3 30.3 C 0 km/h
2824 19-07-2014 17:55:00 30.4 C 18.28 g/m*3 30.4 C 1.6 km/h
2825 19-07-2014 18:00:00 30.3 C 18.49 g/m*3 30.3 C 0 km/h
Sensor: Nr:Datum:Temp:Abs-Feuchte:Windchill:Wind:
Aussen-T/F 2826 19-07-2014 18:05:00 30.2 C 18.39 g/m*3 30.2 C 0 km/h
2827 19-07-2014 18:10:00 29.8 C 18 g/m*3 29.8 C 1.6 km/h
2828 19-07-2014 18:15:00 29.8 C 18 g/m*3 29.8 C 3.2 km/h
2829 19-07-2014 18:20:00 29.8 C 18 g/m*3 29.8 C 3.2 km/h
2830 19-07-2014 18:25:00 29.9 C 18.1 g/m*3 29.9 C 1.6 km/h
2831 19-07-2014 18:30:00 30.1 C 17.38 g/m*3 30.1 C 1.6 km/h
2832 19-07-2014 18:35:00 30.1 C 17.99 g/m*3 30.1 C 1.6 km/h
2833 19-07-2014 18:40:00 29.9 C 17.49 g/m*3 29.9 C 1.6 km/h
2834 19-07-2014 18:45:00 29.7 C 17.01 g/m*3 29.7 C 0 km/h
2835 19-07-2014 18:50:00 29.7 C 17.9 g/m*3 29.7 C 0 km/h
2836 19-07-2014 18:55:00 29.7 C 17.6 g/m*3 29.7 C 1.6 km/h
2837 19-07-2014 19:00:00 29.5 C 17.41 g/m*3 29.5 C 1.6 km/h
2838 19-07-2014 19:05:00 29.2 C 17.13 g/m*3 29.2 C 0 km/h
2839 19-07-2014 19:10:00 29.1 C 17.33 g/m*3 29.1 C 1.6 km/h
2840 19-07-2014 19:15:00 28.9 C 16.57 g/m*3 28.9 C 1.6 km/h
2841 19-07-2014 19:20:00 28.8 C 17.05 g/m*3 28.8 C 1.6 km/h
2842 19-07-2014 19:25:00 28.7 C 17.24 g/m*3 28.7 C 0 km/h
2843 19-07-2014 19:30:00 28.6 C 16.86 g/m*3 28.6 C 3.2 km/h
2844 19-07-2014 19:35:00 28.4 C 16.68 g/m*3 28.4 C 3.2 km/h
2845 19-07-2014 19:40:00 28.2 C 16.5 g/m*3 28.2 C 1.6 km/h
2846 19-07-2014 19:45:00 27.9 C 16.77 g/m*3 27.9 C 0 km/h
2847 19-07-2014 19:50:00 27.6 C 16.49 g/m*3 27.6 C 1.6 km/h
2848 19-07-2014 19:55:00 27.3 C 16.22 g/m*3 27.3 C 1.6 km/h
2849 19-07-2014 20:00:00 26.9 C 16.12 g/m*3 26.9 C 1.6 km/h
2850 19-07-2014 20:05:00 26.6 C 16.11 g/m*3 26.6 C 1.6 km/h
Sensor: Nr:Datum:Temp:Abs-Feuchte:Windchill:Wind:
Aussen-T/F 2851 19-07-2014 20:10:00 26.3 C 16.09 g/m*3 26.3 C 1.6 km/h
2852 19-07-2014 20:15:00 26.1 C 16.16 g/m*3 26.1 C 1.6 km/h
2853 19-07-2014 20:20:00 25.9 C 15.98 g/m*3 25.9 C 1.6 km/h
2854 19-07-2014 20:25:00 25.7 C 16.04 g/m*3 25.7 C 0 km/h
2855 19-07-2014 20:30:00 25.6 C 15.95 g/m*3 25.6 C 0 km/h
2856 19-07-2014 20:35:00 25.4 C 15.77 g/m*3 25.4 C 1.6 km/h
2857 19-07-2014 20:40:00 25.3 C 15.92 g/m*3 25.3 C 1.6 km/h
2858 19-07-2014 20:45:00 25.2 C 15.6 g/m*3 25.2 C 0 km/h
2859 19-07-2014 20:50:00 25.2 C 15.83 g/m*3 25.2 C 1.6 km/h
2860 19-07-2014 20:55:00 25.1 C 15.74 g/m*3 25.1 C 1.6 km/h
2861 19-07-2014 21:00:00 25.1 C 15.74 g/m*3 25.1 C 0 km/h
2862 19-07-2014 21:05:00 25.1 C 15.51 g/m*3 25.1 C 3.2 km/h
2863 19-07-2014 21:10:00 25 C 15.42 g/m*3 25 C 1.6 km/h
2864 19-07-2014 21:15:00 24.9 C 15.57 g/m*3 24.9 C 1.6 km/h
2865 19-07-2014 21:20:00 24.8 C 15.48 g/m*3 24.8 C 1.6 km/h
2866 19-07-2014 21:25:00 24.7 C 15.39 g/m*3 24.7 C 1.6 km/h
2867 19-07-2014 21:30:00 24.7 C 15.16 g/m*3 24.7 C 1.6 km/h
2868 19-07-2014 21:35:00 24.6 C 15.08 g/m*3 24.6 C 1.6 km/h
2869 19-07-2014 21:40:00 24.4 C 15.13 g/m*3 24.4 C 1.6 km/h
2870 19-07-2014 21:45:00 24.3 C 15.05 g/m*3 24.3 C 1.6 km/h
2871 19-07-2014 21:50:00 24.2 C 14.96 g/m*3 24.2 C 0 km/h
2872 19-07-2014 21:55:00 24.2 C 14.74 g/m*3 24.2 C 0 km/h
2873 19-07-2014 22:00:00 24.2 C 14.74 g/m*3 24.2 C 0 km/h
2874 19-07-2014 22:05:00 24.2 C 14.74 g/m*3 24.2 C 0 km/h
2875 19-07-2014 22:10:00 24.1 C 14.88 g/m*3 24.1 C 0 km/h
Sensor: Nr:Datum:Temp:Abs-Feuchte:Windchill:Wind:
Aussen-T/F 2876 19-07-2014 22:15:00 24.1 C 14.88 g/m*3 24.1 C 0 km/h
2877 19-07-2014 22:20:00 24 C 14.79 g/m*3 24 C 0 km/h
2878 19-07-2014 22:25:00 23.9 C 14.71 g/m*3 23.9 C 0 km/h
2879 19-07-2014 22:30:00 23.8 C 14.84 g/m*3 23.8 C 0 km/h
2880 19-07-2014 22:35:00 23.8 C 14.63 g/m*3 23.8 C 1.6 km/h
2881 19-07-2014 22:40:00 23.7 C 14.76 g/m*3 23.7 C 1.6 km/h
2882 19-07-2014 22:45:00 23.6 C 14.89 g/m*3 23.6 C 1.6 km/h
2883 19-07-2014 22:50:00 23.4 C 14.72 g/m*3 23.4 C 0 km/h
2884 19-07-2014 22:55:00 23.4 C 14.72 g/m*3 23.4 C 0 km/h
2885 19-07-2014 23:00:00 23.3 C 14.64 g/m*3 23.3 C 0 km/h
2886 19-07-2014 23:05:00 23.2 C 14.76 g/m*3 23.2 C 0 km/h
2887 19-07-2014 23:10:00 23.1 C 14.68 g/m*3 23.1 C 0 km/h
2888 19-07-2014 23:15:00 23.1 C 14.88 g/m*3 23.1 C 0 km/h
2889 19-07-2014 23:20:00 23 C 14.59 g/m*3 23 C 0 km/h
2890 19-07-2014 23:25:00 22.9 C 14.71 g/m*3 22.9 C 0 km/h
2891 19-07-2014 23:30:00 22.8 C 14.63 g/m*3 22.8 C 0 km/h
2892 19-07-2014 23:35:00 22.8 C 14.63 g/m*3 22.8 C 0 km/h
2893 19-07-2014 23:40:00 22.7 C 14.55 g/m*3 22.7 C 0 km/h
2894 19-07-2014 23:45:00 22.6 C 14.66 g/m*3 22.6 C 0 km/h
2895 19-07-2014 23:50:00 22.4 C 14.5 g/m*3 22.4 C 0 km/h
2896 19-07-2014 23:55:00 22.3 C 14.81 g/m*3 22.3 C 0 km/h
2897 20-07-2014 00:00:00 22.2 C 14.53 g/m*3 22.2 C 0 km/h
2898 20-07-2014 00:05:00 22.1 C 14.64 g/m*3 22.1 C 0 km/h
2899 20-07-2014 00:10:00 21.9 C 14.28 g/m*3 21.9 C 0 km/h
2900 20-07-2014 00:15:00 21.9 C 14.28 g/m*3 21.9 C 0 km/h
Sensor: Nr:Datum:Temp:Abs-Feuchte:Windchill:Wind:
Aussen-T/F 2901 20-07-2014 00:20:00 21.8 C 14.39 g/m*3 21.8 C 0 km/h
2902 20-07-2014 00:25:00 21.8 C 14.58 g/m*3 21.8 C 0 km/h
2903 20-07-2014 00:30:00 21.7 C 14.5 g/m*3 21.7 C 0 km/h
2904 20-07-2014 00:35:00 21.7 C 14.5 g/m*3 21.7 C 0 km/h
2905 20-07-2014 00:40:00 21.6 C 14.6 g/m*3 21.6 C 0 km/h
2906 20-07-2014 00:45:00 21.6 C 14.79 g/m*3 21.6 C 0 km/h
2907 20-07-2014 00:50:00 21.5 C 14.52 g/m*3 21.5 C 0 km/h
2908 20-07-2014 00:55:00 21.6 C 14.6 g/m*3 21.6 C 0 km/h
2909 20-07-2014 01:00:00 21.5 C 14.52 g/m*3 21.5 C 0 km/h
2910 20-07-2014 01:05:00 21.4 C 14.44 g/m*3 21.4 C 0 km/h
2911 20-07-2014 01:10:00 21.3 C 14.17 g/m*3 21.3 C 0 km/h
2912 20-07-2014 01:15:00 21.3 C 14.35 g/m*3 21.3 C 0 km/h
2913 20-07-2014 01:20:00 21.2 C 14.46 g/m*3 21.2 C 0 km/h
2914 20-07-2014 01:25:00 21.1 C 14.37 g/m*3 21.1 C 0 km/h
2915 20-07-2014 01:30:00 20.9 C 14.02 g/m*3 20.9 C 0 km/h
2916 20-07-2014 01:35:00 20.9 C 14.21 g/m*3 20.9 C 0 km/h
2917 20-07-2014 01:40:00 20.9 C 14.02 g/m*3 20.9 C 0 km/h
2918 20-07-2014 01:45:00 21 C 14.29 g/m*3 21 C 0 km/h
2919 20-07-2014 01:50:00 21.1 C 14.56 g/m*3 21.1 C 0 km/h
2920 20-07-2014 01:55:00 21.2 C 14.27 g/m*3 21.2 C 1.6 km/h
2921 20-07-2014 02:00:00 21.3 C 14.17 g/m*3 21.3 C 0 km/h
2922 20-07-2014 02:05:00 21.3 C 14.17 g/m*3 21.3 C 1.6 km/h
2923 20-07-2014 02:10:00 21.3 C 14.17 g/m*3 21.3 C 0 km/h
2924 20-07-2014 02:15:00 21.3 C 14.35 g/m*3 21.3 C 0 km/h
2925 20-07-2014 02:20:00 21.2 C 14.27 g/m*3 21.2 C 0 km/h
Sensor: Nr:Datum:Temp:Abs-Feuchte:Windchill:Wind:
Aussen-T/F 2926 20-07-2014 02:25:00 21.1 C 14.19 g/m*3 21.1 C 0 km/h
2927 20-07-2014 02:30:00 20.9 C 14.39 g/m*3 20.9 C 0 km/h
2928 20-07-2014 02:35:00 20.9 C 14.75 g/m*3 20.9 C 0 km/h
2929 20-07-2014 02:40:00 20.8 C 14.49 g/m*3 20.8 C 0 km/h
2930 20-07-2014 02:45:00 20.7 C 14.4 g/m*3 20.7 C 0 km/h
2931 20-07-2014 02:50:00 20.6 C 14.32 g/m*3 20.6 C 0 km/h
2932 20-07-2014 02:55:00 20.6 C 14.32 g/m*3 20.6 C 0 km/h
2933 20-07-2014 03:00:00 20.6 C 14.32 g/m*3 20.6 C 0 km/h
2934 20-07-2014 03:05:00 20.6 C 14.5 g/m*3 20.6 C 0 km/h
2935 20-07-2014 03:10:00 20.5 C 14.41 g/m*3 20.5 C 0 km/h
2936 20-07-2014 03:15:00 20.4 C 14.15 g/m*3 20.4 C 0 km/h
2937 20-07-2014 03:20:00 20.4 C 14.33 g/m*3 20.4 C 0 km/h
2938 20-07-2014 03:25:00 20.3 C 14.25 g/m*3 20.3 C 0 km/h
2939 20-07-2014 03:30:00 20.2 C 14.16 g/m*3 20.2 C 0 km/h
2940 20-07-2014 03:35:00 20.2 C 14.16 g/m*3 20.2 C 0 km/h
2941 20-07-2014 03:40:00 20.1 C 14.08 g/m*3 20.1 C 0 km/h
2942 20-07-2014 03:45:00 20.1 C 14.08 g/m*3 20.1 C 0 km/h
2943 20-07-2014 03:50:00 20.1 C 14.08 g/m*3 20.1 C 0 km/h
2944 20-07-2014 03:55:00 20 C 13.83 g/m*3 20 C 0 km/h
2945 20-07-2014 04:00:00 20.1 C 13.91 g/m*3 20.1 C 0 km/h
2946 20-07-2014 04:05:00 20.1 C 14.25 g/m*3 20.1 C 3.2 km/h
2947 20-07-2014 04:10:00 20.1 C 14.25 g/m*3 20.1 C 0 km/h
2948 20-07-2014 04:15:00 20.1 C 14.25 g/m*3 20.1 C 0 km/h
2949 20-07-2014 04:20:00 20.1 C 14.25 g/m*3 20.1 C 0 km/h
2950 20-07-2014 04:25:00 20 C 14 g/m*3 20 C 1.6 km/h
Sensor: Nr:Datum:Temp:Abs-Feuchte:Windchill:Wind:
Aussen-T/F 2951 20-07-2014 04:30:00 20 C 14 g/m*3 20 C 0 km/h
2952 20-07-2014 04:35:00 20.1 C 14.25 g/m*3 20.1 C 0 km/h
2953 20-07-2014 04:40:00 20.2 C 14.34 g/m*3 20.2 C 0 km/h
2954 20-07-2014 04:45:00 20.2 C 14.16 g/m*3 20.2 C 6.4 km/h
2955 20-07-2014 04:50:00 20.6 C 14.32 g/m*3 20.6 C 11.3 km/h
2956 20-07-2014 04:55:00 20.8 C 14.3 g/m*3 20.8 C 6.4 km/h
2957 20-07-2014 05:00:00 20.8 C 14.3 g/m*3 20.8 C 6.4 km/h
2958 20-07-2014 05:05:00 20.7 C 14.4 g/m*3 20.7 C 1.6 km/h
2959 20-07-2014 05:10:00 20.7 C 14.4 g/m*3 20.7 C 1.6 km/h
2960 20-07-2014 05:15:00 20.6 C 14.32 g/m*3 20.6 C 3.2 km/h
2961 20-07-2014 05:20:00 20.6 C 14.68 g/m*3 20.6 C 1.6 km/h
2962 20-07-2014 05:25:00 20.4 C 14.68 g/m*3 20.4 C 1.6 km/h
2963 20-07-2014 05:30:00 20.3 C 14.25 g/m*3 20.3 C 4.8 km/h
2964 20-07-2014 05:35:00 20.3 C 14.42 g/m*3 20.3 C 3.2 km/h
2965 20-07-2014 05:40:00 20.4 C 14.51 g/m*3 20.4 C 1.6 km/h
2966 20-07-2014 05:45:00 20.3 C 14.77 g/m*3 20.3 C 1.6 km/h
2967 20-07-2014 05:50:00 20.1 C 14.95 g/m*3 20.1 C 0 km/h
2968 20-07-2014 05:55:00 19.8 C 14.86 g/m*3 19.8 C 0 km/h
2969 20-07-2014 06:00:00 19.7 C 15.11 g/m*3 19.7 C 1.6 km/h
2970 20-07-2014 06:05:00 19.4 C 14.85 g/m*3 19.4 C 1.6 km/h
2971 20-07-2014 06:10:00 19.3 C 14.93 g/m*3 19.3 C 0 km/h
2972 20-07-2014 06:15:00 19.2 C 15.01 g/m*3 19.2 C 1.6 km/h
2973 20-07-2014 06:20:00 19.2 C 15.01 g/m*3 19.2 C 0 km/h
2974 20-07-2014 06:25:00 19.2 C 15.01 g/m*3 19.2 C 0 km/h
2975 20-07-2014 06:30:00 19.1 C 15.08 g/m*3 19.1 C 0 km/h
Sensor: Nr:Datum:Temp:Abs-Feuchte:Windchill:Wind:
Aussen-T/F 2976 20-07-2014 06:35:00 19.1 C 15.08 g/m*3 19.1 C 0 km/h
2977 20-07-2014 06:40:00 19.1 C 15.08 g/m*3 19.1 C 0 km/h
2978 20-07-2014 06:45:00 19 C 14.83 g/m*3 19 C 1.6 km/h
2979 20-07-2014 06:50:00 19 C 14.99 g/m*3 19 C 1.6 km/h
2980 20-07-2014 06:55:00 19 C 14.99 g/m*3 19 C 0 km/h
2981 20-07-2014 07:00:00 19 C 15.16 g/m*3 19 C 0 km/h
2982 20-07-2014 07:05:00 19 C 15.16 g/m*3 19 C 0 km/h
2983 20-07-2014 07:10:00 19 C 15.16 g/m*3 19 C 0 km/h
2984 20-07-2014 07:15:00 18.9 C 15.07 g/m*3 18.9 C 0 km/h
2985 20-07-2014 07:20:00 18.9 C 15.23 g/m*3 18.9 C 1.6 km/h
2986 20-07-2014 07:25:00 18.9 C 15.23 g/m*3 18.9 C 0 km/h
2987 20-07-2014 07:30:00 18.9 C 15.23 g/m*3 18.9 C 1.6 km/h
2988 20-07-2014 07:35:00 19 C 15.32 g/m*3 19 C 3.2 km/h
2989 20-07-2014 07:40:00 19.1 C 15.41 g/m*3 19.1 C 4.8 km/h
2990 20-07-2014 07:45:00 19.2 C 15.66 g/m*3 19.2 C 1.6 km/h
2991 20-07-2014 07:50:00 19.3 C 15.76 g/m*3 19.3 C 0 km/h
2992 20-07-2014 07:55:00 19.3 C 15.76 g/m*3 19.3 C 0 km/h
2993 20-07-2014 08:00:00 19.4 C 15.85 g/m*3 19.4 C 3.2 km/h
2994 20-07-2014 08:05:00 19.4 C 15.85 g/m*3 19.4 C 1.6 km/h
2995 20-07-2014 08:10:00 19.5 C 15.94 g/m*3 19.5 C 0 km/h
2996 20-07-2014 08:15:00 19.4 C 15.68 g/m*3 19.4 C 6.4 km/h
2997 20-07-2014 08:20:00 19.6 C 15.87 g/m*3 19.6 C 3.2 km/h
2998 20-07-2014 08:25:00 19.8 C 16.06 g/m*3 19.8 C 1.6 km/h
2999 20-07-2014 08:30:00 19.8 C 15.89 g/m*3 19.8 C 1.6 km/h
3000 20-07-2014 08:35:00 19.9 C 16.15 g/m*3 19.9 C 0 km/h
Sensor: Nr:Datum:Temp:Abs-Feuchte:Windchill:Wind:
Aussen-T/F 3001 20-07-2014 08:40:00 20.1 C 16.34 g/m*3 20.1 C 0 km/h
3002 20-07-2014 08:45:00 20.2 C 16.44 g/m*3 20.2 C 1.6 km/h
3003 20-07-2014 08:50:00 20.3 C 16.53 g/m*3 20.3 C 0 km/h
3004 20-07-2014 08:55:00 20.3 C 16.53 g/m*3 20.3 C 0 km/h
3005 20-07-2014 09:00:00 20.4 C 16.63 g/m*3 20.4 C 1.6 km/h
3006 20-07-2014 09:05:00 20.5 C 16.73 g/m*3 20.5 C 1.6 km/h
3007 20-07-2014 09:10:00 20.6 C 16.82 g/m*3 20.6 C 0 km/h
3008 20-07-2014 09:15:00 20.7 C 16.92 g/m*3 20.7 C 0 km/h
3009 20-07-2014 09:20:00 20.7 C 16.92 g/m*3 20.7 C 0 km/h
3010 20-07-2014 09:25:00 20.8 C 17.02 g/m*3 20.8 C 0 km/h
3011 20-07-2014 09:30:00 21 C 17.22 g/m*3 21 C 0 km/h
3012 20-07-2014 09:35:00 21.1 C 17.14 g/m*3 21.1 C 0 km/h
3013 20-07-2014 09:40:00 21.2 C 17.23 g/m*3 21.2 C 0 km/h
3014 20-07-2014 09:45:00 21.3 C 17.34 g/m*3 21.3 C 0 km/h
3015 20-07-2014 09:50:00 21.6 C 17.64 g/m*3 21.6 C 0 km/h
3016 20-07-2014 09:55:00 21.7 C 17.55 g/m*3 21.7 C 0 km/h
3017 20-07-2014 10:00:00 21.8 C 17.46 g/m*3 21.8 C 0 km/h
3018 20-07-2014 10:05:00 21.9 C 17.56 g/m*3 21.9 C 0 km/h
3019 20-07-2014 10:10:00 22.2 C 17.67 g/m*3 22.2 C 1.6 km/h
3020 20-07-2014 10:15:00 22.4 C 17.68 g/m*3 22.4 C 0 km/h
3021 20-07-2014 10:20:00 22.5 C 17.78 g/m*3 22.5 C 0 km/h
3022 20-07-2014 10:25:00 22.4 C 17.68 g/m*3 22.4 C 0 km/h
3023 20-07-2014 10:30:00 22.4 C 17.68 g/m*3 22.4 C 0 km/h
3024 20-07-2014 10:35:00 22.4 C 17.68 g/m*3 22.4 C 0 km/h
3025 20-07-2014 10:40:00 22.4 C 17.68 g/m*3 22.4 C 0 km/h
Sensor: Nr:Datum:Temp:Abs-Feuchte:Windchill:Wind:
Aussen-T/F 3026 20-07-2014 10:45:00 22.5 C 17.78 g/m*3 22.5 C 0 km/h
3027 20-07-2014 10:50:00 22.6 C 17.88 g/m*3 22.6 C 0 km/h
3028 20-07-2014 10:55:00 22.7 C 18.18 g/m*3 22.7 C 0 km/h
3029 20-07-2014 11:00:00 22.8 C 18.08 g/m*3 22.8 C 0 km/h
3030 20-07-2014 11:05:00 22.9 C 17.98 g/m*3 22.9 C 0 km/h
3031 20-07-2014 11:10:00 23.1 C 18.4 g/m*3 23.1 C 0 km/h
3032 20-07-2014 11:15:00 23.3 C 18.61 g/m*3 23.3 C 0 km/h
3033 20-07-2014 11:20:00 23.4 C 18.5 g/m*3 23.4 C 3.2 km/h
3034 20-07-2014 11:25:00 23.7 C 18.61 g/m*3 23.7 C 0 km/h
3035 20-07-2014 11:30:00 23.9 C 16.87 g/m*3 23.9 C 4.8 km/h
3036 20-07-2014 11:35:00 24.1 C 18.16 g/m*3 24.1 C 0 km/h
3037 20-07-2014 11:40:00 23.9 C 17.96 g/m*3 23.9 C 1.6 km/h
3038 20-07-2014 11:45:00 23.8 C 18.07 g/m*3 23.8 C 0 km/h
3039 20-07-2014 11:50:00 23.8 C 18.28 g/m*3 23.8 C 1.6 km/h
3040 20-07-2014 11:55:00 23.8 C 18.28 g/m*3 23.8 C 1.6 km/h
3041 20-07-2014 12:00:00 23.8 C 18.28 g/m*3 23.8 C 0 km/h
3042 20-07-2014 12:05:00 23.8 C 18.5 g/m*3 23.8 C 0 km/h
3043 20-07-2014 12:10:00 23.8 C 18.07 g/m*3 23.8 C 0 km/h
3044 20-07-2014 12:15:00 23.9 C 16.44 g/m*3 23.9 C 3.2 km/h
3045 20-07-2014 12:20:00 24.6 C 18.23 g/m*3 24.6 C 3.2 km/h
3046 20-07-2014 12:25:00 25.2 C 17.69 g/m*3 25.2 C 4.8 km/h
3047 20-07-2014 12:30:00 25.9 C 16.22 g/m*3 25.9 C 6.4 km/h
3048 20-07-2014 12:35:00 26.6 C 17.37 g/m*3 26.6 C 4.8 km/h
3049 20-07-2014 12:40:00 26.9 C 17.4 g/m*3 26.9 C 8.1 km/h
3050 20-07-2014 12:45:00 27.6 C 15.96 g/m*3 27.6 C 8.1 km/h
Sensor: Nr:Datum:Temp:Abs-Feuchte:Windchill:Wind:
Aussen-T/F 3051 20-07-2014 12:50:00 28 C 16.32 g/m*3 28 C 6.4 km/h
3052 20-07-2014 12:55:00 28.3 C 16.86 g/m*3 28.3 C 4.8 km/h
3053 20-07-2014 13:00:00 28.6 C 17.14 g/m*3 28.6 C 3.2 km/h
3054 20-07-2014 13:05:00 28.6 C 17.42 g/m*3 28.6 C 3.2 km/h
3055 20-07-2014 13:10:00 28.2 C 18.42 g/m*3 28.2 C 0 km/h
3056 20-07-2014 13:15:00 27.8 C 18.29 g/m*3 27.8 C 3.2 km/h
3057 20-07-2014 13:20:00 27.6 C 17.56 g/m*3 27.6 C 3.2 km/h
3058 20-07-2014 13:25:00 27.8 C 18.56 g/m*3 27.8 C 3.2 km/h
3059 20-07-2014 13:30:00 27.8 C 17.75 g/m*3 27.8 C 4.8 km/h
3060 20-07-2014 13:35:00 27.9 C 18.93 g/m*3 27.9 C 0 km/h
3061 20-07-2014 13:40:00 27.8 C 18.83 g/m*3 27.8 C 3.2 km/h
3062 20-07-2014 13:45:00 27.6 C 18.36 g/m*3 27.6 C 1.6 km/h
3063 20-07-2014 13:50:00 27.6 C 17.56 g/m*3 27.6 C 3.2 km/h
3064 20-07-2014 13:55:00 27.9 C 17.58 g/m*3 27.9 C 4.8 km/h
3065 20-07-2014 14:00:00 28.2 C 16.77 g/m*3 28.2 C 6.4 km/h
3066 20-07-2014 14:05:00 28.6 C 17.99 g/m*3 28.6 C 4.8 km/h
3067 20-07-2014 14:10:00 28.7 C 16.39 g/m*3 28.7 C 4.8 km/h
3068 20-07-2014 14:15:00 28.8 C 17.33 g/m*3 28.8 C 3.2 km/h
3069 20-07-2014 14:20:00 28.8 C 16.48 g/m*3 28.8 C 6.4 km/h
3070 20-07-2014 14:25:00 28.8 C 16.19 g/m*3 28.8 C 6.4 km/h
3071 20-07-2014 14:30:00 28.8 C 15.63 g/m*3 28.8 C 8.1 km/h
3072 20-07-2014 14:35:00 28.9 C 15.14 g/m*3 28.9 C 6.4 km/h
3073 20-07-2014 14:40:00 28.9 C 14.85 g/m*3 28.9 C 3.2 km/h
3074 20-07-2014 14:45:00 28.9 C 14.85 g/m*3 28.9 C 4.8 km/h
3075 20-07-2014 14:50:00 28.7 C 15.82 g/m*3 28.7 C 8.1 km/h
Sensor: Nr:Datum:Temp:Abs-Feuchte:Windchill:Wind:
Aussen-T/F 3076 20-07-2014 14:55:00 28.3 C 17.14 g/m*3 28.3 C 1.6 km/h
3077 20-07-2014 15:00:00 27.9 C 16.77 g/m*3 27.9 C 1.6 km/h
3078 20-07-2014 15:05:00 27.6 C 17.56 g/m*3 27.6 C 1.6 km/h
3079 20-07-2014 15:10:00 27.1 C 17.6 g/m*3 27.1 C 1.6 km/h
3080 20-07-2014 15:15:00 26.6 C 17.62 g/m*3 26.6 C 1.6 km/h
3081 20-07-2014 15:20:00 26.2 C 17.73 g/m*3 26.2 C 1.6 km/h
3082 20-07-2014 15:25:00 25.9 C 16.46 g/m*3 25.9 C 0 km/h
3083 20-07-2014 15:30:00 25.8 C 17.57 g/m*3 25.8 C 0 km/h
3084 20-07-2014 15:35:00 25.6 C 17.38 g/m*3 25.6 C 1.6 km/h
3085 20-07-2014 15:40:00 25.5 C 17.99 g/m*3 25.5 C 1.6 km/h
3086 20-07-2014 15:45:00 25.4 C 17.42 g/m*3 25.4 C 0 km/h
3087 20-07-2014 15:50:00 25.2 C 17.46 g/m*3 25.2 C 0 km/h
3088 20-07-2014 15:55:00 25.1 C 17.59 g/m*3 25.1 C 1.6 km/h
3089 20-07-2014 16:00:00 24.8 C 17.53 g/m*3 24.8 C 1.6 km/h
3090 20-07-2014 16:05:00 24.6 C 16.88 g/m*3 24.6 C 1.6 km/h
3091 20-07-2014 16:10:00 24.5 C 17.46 g/m*3 24.5 C 0 km/h
3092 20-07-2014 16:15:00 24.4 C 17.14 g/m*3 24.4 C 1.6 km/h
3093 20-07-2014 16:20:00 24.3 C 17.26 g/m*3 24.3 C 1.6 km/h
3094 20-07-2014 16:25:00 24.6 C 16.66 g/m*3 24.6 C 1.6 km/h
3095 20-07-2014 16:30:00 24.8 C 16.16 g/m*3 24.8 C 8.1 km/h
3096 20-07-2014 16:35:00 24.9 C 17.4 g/m*3 24.9 C 6.4 km/h
3097 20-07-2014 16:40:00 24.7 C 17.43 g/m*3 24.7 C 1.6 km/h
3098 20-07-2014 16:45:00 24.5 C 17.23 g/m*3 24.5 C 1.6 km/h
3099 20-07-2014 16:50:00 24.3 C 17.48 g/m*3 24.3 C 1.6 km/h
3100 20-07-2014 16:55:00 24.1 C 17.72 g/m*3 24.1 C 1.6 km/h
Sensor: Nr:Datum:Temp:Abs-Feuchte:Windchill:Wind:
Aussen-T/F 3101 20-07-2014 17:00:00 23.9 C 17.52 g/m*3 23.9 C 3.2 km/h
3102 20-07-2014 17:05:00 23.8 C 17.64 g/m*3 23.8 C 1.6 km/h
3103 20-07-2014 17:10:00 23.8 C 17.64 g/m*3 23.8 C 1.6 km/h
3104 20-07-2014 17:15:00 24 C 17.84 g/m*3 24 C 0 km/h
3105 20-07-2014 17:20:00 24.1 C 17.94 g/m*3 24.1 C 0 km/h
3106 20-07-2014 17:25:00 24.2 C 18.04 g/m*3 24.2 C 0 km/h
3107 20-07-2014 17:30:00 24.4 C 18.03 g/m*3 24.4 C 1.6 km/h
3108 20-07-2014 17:35:00 24.6 C 18.23 g/m*3 24.6 C 0 km/h
3109 20-07-2014 17:40:00 24.7 C 18.33 g/m*3 24.7 C 0 km/h
3110 20-07-2014 17:45:00 24.7 C 18.33 g/m*3 24.7 C 0 km/h
3111 20-07-2014 17:50:00 24.7 C 18.11 g/m*3 24.7 C 0 km/h
3112 20-07-2014 17:55:00 24.8 C 17.3 g/m*3 24.8 C 1.6 km/h
3113 20-07-2014 18:00:00 25.2 C 17.93 g/m*3 25.2 C 1.6 km/h
3114 20-07-2014 18:05:00 25.5 C 17.99 g/m*3 25.5 C 0 km/h
3115 20-07-2014 18:10:00 25.6 C 18.33 g/m*3 25.6 C 0 km/h
3116 20-07-2014 18:15:00 25.5 C 18.47 g/m*3 25.5 C 0 km/h
3117 20-07-2014 18:20:00 25.3 C 18.49 g/m*3 25.3 C 0 km/h
3118 20-07-2014 18:25:00 25.3 C 18.03 g/m*3 25.3 C 0 km/h
3119 20-07-2014 18:30:00 25.3 C 18.26 g/m*3 25.3 C 0 km/h
3120 20-07-2014 18:35:00 25.1 C 18.29 g/m*3 25.1 C 0 km/h
3121 20-07-2014 18:40:00 24.9 C 18.08 g/m*3 24.9 C 1.6 km/h
3122 20-07-2014 18:45:00 24.8 C 18.21 g/m*3 24.8 C 0 km/h
3123 20-07-2014 18:50:00 24.7 C 17.65 g/m*3 24.7 C 0 km/h
3124 20-07-2014 18:55:00 24.7 C 16.75 g/m*3 24.7 C 3.2 km/h
3125 20-07-2014 19:00:00 24.8 C 17.75 g/m*3 24.8 C 1.6 km/h
Sensor: Nr:Datum:Temp:Abs-Feuchte:Windchill:Wind:
Aussen-T/F 3126 20-07-2014 19:05:00 24.8 C 17.75 g/m*3 24.8 C 1.6 km/h
3127 20-07-2014 19:10:00 24.6 C 17.78 g/m*3 24.6 C 1.6 km/h
3128 20-07-2014 19:15:00 24.3 C 17.48 g/m*3 24.3 C 1.6 km/h
3129 20-07-2014 19:20:00 24.1 C 17.5 g/m*3 24.1 C 0 km/h
3130 20-07-2014 19:25:00 23.8 C 17.21 g/m*3 23.8 C 0 km/h
3131 20-07-2014 19:30:00 23.6 C 17.01 g/m*3 23.6 C 1.6 km/h
3132 20-07-2014 19:35:00 23.4 C 16.82 g/m*3 23.4 C 0 km/h
3133 20-07-2014 19:40:00 23.3 C 16.94 g/m*3 23.3 C 0 km/h
3134 20-07-2014 19:45:00 23.2 C 16.84 g/m*3 23.2 C 0 km/h
3135 20-07-2014 19:50:00 23.2 C 16.84 g/m*3 23.2 C 3.2 km/h
3136 20-07-2014 19:55:00 23.6 C 15.95 g/m*3 23.6 C 12.9 km/h
3137 20-07-2014 20:00:00 24 C 16.1 g/m*3 24 C 12.9 km/h
3138 20-07-2014 20:05:00 24.2 C 15.84 g/m*3 24.2 C 8.1 km/h
3139 20-07-2014 20:10:00 24.3 C 15.71 g/m*3 24.3 C 11.3 km/h
3140 20-07-2014 20:15:00 24.3 C 15.71 g/m*3 24.3 C 9.7 km/h
3141 20-07-2014 20:20:00 24.2 C 15.62 g/m*3 24.2 C 14.5 km/h
3142 20-07-2014 20:25:00 24.2 C 15.62 g/m*3 24.2 C 14.5 km/h
3143 20-07-2014 20:30:00 24.1 C 15.53 g/m*3 24.1 C 4.8 km/h
3144 20-07-2014 20:35:00 24 C 15.45 g/m*3 24 C 4.8 km/h
3145 20-07-2014 20:40:00 23.9 C 15.36 g/m*3 23.9 C 3.2 km/h
3146 20-07-2014 20:45:00 23.9 C 15.36 g/m*3 23.9 C 4.8 km/h
3147 20-07-2014 20:50:00 23.8 C 15.27 g/m*3 23.8 C 8.1 km/h
3148 20-07-2014 20:55:00 23.7 C 15.4 g/m*3 23.7 C 6.4 km/h
3149 20-07-2014 21:00:00 23.7 C 15.83 g/m*3 23.7 C 1.6 km/h
3150 20-07-2014 21:05:00 23.5 C 15.86 g/m*3 23.5 C 1.6 km/h
Sensor: Nr:Datum:Temp:Abs-Feuchte:Windchill:Wind:
Aussen-T/F 3151 20-07-2014 21:10:00 23.3 C 16.1 g/m*3 23.3 C 0 km/h
3152 20-07-2014 21:15:00 23.1 C 15.92 g/m*3 23.1 C 1.6 km/h
3153 20-07-2014 21:20:00 22.9 C 15.94 g/m*3 22.9 C 0 km/h
3154 20-07-2014 21:25:00 22.8 C 15.65 g/m*3 22.8 C 3.2 km/h
3155 20-07-2014 21:30:00 22.9 C 15.94 g/m*3 22.9 C 1.6 km/h
3156 20-07-2014 21:35:00 22.8 C 16.05 g/m*3 22.8 C 0 km/h
3157 20-07-2014 21:40:00 22.6 C 16.27 g/m*3 22.6 C 0 km/h
3158 20-07-2014 21:45:00 22.2 C 16.49 g/m*3 22.2 C 0 km/h
3159 20-07-2014 21:50:00 21.8 C 16.31 g/m*3 21.8 C 0 km/h
3160 20-07-2014 21:55:00 21.6 C 16.5 g/m*3 21.6 C 0 km/h
3161 20-07-2014 22:00:00 21.3 C 16.22 g/m*3 21.3 C 0 km/h
3162 20-07-2014 22:05:00 21.2 C 16.31 g/m*3 21.2 C 0 km/h
3163 20-07-2014 22:10:00 21.1 C 16.21 g/m*3 21.1 C 0 km/h
3164 20-07-2014 22:15:00 21.1 C 16.4 g/m*3 21.1 C 0 km/h
3165 20-07-2014 22:20:00 21 C 16.49 g/m*3 21 C 0 km/h
3166 20-07-2014 22:25:00 20.9 C 16.39 g/m*3 20.9 C 0 km/h
3167 20-07-2014 22:30:00 20.8 C 16.3 g/m*3 20.8 C 0 km/h
3168 20-07-2014 22:35:00 20.8 C 16.3 g/m*3 20.8 C 0 km/h
3169 20-07-2014 22:40:00 20.7 C 16.2 g/m*3 20.7 C 0 km/h
3170 20-07-2014 22:45:00 20.7 C 16.2 g/m*3 20.7 C 0 km/h
3171 20-07-2014 22:50:00 20.7 C 16.2 g/m*3 20.7 C 0 km/h
3172 20-07-2014 22:55:00 20.7 C 16.38 g/m*3 20.7 C 0 km/h
3173 20-07-2014 23:00:00 20.7 C 16.38 g/m*3 20.7 C 0 km/h
3174 20-07-2014 23:05:00 20.6 C 16.29 g/m*3 20.6 C 0 km/h
3175 20-07-2014 23:10:00 20.6 C 16.29 g/m*3 20.6 C 0 km/h
Sensor: Nr:Datum:Temp:Abs-Feuchte:Windchill:Wind:
Aussen-T/F 3176 20-07-2014 23:15:00 20.6 C 16.29 g/m*3 20.6 C 0 km/h
3177 20-07-2014 23:20:00 20.5 C 16.19 g/m*3 20.5 C 0 km/h
3178 20-07-2014 23:25:00 20.6 C 16.29 g/m*3 20.6 C 0 km/h
3179 20-07-2014 23:30:00 20.6 C 16.29 g/m*3 20.6 C 0 km/h
3180 20-07-2014 23:35:00 20.6 C 16.11 g/m*3 20.6 C 1.6 km/h
3181 20-07-2014 23:40:00 20.7 C 16.2 g/m*3 20.7 C 0 km/h
3182 20-07-2014 23:45:00 20.7 C 16.2 g/m*3 20.7 C 0 km/h
3183 20-07-2014 23:50:00 20.7 C 16.2 g/m*3 20.7 C 0 km/h
3184 20-07-2014 23:55:00 20.6 C 16.11 g/m*3 20.6 C 0 km/h
3185 21-07-2014 00:00:00 20.6 C 16.11 g/m*3 20.6 C 0 km/h
3186 21-07-2014 00:05:00 20.6 C 16.11 g/m*3 20.6 C 0 km/h
3187 21-07-2014 00:10:00 20.6 C 16.11 g/m*3 20.6 C 0 km/h
3188 21-07-2014 00:15:00 20.6 C 16.11 g/m*3 20.6 C 0 km/h
3189 21-07-2014 00:20:00 20.6 C 16.11 g/m*3 20.6 C 0 km/h
3190 21-07-2014 00:25:00 20.5 C 16.01 g/m*3 20.5 C 0 km/h
3191 21-07-2014 00:30:00 20.6 C 16.11 g/m*3 20.6 C 0 km/h
3192 21-07-2014 00:35:00 20.6 C 16.11 g/m*3 20.6 C 0 km/h
3193 21-07-2014 00:40:00 20.6 C 16.11 g/m*3 20.6 C 0 km/h
3194 21-07-2014 00:45:00 20.6 C 16.11 g/m*3 20.6 C 0 km/h
3195 21-07-2014 00:50:00 20.6 C 15.93 g/m*3 20.6 C 0 km/h
3196 21-07-2014 00:55:00 20.5 C 15.84 g/m*3 20.5 C 0 km/h
3197 21-07-2014 01:00:00 20.4 C 15.74 g/m*3 20.4 C 0 km/h
3198 21-07-2014 01:05:00 20.4 C 15.74 g/m*3 20.4 C 0 km/h
3199 21-07-2014 01:10:00 20.4 C 15.74 g/m*3 20.4 C 0 km/h
3200 21-07-2014 01:15:00 20.4 C 15.74 g/m*3 20.4 C 0 km/h
Sensor: Nr:Datum:Temp:Abs-Feuchte:Windchill:Wind:
Aussen-T/F 3201 21-07-2014 01:20:00 20.4 C 15.74 g/m*3 20.4 C 0 km/h
3202 21-07-2014 01:25:00 20.4 C 15.74 g/m*3 20.4 C 0 km/h
3203 21-07-2014 01:30:00 20.4 C 15.74 g/m*3 20.4 C 0 km/h
3204 21-07-2014 01:35:00 20.4 C 15.74 g/m*3 20.4 C 0 km/h
3205 21-07-2014 01:40:00 20.4 C 15.57 g/m*3 20.4 C 0 km/h
3206 21-07-2014 01:45:00 20.5 C 15.84 g/m*3 20.5 C 0 km/h
3207 21-07-2014 01:50:00 20.4 C 15.74 g/m*3 20.4 C 0 km/h
3208